<?xml version="1.0" encoding="UTF-8" standalone="no" ?>
<gpx xmlns="http://www.topografix.com/GPX/1/1" xmlns:xsi="http://www.w3.org/2001/XMLSchema-instance" xsi:schemaLocation="http://www.topografix.com/GPX/1/1 http://www.topografix.com/GPX/1/1/gpx.xsd" version="1.1" creator="VisuGPX - https://www.visugpx.com">
  <metadata>
    <name>HRP - PEDESTRE - Espagne/64 - De la station de ski d'Astun au refuge de Pombie</name>
    <desc><![CDATA[Notre première étape.]]></desc>
  </metadata>
  <trk>
    <name><![CDATA[ACTIVE LOG 001]]></name>
    <trkseg>
      <trkpt lat="42.81091" lon="-0.50518">
        <ele>1730.0297851562</ele>
        <time>2015-09-06T06:50:24Z</time>
      </trkpt>
      <trkpt lat="42.81091" lon="-0.50518">
        <ele>1730.0297851562</ele>
        <time>2015-09-06T06:50:25Z</time>
      </trkpt>
      <trkpt lat="42.81091" lon="-0.50518">
        <ele>1729.5490722656</ele>
        <time>2015-09-06T06:50:26Z</time>
      </trkpt>
      <trkpt lat="42.81088" lon="-0.50518">
        <ele>1730.0297851562</ele>
        <time>2015-09-06T06:51:27Z</time>
      </trkpt>
      <trkpt lat="42.81086" lon="-0.5052">
        <ele>1729.5490722656</ele>
        <time>2015-09-06T06:51:46Z</time>
      </trkpt>
      <trkpt lat="42.81083" lon="-0.50521">
        <ele>1728.1071777344</ele>
        <time>2015-09-06T06:52:18Z</time>
      </trkpt>
      <trkpt lat="42.81078" lon="-0.50515">
        <ele>1728.587890625</ele>
        <time>2015-09-06T06:52:35Z</time>
      </trkpt>
      <trkpt lat="42.81071" lon="-0.50506">
        <ele>1728.587890625</ele>
        <time>2015-09-06T06:52:47Z</time>
      </trkpt>
      <trkpt lat="42.81068" lon="-0.50492">
        <ele>1729.068359375</ele>
        <time>2015-09-06T06:53:00Z</time>
      </trkpt>
      <trkpt lat="42.81066" lon="-0.50489">
        <ele>1726.6652832031</ele>
        <time>2015-09-06T06:53:04Z</time>
      </trkpt>
      <trkpt lat="42.81065" lon="-0.50486">
        <ele>1727.1459960938</ele>
        <time>2015-09-06T06:53:07Z</time>
      </trkpt>
      <trkpt lat="42.81065" lon="-0.50484">
        <ele>1728.1071777344</ele>
        <time>2015-09-06T06:53:12Z</time>
      </trkpt>
      <trkpt lat="42.81057" lon="-0.50479">
        <ele>1730.0297851562</ele>
        <time>2015-09-06T06:53:21Z</time>
      </trkpt>
      <trkpt lat="42.81055" lon="-0.50475">
        <ele>1731.4716796875</ele>
        <time>2015-09-06T06:53:31Z</time>
      </trkpt>
      <trkpt lat="42.81056" lon="-0.50473">
        <ele>1732.9135742188</ele>
        <time>2015-09-06T06:53:34Z</time>
      </trkpt>
      <trkpt lat="42.81055" lon="-0.50468">
        <ele>1733.875</ele>
        <time>2015-09-06T06:53:49Z</time>
      </trkpt>
    </trkseg>
  </trk>
  <trk>
    <name><![CDATA[ACTIVE LOG 002]]></name>
    <trkseg>
      <trkpt lat="42.81055" lon="-0.50465">
        <ele>1734.3557128906</ele>
        <time>2015-09-06T06:53:53Z</time>
      </trkpt>
      <trkpt lat="42.81052" lon="-0.50451">
        <ele>1738.2009277344</ele>
        <time>2015-09-06T06:54:12Z</time>
      </trkpt>
      <trkpt lat="42.81055" lon="-0.50441">
        <ele>1741.5656738281</ele>
        <time>2015-09-06T06:54:27Z</time>
      </trkpt>
      <trkpt lat="42.81056" lon="-0.50441">
        <ele>1737.7202148438</ele>
        <time>2015-09-06T06:54:29Z</time>
      </trkpt>
      <trkpt lat="42.81056" lon="-0.5044">
        <ele>1741.0849609375</ele>
        <time>2015-09-06T06:54:30Z</time>
      </trkpt>
      <trkpt lat="42.81062" lon="-0.50433">
        <ele>1742.5270996094</ele>
        <time>2015-09-06T06:54:46Z</time>
      </trkpt>
      <trkpt lat="42.81062" lon="-0.50432">
        <ele>1743.0075683594</ele>
        <time>2015-09-06T06:54:47Z</time>
      </trkpt>
      <trkpt lat="42.81068" lon="-0.50425">
        <ele>1745.8916015625</ele>
        <time>2015-09-06T06:55:00Z</time>
      </trkpt>
      <trkpt lat="42.81074" lon="-0.5042">
        <ele>1749.2561035156</ele>
        <time>2015-09-06T06:55:13Z</time>
      </trkpt>
      <trkpt lat="42.81081" lon="-0.50415">
        <ele>1751.6594238281</ele>
        <time>2015-09-06T06:55:26Z</time>
      </trkpt>
      <trkpt lat="42.81089" lon="-0.50414">
        <ele>1755.0239257812</ele>
        <time>2015-09-06T06:55:40Z</time>
      </trkpt>
      <trkpt lat="42.8109" lon="-0.50413">
        <ele>1755.0239257812</ele>
        <time>2015-09-06T06:55:41Z</time>
      </trkpt>
      <trkpt lat="42.81092" lon="-0.50409">
        <ele>1757.908203125</ele>
        <time>2015-09-06T06:55:47Z</time>
      </trkpt>
      <trkpt lat="42.81098" lon="-0.50404">
        <ele>1760.3112792969</ele>
        <time>2015-09-06T06:56:00Z</time>
      </trkpt>
      <trkpt lat="42.81103" lon="-0.50397">
        <ele>1762.7145996094</ele>
        <time>2015-09-06T06:56:13Z</time>
      </trkpt>
      <trkpt lat="42.81107" lon="-0.50396">
        <ele>1765.1179199219</ele>
        <time>2015-09-06T06:56:20Z</time>
      </trkpt>
      <trkpt lat="42.81114" lon="-0.5039">
        <ele>1767.5209960938</ele>
        <time>2015-09-06T06:56:34Z</time>
      </trkpt>
      <trkpt lat="42.81117" lon="-0.50382">
        <ele>1770.8857421875</ele>
        <time>2015-09-06T06:56:45Z</time>
      </trkpt>
      <trkpt lat="42.81123" lon="-0.50373">
        <ele>1773.2893066406</ele>
        <time>2015-09-06T06:56:59Z</time>
      </trkpt>
      <trkpt lat="42.81127" lon="-0.50367">
        <ele>1777.1345214844</ele>
        <time>2015-09-06T06:57:09Z</time>
      </trkpt>
      <trkpt lat="42.8113" lon="-0.50366">
        <ele>1774.7312011719</ele>
        <time>2015-09-06T06:57:12Z</time>
      </trkpt>
      <trkpt lat="42.81135" lon="-0.50362">
        <ele>1775.6923828125</ele>
        <time>2015-09-06T06:57:30Z</time>
      </trkpt>
      <trkpt lat="42.81139" lon="-0.5036">
        <ele>1776.6538085938</ele>
        <time>2015-09-06T06:57:36Z</time>
      </trkpt>
      <trkpt lat="42.81146" lon="-0.50362">
        <ele>1777.1345214844</ele>
        <time>2015-09-06T06:57:45Z</time>
      </trkpt>
      <trkpt lat="42.81151" lon="-0.50378">
        <ele>1778.5764160156</ele>
        <time>2015-09-06T06:57:58Z</time>
      </trkpt>
      <trkpt lat="42.81163" lon="-0.5037">
        <ele>1780.4990234375</ele>
        <time>2015-09-06T06:58:13Z</time>
      </trkpt>
      <trkpt lat="42.81166" lon="-0.50366">
        <ele>1781.4602050781</ele>
        <time>2015-09-06T06:58:17Z</time>
      </trkpt>
      <trkpt lat="42.81168" lon="-0.50355">
        <ele>1782.9020996094</ele>
        <time>2015-09-06T06:58:27Z</time>
      </trkpt>
      <trkpt lat="42.8117" lon="-0.50338">
        <ele>1786.2668457031</ele>
        <time>2015-09-06T06:58:42Z</time>
      </trkpt>
      <trkpt lat="42.81172" lon="-0.50323">
        <ele>1789.6315917969</ele>
        <time>2015-09-06T06:58:58Z</time>
      </trkpt>
      <trkpt lat="42.81177" lon="-0.50327">
        <ele>1791.5541992188</ele>
        <time>2015-09-06T06:59:06Z</time>
      </trkpt>
      <trkpt lat="42.81181" lon="-0.50333">
        <ele>1792.0349121094</ele>
        <time>2015-09-06T06:59:14Z</time>
      </trkpt>
      <trkpt lat="42.81184" lon="-0.50336">
        <ele>1792.0349121094</ele>
        <time>2015-09-06T06:59:18Z</time>
      </trkpt>
      <trkpt lat="42.81186" lon="-0.50344">
        <ele>1792.515625</ele>
        <time>2015-09-06T06:59:24Z</time>
      </trkpt>
      <trkpt lat="42.81188" lon="-0.50351">
        <ele>1794.4379882812</ele>
        <time>2015-09-06T06:59:31Z</time>
      </trkpt>
      <trkpt lat="42.81188" lon="-0.50366">
        <ele>1796.3608398438</ele>
        <time>2015-09-06T06:59:47Z</time>
      </trkpt>
      <trkpt lat="42.81192" lon="-0.50381">
        <ele>1798.283203125</ele>
        <time>2015-09-06T06:59:58Z</time>
      </trkpt>
      <trkpt lat="42.81205" lon="-0.50386">
        <ele>1801.1672363281</ele>
        <time>2015-09-06T07:00:13Z</time>
      </trkpt>
      <trkpt lat="42.8122" lon="-0.5039">
        <ele>1803.5705566406</ele>
        <time>2015-09-06T07:00:29Z</time>
      </trkpt>
      <trkpt lat="42.81236" lon="-0.50403">
        <ele>1806.4545898438</ele>
        <time>2015-09-06T07:00:48Z</time>
      </trkpt>
      <trkpt lat="42.81245" lon="-0.50406">
        <ele>1808.3771972656</ele>
        <time>2015-09-06T07:00:58Z</time>
      </trkpt>
      <trkpt lat="42.81253" lon="-0.50411">
        <ele>1809.8190917969</ele>
        <time>2015-09-06T07:01:08Z</time>
      </trkpt>
      <trkpt lat="42.81265" lon="-0.50417">
        <ele>1812.703125</ele>
        <time>2015-09-06T07:01:23Z</time>
      </trkpt>
      <trkpt lat="42.81275" lon="-0.50419">
        <ele>1814.6257324219</ele>
        <time>2015-09-06T07:01:35Z</time>
      </trkpt>
      <trkpt lat="42.81295" lon="-0.50425">
        <ele>1816.0676269531</ele>
        <time>2015-09-06T07:01:53Z</time>
      </trkpt>
      <trkpt lat="42.81306" lon="-0.50432">
        <ele>1818.9516601562</ele>
        <time>2015-09-06T07:02:07Z</time>
      </trkpt>
      <trkpt lat="42.81322" lon="-0.50431">
        <ele>1819.4323730469</ele>
        <time>2015-09-06T07:02:21Z</time>
      </trkpt>
      <trkpt lat="42.81328" lon="-0.50426">
        <ele>1823.2778320312</ele>
        <time>2015-09-06T07:02:34Z</time>
      </trkpt>
      <trkpt lat="42.81334" lon="-0.50429">
        <ele>1826.1616210938</ele>
        <time>2015-09-06T07:02:45Z</time>
      </trkpt>
      <trkpt lat="42.81344" lon="-0.50435">
        <ele>1829.0454101562</ele>
        <time>2015-09-06T07:03:01Z</time>
      </trkpt>
      <trkpt lat="42.81347" lon="-0.50434">
        <ele>1830.4875488281</ele>
        <time>2015-09-06T07:03:05Z</time>
      </trkpt>
      <trkpt lat="42.81358" lon="-0.5043">
        <ele>1831.4487304688</ele>
        <time>2015-09-06T07:03:16Z</time>
      </trkpt>
      <trkpt lat="42.81366" lon="-0.50426">
        <ele>1831.9294433594</ele>
        <time>2015-09-06T07:03:26Z</time>
      </trkpt>
      <trkpt lat="42.8137" lon="-0.50424">
        <ele>1834.3327636719</ele>
        <time>2015-09-06T07:03:33Z</time>
      </trkpt>
      <trkpt lat="42.81371" lon="-0.5042">
        <ele>1836.2556152344</ele>
        <time>2015-09-06T07:03:42Z</time>
      </trkpt>
      <trkpt lat="42.81378" lon="-0.50414">
        <ele>1837.216796875</ele>
        <time>2015-09-06T07:03:58Z</time>
      </trkpt>
      <trkpt lat="42.81384" lon="-0.50427">
        <ele>1840.5812988281</ele>
        <time>2015-09-06T07:04:12Z</time>
      </trkpt>
      <trkpt lat="42.81398" lon="-0.5043">
        <ele>1842.0234375</ele>
        <time>2015-09-06T07:04:28Z</time>
      </trkpt>
      <trkpt lat="42.81409" lon="-0.50426">
        <ele>1843.4653320312</ele>
        <time>2015-09-06T07:04:41Z</time>
      </trkpt>
      <trkpt lat="42.81422" lon="-0.50417">
        <ele>1844.9072265625</ele>
        <time>2015-09-06T07:04:56Z</time>
      </trkpt>
      <trkpt lat="42.81433" lon="-0.50411">
        <ele>1847.7912597656</ele>
        <time>2015-09-06T07:05:09Z</time>
      </trkpt>
      <trkpt lat="42.81447" lon="-0.5041">
        <ele>1851.1557617188</ele>
        <time>2015-09-06T07:05:25Z</time>
      </trkpt>
      <trkpt lat="42.81463" lon="-0.50409">
        <ele>1853.0786132812</ele>
        <time>2015-09-06T07:05:42Z</time>
      </trkpt>
      <trkpt lat="42.81475" lon="-0.50419">
        <ele>1849.7138671875</ele>
        <time>2015-09-06T07:05:59Z</time>
      </trkpt>
      <trkpt lat="42.81487" lon="-0.50425">
        <ele>1853.5593261719</ele>
        <time>2015-09-06T07:06:14Z</time>
      </trkpt>
      <trkpt lat="42.81497" lon="-0.50434">
        <ele>1856.4431152344</ele>
        <time>2015-09-06T07:06:30Z</time>
      </trkpt>
      <trkpt lat="42.81509" lon="-0.50441">
        <ele>1859.8076171875</ele>
        <time>2015-09-06T07:06:45Z</time>
      </trkpt>
      <trkpt lat="42.81522" lon="-0.50435">
        <ele>1863.1723632812</ele>
        <time>2015-09-06T07:07:03Z</time>
      </trkpt>
      <trkpt lat="42.81531" lon="-0.50432">
        <ele>1867.017578125</ele>
        <time>2015-09-06T07:07:17Z</time>
      </trkpt>
      <trkpt lat="42.81542" lon="-0.50434">
        <ele>1866.0561523438</ele>
        <time>2015-09-06T07:07:31Z</time>
      </trkpt>
      <trkpt lat="42.81545" lon="-0.50434">
        <ele>1867.017578125</ele>
        <time>2015-09-06T07:07:34Z</time>
      </trkpt>
      <trkpt lat="42.81564" lon="-0.50434">
        <ele>1867.498046875</ele>
        <time>2015-09-06T07:07:53Z</time>
      </trkpt>
      <trkpt lat="42.81577" lon="-0.50443">
        <ele>1868.9404296875</ele>
        <time>2015-09-06T07:08:10Z</time>
      </trkpt>
      <trkpt lat="42.81589" lon="-0.50451">
        <ele>1872.3049316406</ele>
        <time>2015-09-06T07:08:26Z</time>
      </trkpt>
      <trkpt lat="42.81603" lon="-0.50458">
        <ele>1874.2275390625</ele>
        <time>2015-09-06T07:08:42Z</time>
      </trkpt>
      <trkpt lat="42.81618" lon="-0.50465">
        <ele>1873.7468261719</ele>
        <time>2015-09-06T07:09:00Z</time>
      </trkpt>
      <trkpt lat="42.81628" lon="-0.50473">
        <ele>1877.1115722656</ele>
        <time>2015-09-06T07:09:16Z</time>
      </trkpt>
      <trkpt lat="42.81635" lon="-0.50478">
        <ele>1880.9567871094</ele>
        <time>2015-09-06T07:09:28Z</time>
      </trkpt>
      <trkpt lat="42.81636" lon="-0.50478">
        <ele>1880.4760742188</ele>
        <time>2015-09-06T07:09:29Z</time>
      </trkpt>
      <trkpt lat="42.8164" lon="-0.5048">
        <ele>1881.91796875</ele>
        <time>2015-09-06T07:09:35Z</time>
      </trkpt>
      <trkpt lat="42.81647" lon="-0.50486">
        <ele>1884.3215332031</ele>
        <time>2015-09-06T07:09:50Z</time>
      </trkpt>
      <trkpt lat="42.81654" lon="-0.50481">
        <ele>1888.1667480469</ele>
        <time>2015-09-06T07:10:02Z</time>
      </trkpt>
      <trkpt lat="42.81655" lon="-0.5048">
        <ele>1887.2053222656</ele>
        <time>2015-09-06T07:10:03Z</time>
      </trkpt>
      <trkpt lat="42.81662" lon="-0.50474">
        <ele>1887.6860351562</ele>
        <time>2015-09-06T07:10:20Z</time>
      </trkpt>
      <trkpt lat="42.81674" lon="-0.50468">
        <ele>1889.6086425781</ele>
        <time>2015-09-06T07:10:36Z</time>
      </trkpt>
      <trkpt lat="42.81678" lon="-0.50467">
        <ele>1889.6086425781</ele>
        <time>2015-09-06T07:10:40Z</time>
      </trkpt>
      <trkpt lat="42.81694" lon="-0.50463">
        <ele>1891.53125</ele>
        <time>2015-09-06T07:10:56Z</time>
      </trkpt>
      <trkpt lat="42.81713" lon="-0.50461">
        <ele>1894.4150390625</ele>
        <time>2015-09-06T07:11:16Z</time>
      </trkpt>
      <trkpt lat="42.81729" lon="-0.50456">
        <ele>1896.337890625</ele>
        <time>2015-09-06T07:11:33Z</time>
      </trkpt>
      <trkpt lat="42.81734" lon="-0.50453">
        <ele>1897.7797851562</ele>
        <time>2015-09-06T07:11:39Z</time>
      </trkpt>
      <trkpt lat="42.81748" lon="-0.50443">
        <ele>1899.2216796875</ele>
        <time>2015-09-06T07:11:56Z</time>
      </trkpt>
      <trkpt lat="42.81762" lon="-0.50435">
        <ele>1901.6252441406</ele>
        <time>2015-09-06T07:12:12Z</time>
      </trkpt>
      <trkpt lat="42.81773" lon="-0.50431">
        <ele>1904.9897460938</ele>
        <time>2015-09-06T07:12:26Z</time>
      </trkpt>
      <trkpt lat="42.81786" lon="-0.50426">
        <ele>1907.3930664062</ele>
        <time>2015-09-06T07:12:42Z</time>
      </trkpt>
      <trkpt lat="42.81793" lon="-0.50432">
        <ele>1908.8349609375</ele>
        <time>2015-09-06T07:12:56Z</time>
      </trkpt>
      <trkpt lat="42.81802" lon="-0.50436">
        <ele>1911.7189941406</ele>
        <time>2015-09-06T07:13:10Z</time>
      </trkpt>
      <trkpt lat="42.81808" lon="-0.50437">
        <ele>1913.6413574219</ele>
        <time>2015-09-06T07:13:20Z</time>
      </trkpt>
      <trkpt lat="42.81821" lon="-0.50449">
        <ele>1917.0063476562</ele>
        <time>2015-09-06T07:13:37Z</time>
      </trkpt>
      <trkpt lat="42.81824" lon="-0.5045">
        <ele>1917.9675292969</ele>
        <time>2015-09-06T07:13:41Z</time>
      </trkpt>
      <trkpt lat="42.81836" lon="-0.50459">
        <ele>1920.3708496094</ele>
        <time>2015-09-06T07:13:55Z</time>
      </trkpt>
      <trkpt lat="42.81847" lon="-0.50469">
        <ele>1923.7353515625</ele>
        <time>2015-09-06T07:14:10Z</time>
      </trkpt>
      <trkpt lat="42.81858" lon="-0.50479">
        <ele>1926.138671875</ele>
        <time>2015-09-06T07:14:26Z</time>
      </trkpt>
      <trkpt lat="42.81867" lon="-0.50499">
        <ele>1928.0612792969</ele>
        <time>2015-09-06T07:14:45Z</time>
      </trkpt>
      <trkpt lat="42.8187" lon="-0.50512">
        <ele>1931.42578125</ele>
        <time>2015-09-06T07:14:58Z</time>
      </trkpt>
      <trkpt lat="42.8187" lon="-0.50513">
        <ele>1931.42578125</ele>
        <time>2015-09-06T07:14:59Z</time>
      </trkpt>
      <trkpt lat="42.81875" lon="-0.50529">
        <ele>1935.2712402344</ele>
        <time>2015-09-06T07:15:14Z</time>
      </trkpt>
      <trkpt lat="42.81875" lon="-0.5053">
        <ele>1934.7907714844</ele>
        <time>2015-09-06T07:15:15Z</time>
      </trkpt>
      <trkpt lat="42.81881" lon="-0.50544">
        <ele>1937.6745605469</ele>
        <time>2015-09-06T07:15:28Z</time>
      </trkpt>
      <trkpt lat="42.8189" lon="-0.50564">
        <ele>1940.5583496094</ele>
        <time>2015-09-06T07:15:47Z</time>
      </trkpt>
      <trkpt lat="42.81892" lon="-0.50573">
        <ele>1944.4035644531</ele>
        <time>2015-09-06T07:15:56Z</time>
      </trkpt>
      <trkpt lat="42.81896" lon="-0.50588">
        <ele>1946.3264160156</ele>
        <time>2015-09-06T07:16:11Z</time>
      </trkpt>
      <trkpt lat="42.81907" lon="-0.50593">
        <ele>1948.2490234375</ele>
        <time>2015-09-06T07:16:25Z</time>
      </trkpt>
      <trkpt lat="42.81916" lon="-0.50592">
        <ele>1951.6137695312</ele>
        <time>2015-09-06T07:16:37Z</time>
      </trkpt>
      <trkpt lat="42.81923" lon="-0.50595">
        <ele>1953.5363769531</ele>
        <time>2015-09-06T07:16:50Z</time>
      </trkpt>
      <trkpt lat="42.81922" lon="-0.50597">
        <ele>1953.0556640625</ele>
        <time>2015-09-06T07:17:14Z</time>
      </trkpt>
      <trkpt lat="42.81925" lon="-0.50596">
        <ele>1953.0556640625</ele>
        <time>2015-09-06T07:18:34Z</time>
      </trkpt>
      <trkpt lat="42.81922" lon="-0.50597">
        <ele>1953.0556640625</ele>
        <time>2015-09-06T07:20:00Z</time>
      </trkpt>
      <trkpt lat="42.81924" lon="-0.50597">
        <ele>1954.4975585938</ele>
        <time>2015-09-06T07:20:20Z</time>
      </trkpt>
      <trkpt lat="42.81922" lon="-0.50596">
        <ele>1953.5363769531</ele>
        <time>2015-09-06T07:20:39Z</time>
      </trkpt>
      <trkpt lat="42.81923" lon="-0.50597">
        <ele>1948.2490234375</ele>
        <time>2015-09-06T07:20:48Z</time>
      </trkpt>
      <trkpt lat="42.81923" lon="-0.50597">
        <ele>1956.9008789062</ele>
        <time>2015-09-06T07:20:49Z</time>
      </trkpt>
      <trkpt lat="42.81923" lon="-0.50596">
        <ele>1953.5363769531</ele>
        <time>2015-09-06T07:20:51Z</time>
      </trkpt>
      <trkpt lat="42.81923" lon="-0.50596">
        <ele>1954.0170898438</ele>
        <time>2015-09-06T07:20:52Z</time>
      </trkpt>
      <trkpt lat="42.81925" lon="-0.50597">
        <ele>1954.0170898438</ele>
        <time>2015-09-06T07:21:32Z</time>
      </trkpt>
      <trkpt lat="42.81924" lon="-0.50601">
        <ele>1954.4975585938</ele>
        <time>2015-09-06T07:21:51Z</time>
      </trkpt>
      <trkpt lat="42.81931" lon="-0.50612">
        <ele>1957.8623046875</ele>
        <time>2015-09-06T07:22:05Z</time>
      </trkpt>
      <trkpt lat="42.81937" lon="-0.50623">
        <ele>1960.74609375</ele>
        <time>2015-09-06T07:22:18Z</time>
      </trkpt>
      <trkpt lat="42.81947" lon="-0.50635">
        <ele>1963.6298828125</ele>
        <time>2015-09-06T07:22:35Z</time>
      </trkpt>
      <trkpt lat="42.81951" lon="-0.50632">
        <ele>1965.5529785156</ele>
        <time>2015-09-06T07:22:41Z</time>
      </trkpt>
      <trkpt lat="42.81957" lon="-0.50614">
        <ele>1966.9948730469</ele>
        <time>2015-09-06T07:23:00Z</time>
      </trkpt>
      <trkpt lat="42.81958" lon="-0.50605">
        <ele>1970.8400878906</ele>
        <time>2015-09-06T07:23:09Z</time>
      </trkpt>
      <trkpt lat="42.81961" lon="-0.5059">
        <ele>1973.2434082031</ele>
        <time>2015-09-06T07:23:25Z</time>
      </trkpt>
      <trkpt lat="42.81964" lon="-0.50578">
        <ele>1976.6079101562</ele>
        <time>2015-09-06T07:23:38Z</time>
      </trkpt>
      <trkpt lat="42.81969" lon="-0.50581">
        <ele>1978.0498046875</ele>
        <time>2015-09-06T07:23:53Z</time>
      </trkpt>
      <trkpt lat="42.81975" lon="-0.50593">
        <ele>1980.4533691406</ele>
        <time>2015-09-06T07:24:11Z</time>
      </trkpt>
      <trkpt lat="42.81977" lon="-0.50599">
        <ele>1983.8178710938</ele>
        <time>2015-09-06T07:24:20Z</time>
      </trkpt>
      <trkpt lat="42.81983" lon="-0.50605">
        <ele>1986.7016601562</ele>
        <time>2015-09-06T07:24:34Z</time>
      </trkpt>
      <trkpt lat="42.81991" lon="-0.50606">
        <ele>1989.5856933594</ele>
        <time>2015-09-06T07:24:53Z</time>
      </trkpt>
      <trkpt lat="42.81991" lon="-0.50605">
        <ele>1989.5856933594</ele>
        <time>2015-09-06T07:24:54Z</time>
      </trkpt>
      <trkpt lat="42.81993" lon="-0.50596">
        <ele>1992.4697265625</ele>
        <time>2015-09-06T07:25:06Z</time>
      </trkpt>
      <trkpt lat="42.81997" lon="-0.50585">
        <ele>1994.8728027344</ele>
        <time>2015-09-06T07:25:24Z</time>
      </trkpt>
      <trkpt lat="42.82" lon="-0.50589">
        <ele>1997.2763671875</ele>
        <time>2015-09-06T07:25:31Z</time>
      </trkpt>
      <trkpt lat="42.82005" lon="-0.50591">
        <ele>1998.7182617188</ele>
        <time>2015-09-06T07:25:46Z</time>
      </trkpt>
      <trkpt lat="42.82006" lon="-0.50584">
        <ele>2001.6022949219</ele>
        <time>2015-09-06T07:25:56Z</time>
      </trkpt>
      <trkpt lat="42.8201" lon="-0.50588">
        <ele>2004.966796875</ele>
        <time>2015-09-06T07:26:08Z</time>
      </trkpt>
      <trkpt lat="42.82015" lon="-0.50593">
        <ele>2006.8894042969</ele>
        <time>2015-09-06T07:26:23Z</time>
      </trkpt>
      <trkpt lat="42.82021" lon="-0.50597">
        <ele>2010.7346191406</ele>
        <time>2015-09-06T07:26:37Z</time>
      </trkpt>
      <trkpt lat="42.82021" lon="-0.50598">
        <ele>2010.7346191406</ele>
        <time>2015-09-06T07:26:38Z</time>
      </trkpt>
      <trkpt lat="42.82023" lon="-0.50612">
        <ele>2013.6186523438</ele>
        <time>2015-09-06T07:26:52Z</time>
      </trkpt>
      <trkpt lat="42.82031" lon="-0.50624">
        <ele>2015.5415039062</ele>
        <time>2015-09-06T07:27:11Z</time>
      </trkpt>
      <trkpt lat="42.82036" lon="-0.50628">
        <ele>2016.9833984375</ele>
        <time>2015-09-06T07:27:27Z</time>
      </trkpt>
      <trkpt lat="42.8204" lon="-0.50632">
        <ele>2019.38671875</ele>
        <time>2015-09-06T07:27:36Z</time>
      </trkpt>
      <trkpt lat="42.82044" lon="-0.50639">
        <ele>2021.7897949219</ele>
        <time>2015-09-06T07:27:51Z</time>
      </trkpt>
      <trkpt lat="42.82049" lon="-0.50644">
        <ele>2025.154296875</ele>
        <time>2015-09-06T07:28:04Z</time>
      </trkpt>
      <trkpt lat="42.82056" lon="-0.50645">
        <ele>2026.1157226562</ele>
        <time>2015-09-06T07:28:21Z</time>
      </trkpt>
      <trkpt lat="42.82059" lon="-0.50646">
        <ele>2028.0385742188</ele>
        <time>2015-09-06T07:28:28Z</time>
      </trkpt>
      <trkpt lat="42.8207" lon="-0.50652">
        <ele>2030.4418945312</ele>
        <time>2015-09-06T07:28:45Z</time>
      </trkpt>
      <trkpt lat="42.82071" lon="-0.50653">
        <ele>2031.8837890625</ele>
        <time>2015-09-06T07:28:48Z</time>
      </trkpt>
      <trkpt lat="42.82076" lon="-0.50649">
        <ele>2034.287109375</ele>
        <time>2015-09-06T07:29:03Z</time>
      </trkpt>
      <trkpt lat="42.82073" lon="-0.50643">
        <ele>2036.2097167969</ele>
        <time>2015-09-06T07:29:17Z</time>
      </trkpt>
      <trkpt lat="42.8207" lon="-0.50637">
        <ele>2039.57421875</ele>
        <time>2015-09-06T07:29:28Z</time>
      </trkpt>
      <trkpt lat="42.82077" lon="-0.50634">
        <ele>2041.4968261719</ele>
        <time>2015-09-06T07:29:42Z</time>
      </trkpt>
      <trkpt lat="42.82081" lon="-0.5063">
        <ele>2042.9387207031</ele>
        <time>2015-09-06T07:30:08Z</time>
      </trkpt>
      <trkpt lat="42.82087" lon="-0.50624">
        <ele>2044.8615722656</ele>
        <time>2015-09-06T07:30:22Z</time>
      </trkpt>
      <trkpt lat="42.82092" lon="-0.50628">
        <ele>2046.3037109375</ele>
        <time>2015-09-06T07:30:32Z</time>
      </trkpt>
      <trkpt lat="42.82095" lon="-0.50622">
        <ele>2050.1489257812</ele>
        <time>2015-09-06T07:30:42Z</time>
      </trkpt>
      <trkpt lat="42.82104" lon="-0.50619">
        <ele>2052.0712890625</ele>
        <time>2015-09-06T07:30:58Z</time>
      </trkpt>
      <trkpt lat="42.82111" lon="-0.50614">
        <ele>2054.9553222656</ele>
        <time>2015-09-06T07:31:13Z</time>
      </trkpt>
      <trkpt lat="42.82114" lon="-0.50613">
        <ele>2056.3972167969</ele>
        <time>2015-09-06T07:31:17Z</time>
      </trkpt>
      <trkpt lat="42.82122" lon="-0.50609">
        <ele>2057.8393554688</ele>
        <time>2015-09-06T07:31:33Z</time>
      </trkpt>
      <trkpt lat="42.82128" lon="-0.506">
        <ele>2059.28125</ele>
        <time>2015-09-06T07:31:46Z</time>
      </trkpt>
      <trkpt lat="42.82131" lon="-0.50595">
        <ele>2061.2041015625</ele>
        <time>2015-09-06T07:31:51Z</time>
      </trkpt>
      <trkpt lat="42.82133" lon="-0.50591">
        <ele>2062.6459960938</ele>
        <time>2015-09-06T07:31:55Z</time>
      </trkpt>
      <trkpt lat="42.82142" lon="-0.5058">
        <ele>2063.6071777344</ele>
        <time>2015-09-06T07:32:11Z</time>
      </trkpt>
      <trkpt lat="42.82154" lon="-0.50579">
        <ele>2066.9719238281</ele>
        <time>2015-09-06T07:32:26Z</time>
      </trkpt>
      <trkpt lat="42.82163" lon="-0.50571">
        <ele>2067.9331054688</ele>
        <time>2015-09-06T07:32:40Z</time>
      </trkpt>
      <trkpt lat="42.82171" lon="-0.50564">
        <ele>2070.3364257812</ele>
        <time>2015-09-06T07:32:50Z</time>
      </trkpt>
      <trkpt lat="42.82181" lon="-0.50554">
        <ele>2072.7397460938</ele>
        <time>2015-09-06T07:33:06Z</time>
      </trkpt>
      <trkpt lat="42.82183" lon="-0.50551">
        <ele>2072.7397460938</ele>
        <time>2015-09-06T07:33:10Z</time>
      </trkpt>
      <trkpt lat="42.82198" lon="-0.50545">
        <ele>2073.2204589844</ele>
        <time>2015-09-06T07:33:26Z</time>
      </trkpt>
      <trkpt lat="42.82203" lon="-0.50535">
        <ele>2075.1428222656</ele>
        <time>2015-09-06T07:33:35Z</time>
      </trkpt>
      <trkpt lat="42.82203" lon="-0.5051">
        <ele>2077.0659179688</ele>
        <time>2015-09-06T07:33:54Z</time>
      </trkpt>
      <trkpt lat="42.82203" lon="-0.50499">
        <ele>2077.0659179688</ele>
        <time>2015-09-06T07:34:05Z</time>
      </trkpt>
      <trkpt lat="42.82204" lon="-0.50491">
        <ele>2078.0270996094</ele>
        <time>2015-09-06T07:34:21Z</time>
      </trkpt>
      <trkpt lat="42.82204" lon="-0.50483">
        <ele>2078.0270996094</ele>
        <time>2015-09-06T07:34:27Z</time>
      </trkpt>
      <trkpt lat="42.82204" lon="-0.50479">
        <ele>2077.5463867188</ele>
        <time>2015-09-06T07:34:30Z</time>
      </trkpt>
      <trkpt lat="42.82202" lon="-0.50476">
        <ele>2078.5078125</ele>
        <time>2015-09-06T07:34:32Z</time>
      </trkpt>
      <trkpt lat="42.82198" lon="-0.5045">
        <ele>2078.98828125</ele>
        <time>2015-09-06T07:34:52Z</time>
      </trkpt>
      <trkpt lat="42.82198" lon="-0.50449">
        <ele>2078.5078125</ele>
        <time>2015-09-06T07:34:53Z</time>
      </trkpt>
      <trkpt lat="42.8219" lon="-0.50435">
        <ele>2078.98828125</ele>
        <time>2015-09-06T07:35:11Z</time>
      </trkpt>
      <trkpt lat="42.82181" lon="-0.50415">
        <ele>2079.4689941406</ele>
        <time>2015-09-06T07:35:28Z</time>
      </trkpt>
      <trkpt lat="42.82172" lon="-0.50388">
        <ele>2079.9497070312</ele>
        <time>2015-09-06T07:35:47Z</time>
      </trkpt>
      <trkpt lat="42.82164" lon="-0.50359">
        <ele>2079.9497070312</ele>
        <time>2015-09-06T07:36:07Z</time>
      </trkpt>
      <trkpt lat="42.82163" lon="-0.50356">
        <ele>2079.9497070312</ele>
        <time>2015-09-06T07:36:10Z</time>
      </trkpt>
      <trkpt lat="42.82158" lon="-0.50328">
        <ele>2080.9111328125</ele>
        <time>2015-09-06T07:36:27Z</time>
      </trkpt>
      <trkpt lat="42.82158" lon="-0.50318">
        <ele>2080.9111328125</ele>
        <time>2015-09-06T07:36:34Z</time>
      </trkpt>
      <trkpt lat="42.82159" lon="-0.50311">
        <ele>2080.4304199219</ele>
        <time>2015-09-06T07:36:38Z</time>
      </trkpt>
      <trkpt lat="42.82161" lon="-0.50305">
        <ele>2080.4304199219</ele>
        <time>2015-09-06T07:36:43Z</time>
      </trkpt>
      <trkpt lat="42.82166" lon="-0.50291">
        <ele>2081.3916015625</ele>
        <time>2015-09-06T07:36:53Z</time>
      </trkpt>
      <trkpt lat="42.82169" lon="-0.50291">
        <ele>2080.9111328125</ele>
        <time>2015-09-06T07:36:56Z</time>
      </trkpt>
      <trkpt lat="42.82183" lon="-0.50289">
        <ele>2079.9497070312</ele>
        <time>2015-09-06T07:37:09Z</time>
      </trkpt>
      <trkpt lat="42.82188" lon="-0.50287">
        <ele>2079.4689941406</ele>
        <time>2015-09-06T07:37:13Z</time>
      </trkpt>
      <trkpt lat="42.82198" lon="-0.50281">
        <ele>2078.5078125</ele>
        <time>2015-09-06T07:37:25Z</time>
      </trkpt>
      <trkpt lat="42.82218" lon="-0.50275">
        <ele>2079.4689941406</ele>
        <time>2015-09-06T07:37:41Z</time>
      </trkpt>
      <trkpt lat="42.82231" lon="-0.50272">
        <ele>2081.8723144531</ele>
        <time>2015-09-06T07:37:54Z</time>
      </trkpt>
      <trkpt lat="42.82245" lon="-0.50277">
        <ele>2083.3142089844</ele>
        <time>2015-09-06T07:38:11Z</time>
      </trkpt>
      <trkpt lat="42.82258" lon="-0.50278">
        <ele>2084.7563476562</ele>
        <time>2015-09-06T07:38:22Z</time>
      </trkpt>
      <trkpt lat="42.82282" lon="-0.50277">
        <ele>2083.3142089844</ele>
        <time>2015-09-06T07:38:40Z</time>
      </trkpt>
      <trkpt lat="42.8229" lon="-0.50277">
        <ele>2083.794921875</ele>
        <time>2015-09-06T07:38:46Z</time>
      </trkpt>
      <trkpt lat="42.82293" lon="-0.50277">
        <ele>2084.2756347656</ele>
        <time>2015-09-06T07:38:49Z</time>
      </trkpt>
      <trkpt lat="42.82294" lon="-0.50276">
        <ele>2084.2756347656</ele>
        <time>2015-09-06T07:38:51Z</time>
      </trkpt>
      <trkpt lat="42.82314" lon="-0.50272">
        <ele>2084.7563476562</ele>
        <time>2015-09-06T07:39:10Z</time>
      </trkpt>
      <trkpt lat="42.82332" lon="-0.50269">
        <ele>2085.7175292969</ele>
        <time>2015-09-06T07:39:29Z</time>
      </trkpt>
      <trkpt lat="42.82352" lon="-0.50267">
        <ele>2084.7563476562</ele>
        <time>2015-09-06T07:39:46Z</time>
      </trkpt>
      <trkpt lat="42.82363" lon="-0.50267">
        <ele>2085.7175292969</ele>
        <time>2015-09-06T07:39:57Z</time>
      </trkpt>
      <trkpt lat="42.82381" lon="-0.50269">
        <ele>2088.1208496094</ele>
        <time>2015-09-06T07:40:16Z</time>
      </trkpt>
      <trkpt lat="42.82395" lon="-0.50271">
        <ele>2090.5239257812</ele>
        <time>2015-09-06T07:40:32Z</time>
      </trkpt>
      <trkpt lat="42.82402" lon="-0.50276">
        <ele>2093.408203125</ele>
        <time>2015-09-06T07:40:45Z</time>
      </trkpt>
      <trkpt lat="42.82403" lon="-0.50276">
        <ele>2093.8889160156</ele>
        <time>2015-09-06T07:40:46Z</time>
      </trkpt>
      <trkpt lat="42.82413" lon="-0.5028">
        <ele>2095.8115234375</ele>
        <time>2015-09-06T07:40:58Z</time>
      </trkpt>
      <trkpt lat="42.82426" lon="-0.50277">
        <ele>2097.7341308594</ele>
        <time>2015-09-06T07:41:12Z</time>
      </trkpt>
      <trkpt lat="42.82435" lon="-0.5028">
        <ele>2098.6953125</ele>
        <time>2015-09-06T07:41:24Z</time>
      </trkpt>
      <trkpt lat="42.82444" lon="-0.50285">
        <ele>2099.6567382812</ele>
        <time>2015-09-06T07:41:37Z</time>
      </trkpt>
      <trkpt lat="42.82455" lon="-0.50289">
        <ele>2101.5793457031</ele>
        <time>2015-09-06T07:41:51Z</time>
      </trkpt>
      <trkpt lat="42.82455" lon="-0.50292">
        <ele>2102.5405273438</ele>
        <time>2015-09-06T07:42:11Z</time>
      </trkpt>
      <trkpt lat="42.82465" lon="-0.50293">
        <ele>2104.4631347656</ele>
        <time>2015-09-06T07:42:26Z</time>
      </trkpt>
      <trkpt lat="42.82469" lon="-0.50291">
        <ele>2106.3857421875</ele>
        <time>2015-09-06T07:42:32Z</time>
      </trkpt>
      <trkpt lat="42.82473" lon="-0.5028">
        <ele>2108.7893066406</ele>
        <time>2015-09-06T07:42:44Z</time>
      </trkpt>
      <trkpt lat="42.82477" lon="-0.50275">
        <ele>2109.2700195312</ele>
        <time>2015-09-06T07:42:57Z</time>
      </trkpt>
      <trkpt lat="42.82477" lon="-0.50273">
        <ele>2109.2700195312</ele>
        <time>2015-09-06T07:43:02Z</time>
      </trkpt>
      <trkpt lat="42.82482" lon="-0.50265">
        <ele>2109.7504882812</ele>
        <time>2015-09-06T07:43:12Z</time>
      </trkpt>
      <trkpt lat="42.82485" lon="-0.50258">
        <ele>2110.2312011719</ele>
        <time>2015-09-06T07:43:24Z</time>
      </trkpt>
      <trkpt lat="42.82481" lon="-0.5025">
        <ele>2112.1538085938</ele>
        <time>2015-09-06T07:43:32Z</time>
      </trkpt>
      <trkpt lat="42.82476" lon="-0.50239">
        <ele>2115.9990234375</ele>
        <time>2015-09-06T07:43:45Z</time>
      </trkpt>
      <trkpt lat="42.82477" lon="-0.50232">
        <ele>2117.4409179688</ele>
        <time>2015-09-06T07:43:53Z</time>
      </trkpt>
      <trkpt lat="42.82477" lon="-0.50222">
        <ele>2118.40234375</ele>
        <time>2015-09-06T07:44:04Z</time>
      </trkpt>
      <trkpt lat="42.82476" lon="-0.5022">
        <ele>2118.40234375</ele>
        <time>2015-09-06T07:44:06Z</time>
      </trkpt>
      <trkpt lat="42.82473" lon="-0.50208">
        <ele>2121.7668457031</ele>
        <time>2015-09-06T07:44:19Z</time>
      </trkpt>
      <trkpt lat="42.82474" lon="-0.50199">
        <ele>2123.208984375</ele>
        <time>2015-09-06T07:44:28Z</time>
      </trkpt>
      <trkpt lat="42.82468" lon="-0.50188">
        <ele>2124.1704101562</ele>
        <time>2015-09-06T07:44:39Z</time>
      </trkpt>
      <trkpt lat="42.82466" lon="-0.50176">
        <ele>2127.5349121094</ele>
        <time>2015-09-06T07:44:54Z</time>
      </trkpt>
      <trkpt lat="42.82463" lon="-0.50164">
        <ele>2130.8996582031</ele>
        <time>2015-09-06T07:45:06Z</time>
      </trkpt>
      <trkpt lat="42.8246" lon="-0.50152">
        <ele>2132.3415527344</ele>
        <time>2015-09-06T07:45:20Z</time>
      </trkpt>
      <trkpt lat="42.82462" lon="-0.50143">
        <ele>2135.2253417969</ele>
        <time>2015-09-06T07:45:33Z</time>
      </trkpt>
      <trkpt lat="42.82463" lon="-0.50134">
        <ele>2137.6286621094</ele>
        <time>2015-09-06T07:45:44Z</time>
      </trkpt>
      <trkpt lat="42.82463" lon="-0.5012">
        <ele>2140.5126953125</ele>
        <time>2015-09-06T07:45:58Z</time>
      </trkpt>
      <trkpt lat="42.82464" lon="-0.50112">
        <ele>2143.3967285156</ele>
        <time>2015-09-06T07:46:07Z</time>
      </trkpt>
      <trkpt lat="42.82462" lon="-0.50101">
        <ele>2144.8386230469</ele>
        <time>2015-09-06T07:46:18Z</time>
      </trkpt>
      <trkpt lat="42.82461" lon="-0.50089">
        <ele>2146.7612304688</ele>
        <time>2015-09-06T07:46:31Z</time>
      </trkpt>
      <trkpt lat="42.82462" lon="-0.50077">
        <ele>2149.6452636719</ele>
        <time>2015-09-06T07:46:46Z</time>
      </trkpt>
      <trkpt lat="42.82464" lon="-0.50064">
        <ele>2149.6452636719</ele>
        <time>2015-09-06T07:47:01Z</time>
      </trkpt>
      <trkpt lat="42.82464" lon="-0.50062">
        <ele>2150.1259765625</ele>
        <time>2015-09-06T07:47:15Z</time>
      </trkpt>
      <trkpt lat="42.82463" lon="-0.50058">
        <ele>2149.6452636719</ele>
        <time>2015-09-06T07:47:18Z</time>
      </trkpt>
      <trkpt lat="42.82463" lon="-0.50051">
        <ele>2150.1259765625</ele>
        <time>2015-09-06T07:47:23Z</time>
      </trkpt>
      <trkpt lat="42.8246" lon="-0.50042">
        <ele>2151.5678710938</ele>
        <time>2015-09-06T07:47:30Z</time>
      </trkpt>
      <trkpt lat="42.8246" lon="-0.50034">
        <ele>2151.5678710938</ele>
        <time>2015-09-06T07:47:35Z</time>
      </trkpt>
      <trkpt lat="42.82461" lon="-0.5003">
        <ele>2151.5678710938</ele>
        <time>2015-09-06T07:47:38Z</time>
      </trkpt>
      <trkpt lat="42.82462" lon="-0.50024">
        <ele>2151.5678710938</ele>
        <time>2015-09-06T07:47:42Z</time>
      </trkpt>
      <trkpt lat="42.82463" lon="-0.50021">
        <ele>2151.5678710938</ele>
        <time>2015-09-06T07:47:44Z</time>
      </trkpt>
      <trkpt lat="42.82459" lon="-0.49995">
        <ele>2152.5290527344</ele>
        <time>2015-09-06T07:48:03Z</time>
      </trkpt>
      <trkpt lat="42.82457" lon="-0.49982">
        <ele>2154.9323730469</ele>
        <time>2015-09-06T07:48:14Z</time>
      </trkpt>
      <trkpt lat="42.82457" lon="-0.4998">
        <ele>2155.4130859375</ele>
        <time>2015-09-06T07:48:16Z</time>
      </trkpt>
      <trkpt lat="42.82455" lon="-0.49976">
        <ele>2157.8166503906</ele>
        <time>2015-09-06T07:48:19Z</time>
      </trkpt>
      <trkpt lat="42.82454" lon="-0.49966">
        <ele>2158.2971191406</ele>
        <time>2015-09-06T07:48:32Z</time>
      </trkpt>
      <trkpt lat="42.82453" lon="-0.49965">
        <ele>2158.2971191406</ele>
        <time>2015-09-06T07:48:33Z</time>
      </trkpt>
      <trkpt lat="42.8245" lon="-0.4995">
        <ele>2161.6618652344</ele>
        <time>2015-09-06T07:48:45Z</time>
      </trkpt>
      <trkpt lat="42.82451" lon="-0.49944">
        <ele>2162.623046875</ele>
        <time>2015-09-06T07:48:49Z</time>
      </trkpt>
      <trkpt lat="42.82449" lon="-0.49934">
        <ele>2164.0649414062</ele>
        <time>2015-09-06T07:48:56Z</time>
      </trkpt>
      <trkpt lat="42.82445" lon="-0.49917">
        <ele>2165.5070800781</ele>
        <time>2015-09-06T07:49:12Z</time>
      </trkpt>
      <trkpt lat="42.82444" lon="-0.4991">
        <ele>2166.9489746094</ele>
        <time>2015-09-06T07:49:26Z</time>
      </trkpt>
      <trkpt lat="42.82442" lon="-0.49906">
        <ele>2165.5070800781</ele>
        <time>2015-09-06T07:49:43Z</time>
      </trkpt>
      <trkpt lat="42.82441" lon="-0.49905">
        <ele>2165.0263671875</ele>
        <time>2015-09-06T07:49:55Z</time>
      </trkpt>
      <trkpt lat="42.82443" lon="-0.49906">
        <ele>2166.9489746094</ele>
        <time>2015-09-06T07:51:27Z</time>
      </trkpt>
      <trkpt lat="42.82443" lon="-0.49905">
        <ele>2167.4294433594</ele>
        <time>2015-09-06T07:51:41Z</time>
      </trkpt>
      <trkpt lat="42.82442" lon="-0.49904">
        <ele>2167.4294433594</ele>
        <time>2015-09-06T07:52:21Z</time>
      </trkpt>
      <trkpt lat="42.82446" lon="-0.49904">
        <ele>2167.4294433594</ele>
        <time>2015-09-06T07:52:40Z</time>
      </trkpt>
      <trkpt lat="42.82446" lon="-0.49905">
        <ele>2168.8715820312</ele>
        <time>2015-09-06T07:52:46Z</time>
      </trkpt>
      <trkpt lat="42.82451" lon="-0.49902">
        <ele>2168.8715820312</ele>
        <time>2015-09-06T07:53:06Z</time>
      </trkpt>
      <trkpt lat="42.82454" lon="-0.49898">
        <ele>2167.91015625</ele>
        <time>2015-09-06T07:53:13Z</time>
      </trkpt>
      <trkpt lat="42.82466" lon="-0.49887">
        <ele>2165.9875488281</ele>
        <time>2015-09-06T07:53:28Z</time>
      </trkpt>
      <trkpt lat="42.82473" lon="-0.4988">
        <ele>2164.5456542969</ele>
        <time>2015-09-06T07:53:40Z</time>
      </trkpt>
      <trkpt lat="42.82479" lon="-0.49875">
        <ele>2163.1037597656</ele>
        <time>2015-09-06T07:53:49Z</time>
      </trkpt>
      <trkpt lat="42.82494" lon="-0.49861">
        <ele>2161.6618652344</ele>
        <time>2015-09-06T07:54:08Z</time>
      </trkpt>
      <trkpt lat="42.82516" lon="-0.4985">
        <ele>2159.2585449219</ele>
        <time>2015-09-06T07:54:31Z</time>
      </trkpt>
      <trkpt lat="42.82522" lon="-0.49847">
        <ele>2158.2971191406</ele>
        <time>2015-09-06T07:54:37Z</time>
      </trkpt>
      <trkpt lat="42.8254" lon="-0.49834">
        <ele>2156.8552246094</ele>
        <time>2015-09-06T07:54:56Z</time>
      </trkpt>
      <trkpt lat="42.82555" lon="-0.49822">
        <ele>2156.3745117188</ele>
        <time>2015-09-06T07:55:13Z</time>
      </trkpt>
      <trkpt lat="42.82573" lon="-0.49815">
        <ele>2155.8935546875</ele>
        <time>2015-09-06T07:55:30Z</time>
      </trkpt>
      <trkpt lat="42.82598" lon="-0.49803">
        <ele>2154.4516601562</ele>
        <time>2015-09-06T07:55:52Z</time>
      </trkpt>
      <trkpt lat="42.82619" lon="-0.49796">
        <ele>2153.9711914062</ele>
        <time>2015-09-06T07:56:11Z</time>
      </trkpt>
      <trkpt lat="42.8263" lon="-0.49788">
        <ele>2152.0483398438</ele>
        <time>2015-09-06T07:56:23Z</time>
      </trkpt>
      <trkpt lat="42.82633" lon="-0.49783">
        <ele>2150.6064453125</ele>
        <time>2015-09-06T07:56:28Z</time>
      </trkpt>
      <trkpt lat="42.82637" lon="-0.4978">
        <ele>2150.1259765625</ele>
        <time>2015-09-06T07:56:32Z</time>
      </trkpt>
      <trkpt lat="42.82639" lon="-0.49778">
        <ele>2150.6064453125</ele>
        <time>2015-09-06T07:56:34Z</time>
      </trkpt>
      <trkpt lat="42.82646" lon="-0.4975">
        <ele>2150.1259765625</ele>
        <time>2015-09-06T07:56:53Z</time>
      </trkpt>
      <trkpt lat="42.82652" lon="-0.49738">
        <ele>2146.7612304688</ele>
        <time>2015-09-06T07:57:08Z</time>
      </trkpt>
      <trkpt lat="42.82662" lon="-0.49734">
        <ele>2143.3967285156</ele>
        <time>2015-09-06T07:57:24Z</time>
      </trkpt>
      <trkpt lat="42.82662" lon="-0.49734">
        <ele>2143.3967285156</ele>
        <time>2015-09-06T07:57:25Z</time>
      </trkpt>
      <trkpt lat="42.8267" lon="-0.49736">
        <ele>2141.9548339844</ele>
        <time>2015-09-06T07:57:39Z</time>
      </trkpt>
      <trkpt lat="42.82679" lon="-0.49733">
        <ele>2138.5900878906</ele>
        <time>2015-09-06T07:57:52Z</time>
      </trkpt>
      <trkpt lat="42.82687" lon="-0.49731">
        <ele>2136.6672363281</ele>
        <time>2015-09-06T07:58:02Z</time>
      </trkpt>
      <trkpt lat="42.82696" lon="-0.49729">
        <ele>2134.7448730469</ele>
        <time>2015-09-06T07:58:15Z</time>
      </trkpt>
      <trkpt lat="42.82702" lon="-0.49727">
        <ele>2134.2641601562</ele>
        <time>2015-09-06T07:58:23Z</time>
      </trkpt>
      <trkpt lat="42.82717" lon="-0.49718">
        <ele>2132.8220214844</ele>
        <time>2015-09-06T07:58:42Z</time>
      </trkpt>
      <trkpt lat="42.8273" lon="-0.49705">
        <ele>2132.3415527344</ele>
        <time>2015-09-06T07:59:00Z</time>
      </trkpt>
      <trkpt lat="42.82741" lon="-0.49703">
        <ele>2135.2253417969</ele>
        <time>2015-09-06T07:59:15Z</time>
      </trkpt>
      <trkpt lat="42.82744" lon="-0.49706">
        <ele>2136.6672363281</ele>
        <time>2015-09-06T07:59:21Z</time>
      </trkpt>
      <trkpt lat="42.82751" lon="-0.49702">
        <ele>2136.6672363281</ele>
        <time>2015-09-06T07:59:35Z</time>
      </trkpt>
      <trkpt lat="42.82756" lon="-0.49696">
        <ele>2138.5900878906</ele>
        <time>2015-09-06T07:59:46Z</time>
      </trkpt>
      <trkpt lat="42.8276" lon="-0.49682">
        <ele>2135.2253417969</ele>
        <time>2015-09-06T08:00:00Z</time>
      </trkpt>
      <trkpt lat="42.82759" lon="-0.49671">
        <ele>2133.302734375</ele>
        <time>2015-09-06T08:00:15Z</time>
      </trkpt>
      <trkpt lat="42.82758" lon="-0.49663">
        <ele>2131.3801269531</ele>
        <time>2015-09-06T08:00:26Z</time>
      </trkpt>
      <trkpt lat="42.82764" lon="-0.49653">
        <ele>2129.4575195312</ele>
        <time>2015-09-06T08:00:39Z</time>
      </trkpt>
      <trkpt lat="42.82771" lon="-0.49645">
        <ele>2128.015625</ele>
        <time>2015-09-06T08:00:52Z</time>
      </trkpt>
      <trkpt lat="42.82779" lon="-0.49641">
        <ele>2126.5737304688</ele>
        <time>2015-09-06T08:01:07Z</time>
      </trkpt>
      <trkpt lat="42.82781" lon="-0.49638">
        <ele>2124.6511230469</ele>
        <time>2015-09-06T08:01:15Z</time>
      </trkpt>
      <trkpt lat="42.82789" lon="-0.49632">
        <ele>2122.7282714844</ele>
        <time>2015-09-06T08:01:28Z</time>
      </trkpt>
      <trkpt lat="42.82792" lon="-0.49632">
        <ele>2120.8056640625</ele>
        <time>2015-09-06T08:01:35Z</time>
      </trkpt>
      <trkpt lat="42.82797" lon="-0.49629">
        <ele>2118.8830566406</ele>
        <time>2015-09-06T08:01:46Z</time>
      </trkpt>
      <trkpt lat="42.82806" lon="-0.49621">
        <ele>2115.5185546875</ele>
        <time>2015-09-06T08:02:03Z</time>
      </trkpt>
      <trkpt lat="42.82814" lon="-0.49611">
        <ele>2114.5571289062</ele>
        <time>2015-09-06T08:02:18Z</time>
      </trkpt>
      <trkpt lat="42.82816" lon="-0.49603">
        <ele>2112.1538085938</ele>
        <time>2015-09-06T08:02:31Z</time>
      </trkpt>
      <trkpt lat="42.82818" lon="-0.49595">
        <ele>2111.6733398438</ele>
        <time>2015-09-06T08:02:46Z</time>
      </trkpt>
      <trkpt lat="42.82818" lon="-0.49588">
        <ele>2108.7893066406</ele>
        <time>2015-09-06T08:02:57Z</time>
      </trkpt>
      <trkpt lat="42.82826" lon="-0.49581">
        <ele>2105.9050292969</ele>
        <time>2015-09-06T08:03:12Z</time>
      </trkpt>
      <trkpt lat="42.82833" lon="-0.49575">
        <ele>2104.4631347656</ele>
        <time>2015-09-06T08:03:24Z</time>
      </trkpt>
      <trkpt lat="42.82843" lon="-0.49574">
        <ele>2103.0212402344</ele>
        <time>2015-09-06T08:03:39Z</time>
      </trkpt>
      <trkpt lat="42.82844" lon="-0.49573">
        <ele>2101.5793457031</ele>
        <time>2015-09-06T08:03:42Z</time>
      </trkpt>
      <trkpt lat="42.82853" lon="-0.49571">
        <ele>2100.1374511719</ele>
        <time>2015-09-06T08:03:57Z</time>
      </trkpt>
      <trkpt lat="42.82859" lon="-0.49564">
        <ele>2096.7727050781</ele>
        <time>2015-09-06T08:04:10Z</time>
      </trkpt>
      <trkpt lat="42.82864" lon="-0.4956">
        <ele>2095.3308105469</ele>
        <time>2015-09-06T08:04:20Z</time>
      </trkpt>
      <trkpt lat="42.82871" lon="-0.49556">
        <ele>2091.9660644531</ele>
        <time>2015-09-06T08:04:30Z</time>
      </trkpt>
      <trkpt lat="42.82881" lon="-0.49552">
        <ele>2088.6015625</ele>
        <time>2015-09-06T08:04:46Z</time>
      </trkpt>
      <trkpt lat="42.82889" lon="-0.49547">
        <ele>2087.1594238281</ele>
        <time>2015-09-06T08:04:57Z</time>
      </trkpt>
      <trkpt lat="42.82899" lon="-0.49543">
        <ele>2084.2756347656</ele>
        <time>2015-09-06T08:05:11Z</time>
      </trkpt>
      <trkpt lat="42.82903" lon="-0.49539">
        <ele>2082.3530273438</ele>
        <time>2015-09-06T08:05:17Z</time>
      </trkpt>
      <trkpt lat="42.82913" lon="-0.49532">
        <ele>2080.4304199219</ele>
        <time>2015-09-06T08:05:30Z</time>
      </trkpt>
      <trkpt lat="42.82924" lon="-0.49524">
        <ele>2079.9497070312</ele>
        <time>2015-09-06T08:05:44Z</time>
      </trkpt>
      <trkpt lat="42.82934" lon="-0.4952">
        <ele>2077.5463867188</ele>
        <time>2015-09-06T08:05:55Z</time>
      </trkpt>
      <trkpt lat="42.82942" lon="-0.49521">
        <ele>2076.5852050781</ele>
        <time>2015-09-06T08:06:05Z</time>
      </trkpt>
      <trkpt lat="42.82944" lon="-0.49522">
        <ele>2076.1044921875</ele>
        <time>2015-09-06T08:06:07Z</time>
      </trkpt>
      <trkpt lat="42.82953" lon="-0.49519">
        <ele>2073.7009277344</ele>
        <time>2015-09-06T08:06:19Z</time>
      </trkpt>
      <trkpt lat="42.82964" lon="-0.49519">
        <ele>2070.8171386719</ele>
        <time>2015-09-06T08:06:37Z</time>
      </trkpt>
      <trkpt lat="42.82966" lon="-0.49518">
        <ele>2069.3752441406</ele>
        <time>2015-09-06T08:06:40Z</time>
      </trkpt>
      <trkpt lat="42.82972" lon="-0.49518">
        <ele>2067.4523925781</ele>
        <time>2015-09-06T08:06:50Z</time>
      </trkpt>
      <trkpt lat="42.82975" lon="-0.49517">
        <ele>2066.9719238281</ele>
        <time>2015-09-06T08:07:05Z</time>
      </trkpt>
      <trkpt lat="42.82982" lon="-0.49514">
        <ele>2065.5300292969</ele>
        <time>2015-09-06T08:07:15Z</time>
      </trkpt>
      <trkpt lat="42.82986" lon="-0.49509">
        <ele>2063.6071777344</ele>
        <time>2015-09-06T08:07:26Z</time>
      </trkpt>
      <trkpt lat="42.82996" lon="-0.49508">
        <ele>2062.6459960938</ele>
        <time>2015-09-06T08:07:37Z</time>
      </trkpt>
      <trkpt lat="42.82999" lon="-0.49507">
        <ele>2061.2041015625</ele>
        <time>2015-09-06T08:07:40Z</time>
      </trkpt>
      <trkpt lat="42.83009" lon="-0.49492">
        <ele>2060.7233886719</ele>
        <time>2015-09-06T08:07:54Z</time>
      </trkpt>
      <trkpt lat="42.83016" lon="-0.49484">
        <ele>2059.76171875</ele>
        <time>2015-09-06T08:08:03Z</time>
      </trkpt>
      <trkpt lat="42.8302" lon="-0.49473">
        <ele>2058.8005371094</ele>
        <time>2015-09-06T08:08:11Z</time>
      </trkpt>
      <trkpt lat="42.83029" lon="-0.49448">
        <ele>2056.3972167969</ele>
        <time>2015-09-06T08:08:29Z</time>
      </trkpt>
      <trkpt lat="42.83033" lon="-0.49432">
        <ele>2054.9553222656</ele>
        <time>2015-09-06T08:08:40Z</time>
      </trkpt>
      <trkpt lat="42.83036" lon="-0.49427">
        <ele>2054.474609375</ele>
        <time>2015-09-06T08:08:45Z</time>
      </trkpt>
      <trkpt lat="42.83047" lon="-0.49404">
        <ele>2051.5908203125</ele>
        <time>2015-09-06T08:09:02Z</time>
      </trkpt>
      <trkpt lat="42.83049" lon="-0.49403">
        <ele>2051.5908203125</ele>
        <time>2015-09-06T08:09:05Z</time>
      </trkpt>
      <trkpt lat="42.83053" lon="-0.49395">
        <ele>2050.1489257812</ele>
        <time>2015-09-06T08:09:13Z</time>
      </trkpt>
      <trkpt lat="42.83058" lon="-0.49389">
        <ele>2048.7067871094</ele>
        <time>2015-09-06T08:09:20Z</time>
      </trkpt>
      <trkpt lat="42.83067" lon="-0.49381">
        <ele>2045.3422851562</ele>
        <time>2015-09-06T08:09:33Z</time>
      </trkpt>
      <trkpt lat="42.83074" lon="-0.49368">
        <ele>2043.4194335938</ele>
        <time>2015-09-06T08:09:50Z</time>
      </trkpt>
      <trkpt lat="42.83081" lon="-0.49362">
        <ele>2040.0549316406</ele>
        <time>2015-09-06T08:10:02Z</time>
      </trkpt>
      <trkpt lat="42.83091" lon="-0.49361">
        <ele>2036.2097167969</ele>
        <time>2015-09-06T08:10:16Z</time>
      </trkpt>
      <trkpt lat="42.83091" lon="-0.49361">
        <ele>2036.2097167969</ele>
        <time>2015-09-06T08:10:17Z</time>
      </trkpt>
      <trkpt lat="42.83102" lon="-0.49355">
        <ele>2033.8063964844</ele>
        <time>2015-09-06T08:10:33Z</time>
      </trkpt>
      <trkpt lat="42.83109" lon="-0.49359">
        <ele>2030.4418945312</ele>
        <time>2015-09-06T08:10:45Z</time>
      </trkpt>
      <trkpt lat="42.83112" lon="-0.4936">
        <ele>2030.4418945312</ele>
        <time>2015-09-06T08:10:49Z</time>
      </trkpt>
      <trkpt lat="42.83119" lon="-0.49356">
        <ele>2028.0385742188</ele>
        <time>2015-09-06T08:10:57Z</time>
      </trkpt>
      <trkpt lat="42.83131" lon="-0.49351">
        <ele>2025.154296875</ele>
        <time>2015-09-06T08:11:10Z</time>
      </trkpt>
      <trkpt lat="42.83145" lon="-0.4934">
        <ele>2024.1931152344</ele>
        <time>2015-09-06T08:11:26Z</time>
      </trkpt>
      <trkpt lat="42.83156" lon="-0.4934">
        <ele>2020.8286132812</ele>
        <time>2015-09-06T08:11:39Z</time>
      </trkpt>
      <trkpt lat="42.8316" lon="-0.49336">
        <ele>2018.9060058594</ele>
        <time>2015-09-06T08:11:44Z</time>
      </trkpt>
      <trkpt lat="42.83174" lon="-0.49326">
        <ele>2017.4638671875</ele>
        <time>2015-09-06T08:12:01Z</time>
      </trkpt>
      <trkpt lat="42.83176" lon="-0.49326">
        <ele>2016.0219726562</ele>
        <time>2015-09-06T08:12:03Z</time>
      </trkpt>
      <trkpt lat="42.83186" lon="-0.49322">
        <ele>2013.6186523438</ele>
        <time>2015-09-06T08:12:16Z</time>
      </trkpt>
      <trkpt lat="42.83197" lon="-0.49324">
        <ele>2012.1767578125</ele>
        <time>2015-09-06T08:12:31Z</time>
      </trkpt>
      <trkpt lat="42.83209" lon="-0.49318">
        <ele>2011.6960449219</ele>
        <time>2015-09-06T08:12:47Z</time>
      </trkpt>
      <trkpt lat="42.83225" lon="-0.49304">
        <ele>2009.2927246094</ele>
        <time>2015-09-06T08:13:06Z</time>
      </trkpt>
      <trkpt lat="42.83234" lon="-0.49301">
        <ele>2007.3701171875</ele>
        <time>2015-09-06T08:13:18Z</time>
      </trkpt>
      <trkpt lat="42.8325" lon="-0.49297">
        <ele>2006.8894042969</ele>
        <time>2015-09-06T08:13:35Z</time>
      </trkpt>
      <trkpt lat="42.83263" lon="-0.49285">
        <ele>2005.4475097656</ele>
        <time>2015-09-06T08:13:49Z</time>
      </trkpt>
      <trkpt lat="42.83274" lon="-0.49274">
        <ele>2004.0056152344</ele>
        <time>2015-09-06T08:14:06Z</time>
      </trkpt>
      <trkpt lat="42.83283" lon="-0.49271">
        <ele>2003.5249023438</ele>
        <time>2015-09-06T08:14:17Z</time>
      </trkpt>
      <trkpt lat="42.83286" lon="-0.49266">
        <ele>2003.5249023438</ele>
        <time>2015-09-06T08:14:23Z</time>
      </trkpt>
      <trkpt lat="42.83295" lon="-0.4926">
        <ele>2002.5634765625</ele>
        <time>2015-09-06T08:14:37Z</time>
      </trkpt>
      <trkpt lat="42.83302" lon="-0.49252">
        <ele>2002.5634765625</ele>
        <time>2015-09-06T08:14:52Z</time>
      </trkpt>
      <trkpt lat="42.83303" lon="-0.4925">
        <ele>2003.5249023438</ele>
        <time>2015-09-06T08:14:54Z</time>
      </trkpt>
      <trkpt lat="42.83315" lon="-0.49238">
        <ele>2004.0056152344</ele>
        <time>2015-09-06T08:15:11Z</time>
      </trkpt>
      <trkpt lat="42.83323" lon="-0.4924">
        <ele>2003.0441894531</ele>
        <time>2015-09-06T08:15:18Z</time>
      </trkpt>
      <trkpt lat="42.83334" lon="-0.49222">
        <ele>2003.5249023438</ele>
        <time>2015-09-06T08:15:33Z</time>
      </trkpt>
      <trkpt lat="42.83337" lon="-0.49217">
        <ele>2004.0056152344</ele>
        <time>2015-09-06T08:15:37Z</time>
      </trkpt>
      <trkpt lat="42.83339" lon="-0.49215">
        <ele>2003.5249023438</ele>
        <time>2015-09-06T08:15:39Z</time>
      </trkpt>
      <trkpt lat="42.83342" lon="-0.49206">
        <ele>2004.0056152344</ele>
        <time>2015-09-06T08:15:47Z</time>
      </trkpt>
      <trkpt lat="42.83357" lon="-0.49196">
        <ele>2004.4860839844</ele>
        <time>2015-09-06T08:16:04Z</time>
      </trkpt>
      <trkpt lat="42.83363" lon="-0.4919">
        <ele>2005.4475097656</ele>
        <time>2015-09-06T08:16:11Z</time>
      </trkpt>
      <trkpt lat="42.83371" lon="-0.49168">
        <ele>2003.5249023438</ele>
        <time>2015-09-06T08:16:27Z</time>
      </trkpt>
      <trkpt lat="42.83382" lon="-0.49157">
        <ele>2003.5249023438</ele>
        <time>2015-09-06T08:16:40Z</time>
      </trkpt>
      <trkpt lat="42.83386" lon="-0.49152">
        <ele>2002.5634765625</ele>
        <time>2015-09-06T08:16:45Z</time>
      </trkpt>
      <trkpt lat="42.83388" lon="-0.4915">
        <ele>2002.0827636719</ele>
        <time>2015-09-06T08:16:48Z</time>
      </trkpt>
      <trkpt lat="42.83395" lon="-0.49141">
        <ele>2000.6408691406</ele>
        <time>2015-09-06T08:16:57Z</time>
      </trkpt>
      <trkpt lat="42.83398" lon="-0.4912">
        <ele>1997.7570800781</ele>
        <time>2015-09-06T08:17:13Z</time>
      </trkpt>
      <trkpt lat="42.83401" lon="-0.49099">
        <ele>1994.3920898438</ele>
        <time>2015-09-06T08:17:28Z</time>
      </trkpt>
      <trkpt lat="42.83404" lon="-0.49094">
        <ele>1994.3920898438</ele>
        <time>2015-09-06T08:17:32Z</time>
      </trkpt>
      <trkpt lat="42.83405" lon="-0.4909">
        <ele>1994.3920898438</ele>
        <time>2015-09-06T08:17:35Z</time>
      </trkpt>
      <trkpt lat="42.83408" lon="-0.49087">
        <ele>1993.9116210938</ele>
        <time>2015-09-06T08:17:39Z</time>
      </trkpt>
      <trkpt lat="42.83418" lon="-0.49069">
        <ele>1992.9501953125</ele>
        <time>2015-09-06T08:17:54Z</time>
      </trkpt>
      <trkpt lat="42.8342" lon="-0.49054">
        <ele>1991.0275878906</ele>
        <time>2015-09-06T08:18:04Z</time>
      </trkpt>
      <trkpt lat="42.83429" lon="-0.49048">
        <ele>1988.6245117188</ele>
        <time>2015-09-06T08:18:14Z</time>
      </trkpt>
      <trkpt lat="42.8343" lon="-0.49047">
        <ele>1987.6630859375</ele>
        <time>2015-09-06T08:18:15Z</time>
      </trkpt>
      <trkpt lat="42.83431" lon="-0.49039">
        <ele>1986.7016601562</ele>
        <time>2015-09-06T08:18:20Z</time>
      </trkpt>
      <trkpt lat="42.83436" lon="-0.49034">
        <ele>1984.779296875</ele>
        <time>2015-09-06T08:18:25Z</time>
      </trkpt>
      <trkpt lat="42.8345" lon="-0.49026">
        <ele>1983.3371582031</ele>
        <time>2015-09-06T08:18:40Z</time>
      </trkpt>
      <trkpt lat="42.83459" lon="-0.49023">
        <ele>1979.9724121094</ele>
        <time>2015-09-06T08:18:50Z</time>
      </trkpt>
      <trkpt lat="42.8346" lon="-0.49003">
        <ele>1979.0109863281</ele>
        <time>2015-09-06T08:19:03Z</time>
      </trkpt>
      <trkpt lat="42.83461" lon="-0.48984">
        <ele>1978.0498046875</ele>
        <time>2015-09-06T08:19:18Z</time>
      </trkpt>
      <trkpt lat="42.83462" lon="-0.48966">
        <ele>1974.6853027344</ele>
        <time>2015-09-06T08:19:30Z</time>
      </trkpt>
      <trkpt lat="42.83463" lon="-0.48963">
        <ele>1975.1657714844</ele>
        <time>2015-09-06T08:19:32Z</time>
      </trkpt>
      <trkpt lat="42.83472" lon="-0.48956">
        <ele>1972.7626953125</ele>
        <time>2015-09-06T08:19:43Z</time>
      </trkpt>
      <trkpt lat="42.83472" lon="-0.48949">
        <ele>1972.7626953125</ele>
        <time>2015-09-06T08:19:48Z</time>
      </trkpt>
      <trkpt lat="42.83481" lon="-0.48926">
        <ele>1969.8786621094</ele>
        <time>2015-09-06T08:20:07Z</time>
      </trkpt>
      <trkpt lat="42.83488" lon="-0.48896">
        <ele>1968.9174804688</ele>
        <time>2015-09-06T08:20:27Z</time>
      </trkpt>
      <trkpt lat="42.83491" lon="-0.48868">
        <ele>1966.5141601562</ele>
        <time>2015-09-06T08:20:44Z</time>
      </trkpt>
      <trkpt lat="42.83488" lon="-0.48858">
        <ele>1966.0334472656</ele>
        <time>2015-09-06T08:20:51Z</time>
      </trkpt>
      <trkpt lat="42.83489" lon="-0.48852">
        <ele>1965.5529785156</ele>
        <time>2015-09-06T08:20:55Z</time>
      </trkpt>
      <trkpt lat="42.83489" lon="-0.48844">
        <ele>1964.5915527344</ele>
        <time>2015-09-06T08:20:59Z</time>
      </trkpt>
      <trkpt lat="42.83489" lon="-0.48839">
        <ele>1964.1108398438</ele>
        <time>2015-09-06T08:21:02Z</time>
      </trkpt>
      <trkpt lat="42.83498" lon="-0.48826">
        <ele>1963.6298828125</ele>
        <time>2015-09-06T08:21:16Z</time>
      </trkpt>
      <trkpt lat="42.83499" lon="-0.48822">
        <ele>1963.1494140625</ele>
        <time>2015-09-06T08:21:19Z</time>
      </trkpt>
      <trkpt lat="42.83498" lon="-0.48807">
        <ele>1961.2268066406</ele>
        <time>2015-09-06T08:21:34Z</time>
      </trkpt>
      <trkpt lat="42.83497" lon="-0.48803">
        <ele>1957.8623046875</ele>
        <time>2015-09-06T08:21:42Z</time>
      </trkpt>
      <trkpt lat="42.83493" lon="-0.48779">
        <ele>1956.9008789062</ele>
        <time>2015-09-06T08:21:59Z</time>
      </trkpt>
      <trkpt lat="42.83488" lon="-0.48753">
        <ele>1955.939453125</ele>
        <time>2015-09-06T08:22:16Z</time>
      </trkpt>
      <trkpt lat="42.83486" lon="-0.48745">
        <ele>1955.939453125</ele>
        <time>2015-09-06T08:22:22Z</time>
      </trkpt>
      <trkpt lat="42.83483" lon="-0.48738">
        <ele>1954.9782714844</ele>
        <time>2015-09-06T08:22:28Z</time>
      </trkpt>
      <trkpt lat="42.8348" lon="-0.48712">
        <ele>1954.0170898438</ele>
        <time>2015-09-06T08:22:46Z</time>
      </trkpt>
      <trkpt lat="42.8348" lon="-0.487">
        <ele>1953.5363769531</ele>
        <time>2015-09-06T08:22:54Z</time>
      </trkpt>
      <trkpt lat="42.83486" lon="-0.48676">
        <ele>1952.0942382812</ele>
        <time>2015-09-06T08:23:10Z</time>
      </trkpt>
      <trkpt lat="42.83496" lon="-0.48653">
        <ele>1950.171875</ele>
        <time>2015-09-06T08:23:27Z</time>
      </trkpt>
      <trkpt lat="42.83496" lon="-0.48651">
        <ele>1950.65234375</ele>
        <time>2015-09-06T08:23:29Z</time>
      </trkpt>
      <trkpt lat="42.83487" lon="-0.48641">
        <ele>1951.1330566406</ele>
        <time>2015-09-06T08:23:40Z</time>
      </trkpt>
      <trkpt lat="42.83483" lon="-0.48628">
        <ele>1949.2104492188</ele>
        <time>2015-09-06T08:23:50Z</time>
      </trkpt>
      <trkpt lat="42.8348" lon="-0.48613">
        <ele>1948.2490234375</ele>
        <time>2015-09-06T08:24:04Z</time>
      </trkpt>
      <trkpt lat="42.8348" lon="-0.48612">
        <ele>1948.2490234375</ele>
        <time>2015-09-06T08:24:05Z</time>
      </trkpt>
      <trkpt lat="42.83476" lon="-0.48607">
        <ele>1946.8068847656</ele>
        <time>2015-09-06T08:24:10Z</time>
      </trkpt>
      <trkpt lat="42.83468" lon="-0.48589">
        <ele>1943.9230957031</ele>
        <time>2015-09-06T08:24:23Z</time>
      </trkpt>
      <trkpt lat="42.83459" lon="-0.48559">
        <ele>1945.3649902344</ele>
        <time>2015-09-06T08:24:42Z</time>
      </trkpt>
      <trkpt lat="42.83454" lon="-0.48533">
        <ele>1945.3649902344</ele>
        <time>2015-09-06T08:24:57Z</time>
      </trkpt>
      <trkpt lat="42.83457" lon="-0.4851">
        <ele>1945.3649902344</ele>
        <time>2015-09-06T08:25:13Z</time>
      </trkpt>
      <trkpt lat="42.83461" lon="-0.48499">
        <ele>1944.8842773438</ele>
        <time>2015-09-06T08:25:23Z</time>
      </trkpt>
      <trkpt lat="42.8347" lon="-0.48491">
        <ele>1945.3649902344</ele>
        <time>2015-09-06T08:25:34Z</time>
      </trkpt>
      <trkpt lat="42.8347" lon="-0.4849">
        <ele>1945.845703125</ele>
        <time>2015-09-06T08:25:35Z</time>
      </trkpt>
      <trkpt lat="42.83479" lon="-0.48461">
        <ele>1947.2875976562</ele>
        <time>2015-09-06T08:25:54Z</time>
      </trkpt>
      <trkpt lat="42.83489" lon="-0.48446">
        <ele>1947.7683105469</ele>
        <time>2015-09-06T08:26:07Z</time>
      </trkpt>
      <trkpt lat="42.83503" lon="-0.48425">
        <ele>1949.6911621094</ele>
        <time>2015-09-06T08:26:25Z</time>
      </trkpt>
      <trkpt lat="42.83515" lon="-0.48409">
        <ele>1951.6137695312</ele>
        <time>2015-09-06T08:26:43Z</time>
      </trkpt>
      <trkpt lat="42.83528" lon="-0.48395">
        <ele>1954.0170898438</ele>
        <time>2015-09-06T08:26:59Z</time>
      </trkpt>
      <trkpt lat="42.83544" lon="-0.48385">
        <ele>1956.4201660156</ele>
        <time>2015-09-06T08:27:18Z</time>
      </trkpt>
      <trkpt lat="42.83558" lon="-0.48374">
        <ele>1958.3427734375</ele>
        <time>2015-09-06T08:27:34Z</time>
      </trkpt>
      <trkpt lat="42.83576" lon="-0.48357">
        <ele>1959.7846679688</ele>
        <time>2015-09-06T08:27:53Z</time>
      </trkpt>
      <trkpt lat="42.83589" lon="-0.48339">
        <ele>1958.8234863281</ele>
        <time>2015-09-06T08:28:10Z</time>
      </trkpt>
      <trkpt lat="42.8359" lon="-0.48337">
        <ele>1959.3041992188</ele>
        <time>2015-09-06T08:28:12Z</time>
      </trkpt>
      <trkpt lat="42.83599" lon="-0.48328">
        <ele>1955.939453125</ele>
        <time>2015-09-06T08:28:24Z</time>
      </trkpt>
      <trkpt lat="42.83606" lon="-0.48327">
        <ele>1954.9782714844</ele>
        <time>2015-09-06T08:28:31Z</time>
      </trkpt>
      <trkpt lat="42.83607" lon="-0.48324">
        <ele>1953.0556640625</ele>
        <time>2015-09-06T08:28:34Z</time>
      </trkpt>
      <trkpt lat="42.83611" lon="-0.4831">
        <ele>1950.171875</ele>
        <time>2015-09-06T08:28:49Z</time>
      </trkpt>
      <trkpt lat="42.8361" lon="-0.48299">
        <ele>1948.2490234375</ele>
        <time>2015-09-06T08:29:05Z</time>
      </trkpt>
      <trkpt lat="42.83604" lon="-0.48288">
        <ele>1945.845703125</ele>
        <time>2015-09-06T08:29:18Z</time>
      </trkpt>
      <trkpt lat="42.83599" lon="-0.48275">
        <ele>1942.9616699219</ele>
        <time>2015-09-06T08:29:32Z</time>
      </trkpt>
      <trkpt lat="42.83598" lon="-0.48273">
        <ele>1942.4812011719</ele>
        <time>2015-09-06T08:29:34Z</time>
      </trkpt>
      <trkpt lat="42.83596" lon="-0.4826">
        <ele>1940.0778808594</ele>
        <time>2015-09-06T08:29:51Z</time>
      </trkpt>
      <trkpt lat="42.83598" lon="-0.48262">
        <ele>1939.1164550781</ele>
        <time>2015-09-06T08:29:55Z</time>
      </trkpt>
      <trkpt lat="42.83601" lon="-0.48263">
        <ele>1937.6745605469</ele>
        <time>2015-09-06T08:29:59Z</time>
      </trkpt>
      <trkpt lat="42.83614" lon="-0.48268">
        <ele>1934.3100585938</ele>
        <time>2015-09-06T08:30:14Z</time>
      </trkpt>
      <trkpt lat="42.83622" lon="-0.48268">
        <ele>1932.3874511719</ele>
        <time>2015-09-06T08:30:26Z</time>
      </trkpt>
      <trkpt lat="42.83628" lon="-0.48273">
        <ele>1929.5031738281</ele>
        <time>2015-09-06T08:30:38Z</time>
      </trkpt>
      <trkpt lat="42.83634" lon="-0.48278">
        <ele>1928.0612792969</ele>
        <time>2015-09-06T08:30:49Z</time>
      </trkpt>
      <trkpt lat="42.83646" lon="-0.48287">
        <ele>1926.6193847656</ele>
        <time>2015-09-06T08:31:04Z</time>
      </trkpt>
      <trkpt lat="42.83649" lon="-0.48289">
        <ele>1925.1772460938</ele>
        <time>2015-09-06T08:31:09Z</time>
      </trkpt>
      <trkpt lat="42.83658" lon="-0.48289">
        <ele>1922.7741699219</ele>
        <time>2015-09-06T08:31:25Z</time>
      </trkpt>
      <trkpt lat="42.83665" lon="-0.48294">
        <ele>1922.7741699219</ele>
        <time>2015-09-06T08:31:42Z</time>
      </trkpt>
      <trkpt lat="42.83671" lon="-0.48295">
        <ele>1920.8515625</ele>
        <time>2015-09-06T08:31:53Z</time>
      </trkpt>
      <trkpt lat="42.83675" lon="-0.48292">
        <ele>1917.4868164062</ele>
        <time>2015-09-06T08:32:03Z</time>
      </trkpt>
      <trkpt lat="42.83682" lon="-0.48289">
        <ele>1915.5642089844</ele>
        <time>2015-09-06T08:32:15Z</time>
      </trkpt>
      <trkpt lat="42.83686" lon="-0.48284">
        <ele>1915.0834960938</ele>
        <time>2015-09-06T08:32:27Z</time>
      </trkpt>
      <trkpt lat="42.83686" lon="-0.48275">
        <ele>1912.6801757812</ele>
        <time>2015-09-06T08:32:39Z</time>
      </trkpt>
      <trkpt lat="42.83687" lon="-0.48263">
        <ele>1910.2768554688</ele>
        <time>2015-09-06T08:32:54Z</time>
      </trkpt>
      <trkpt lat="42.83687" lon="-0.48254">
        <ele>1907.8737792969</ele>
        <time>2015-09-06T08:33:00Z</time>
      </trkpt>
      <trkpt lat="42.83683" lon="-0.48251">
        <ele>1907.3930664062</ele>
        <time>2015-09-06T08:33:12Z</time>
      </trkpt>
      <trkpt lat="42.83677" lon="-0.48256">
        <ele>1904.5090332031</ele>
        <time>2015-09-06T08:33:22Z</time>
      </trkpt>
      <trkpt lat="42.83671" lon="-0.48249">
        <ele>1902.1057128906</ele>
        <time>2015-09-06T08:33:36Z</time>
      </trkpt>
      <trkpt lat="42.83672" lon="-0.48241">
        <ele>1900.6638183594</ele>
        <time>2015-09-06T08:33:42Z</time>
      </trkpt>
      <trkpt lat="42.83673" lon="-0.48226">
        <ele>1896.337890625</ele>
        <time>2015-09-06T08:33:56Z</time>
      </trkpt>
      <trkpt lat="42.83673" lon="-0.48226">
        <ele>1896.337890625</ele>
        <time>2015-09-06T08:33:57Z</time>
      </trkpt>
      <trkpt lat="42.83671" lon="-0.48217">
        <ele>1894.4150390625</ele>
        <time>2015-09-06T08:34:11Z</time>
      </trkpt>
      <trkpt lat="42.83667" lon="-0.48213">
        <ele>1891.53125</ele>
        <time>2015-09-06T08:34:22Z</time>
      </trkpt>
      <trkpt lat="42.83662" lon="-0.48208">
        <ele>1888.1667480469</ele>
        <time>2015-09-06T08:34:31Z</time>
      </trkpt>
      <trkpt lat="42.83662" lon="-0.48208">
        <ele>1888.1667480469</ele>
        <time>2015-09-06T08:34:32Z</time>
      </trkpt>
      <trkpt lat="42.83658" lon="-0.48196">
        <ele>1886.724609375</ele>
        <time>2015-09-06T08:34:46Z</time>
      </trkpt>
      <trkpt lat="42.83661" lon="-0.48186">
        <ele>1885.7634277344</ele>
        <time>2015-09-06T08:34:58Z</time>
      </trkpt>
      <trkpt lat="42.83663" lon="-0.48182">
        <ele>1884.3215332031</ele>
        <time>2015-09-06T08:35:03Z</time>
      </trkpt>
      <trkpt lat="42.83665" lon="-0.48172">
        <ele>1881.91796875</ele>
        <time>2015-09-06T08:35:16Z</time>
      </trkpt>
      <trkpt lat="42.83664" lon="-0.48169">
        <ele>1880.4760742188</ele>
        <time>2015-09-06T08:35:19Z</time>
      </trkpt>
      <trkpt lat="42.83658" lon="-0.48171">
        <ele>1878.5534667969</ele>
        <time>2015-09-06T08:35:30Z</time>
      </trkpt>
      <trkpt lat="42.83651" lon="-0.48169">
        <ele>1875.6694335938</ele>
        <time>2015-09-06T08:35:45Z</time>
      </trkpt>
      <trkpt lat="42.83648" lon="-0.48163">
        <ele>1873.7468261719</ele>
        <time>2015-09-06T08:35:58Z</time>
      </trkpt>
      <trkpt lat="42.83648" lon="-0.48162">
        <ele>1873.2663574219</ele>
        <time>2015-09-06T08:35:59Z</time>
      </trkpt>
      <trkpt lat="42.83646" lon="-0.4815">
        <ele>1871.3435058594</ele>
        <time>2015-09-06T08:36:08Z</time>
      </trkpt>
      <trkpt lat="42.83647" lon="-0.48139">
        <ele>1869.9016113281</ele>
        <time>2015-09-06T08:36:19Z</time>
      </trkpt>
      <trkpt lat="42.83648" lon="-0.4813">
        <ele>1867.498046875</ele>
        <time>2015-09-06T08:36:31Z</time>
      </trkpt>
      <trkpt lat="42.83649" lon="-0.48125">
        <ele>1864.1335449219</ele>
        <time>2015-09-06T08:36:47Z</time>
      </trkpt>
      <trkpt lat="42.83648" lon="-0.4811">
        <ele>1861.2497558594</ele>
        <time>2015-09-06T08:37:03Z</time>
      </trkpt>
      <trkpt lat="42.83651" lon="-0.48095">
        <ele>1858.3657226562</ele>
        <time>2015-09-06T08:37:16Z</time>
      </trkpt>
      <trkpt lat="42.83653" lon="-0.48092">
        <ele>1856.923828125</ele>
        <time>2015-09-06T08:37:19Z</time>
      </trkpt>
      <trkpt lat="42.83658" lon="-0.48086">
        <ele>1855.9624023438</ele>
        <time>2015-09-06T08:37:25Z</time>
      </trkpt>
      <trkpt lat="42.83665" lon="-0.48085">
        <ele>1855.4819335938</ele>
        <time>2015-09-06T08:37:32Z</time>
      </trkpt>
      <trkpt lat="42.8368" lon="-0.48083">
        <ele>1852.5979003906</ele>
        <time>2015-09-06T08:37:50Z</time>
      </trkpt>
      <trkpt lat="42.83688" lon="-0.48083">
        <ele>1849.7138671875</ele>
        <time>2015-09-06T08:37:58Z</time>
      </trkpt>
      <trkpt lat="42.83696" lon="-0.48075">
        <ele>1847.310546875</ele>
        <time>2015-09-06T08:38:11Z</time>
      </trkpt>
      <trkpt lat="42.837" lon="-0.48062">
        <ele>1845.3879394531</ele>
        <time>2015-09-06T08:38:21Z</time>
      </trkpt>
      <trkpt lat="42.83702" lon="-0.48046">
        <ele>1843.4653320312</ele>
        <time>2015-09-06T08:38:34Z</time>
      </trkpt>
      <trkpt lat="42.83712" lon="-0.48038">
        <ele>1842.0234375</ele>
        <time>2015-09-06T08:38:49Z</time>
      </trkpt>
      <trkpt lat="42.8372" lon="-0.48033">
        <ele>1840.5812988281</ele>
        <time>2015-09-06T08:39:01Z</time>
      </trkpt>
      <trkpt lat="42.83724" lon="-0.48032">
        <ele>1840.1008300781</ele>
        <time>2015-09-06T08:39:06Z</time>
      </trkpt>
      <trkpt lat="42.83731" lon="-0.48033">
        <ele>1838.6589355469</ele>
        <time>2015-09-06T08:39:18Z</time>
      </trkpt>
      <trkpt lat="42.83735" lon="-0.48026">
        <ele>1836.7360839844</ele>
        <time>2015-09-06T08:39:29Z</time>
      </trkpt>
      <trkpt lat="42.83741" lon="-0.48023">
        <ele>1835.2939453125</ele>
        <time>2015-09-06T08:39:44Z</time>
      </trkpt>
      <trkpt lat="42.83743" lon="-0.48016">
        <ele>1832.41015625</ele>
        <time>2015-09-06T08:40:05Z</time>
      </trkpt>
      <trkpt lat="42.83743" lon="-0.4801">
        <ele>1831.4487304688</ele>
        <time>2015-09-06T08:40:25Z</time>
      </trkpt>
      <trkpt lat="42.83745" lon="-0.48004">
        <ele>1830.4875488281</ele>
        <time>2015-09-06T08:40:57Z</time>
      </trkpt>
      <trkpt lat="42.83746" lon="-0.47998">
        <ele>1828.0842285156</ele>
        <time>2015-09-06T08:41:15Z</time>
      </trkpt>
      <trkpt lat="42.83747" lon="-0.47992">
        <ele>1826.1616210938</ele>
        <time>2015-09-06T08:41:28Z</time>
      </trkpt>
      <trkpt lat="42.83747" lon="-0.47984">
        <ele>1824.2390136719</ele>
        <time>2015-09-06T08:41:39Z</time>
      </trkpt>
      <trkpt lat="42.83748" lon="-0.47976">
        <ele>1822.7971191406</ele>
        <time>2015-09-06T08:41:49Z</time>
      </trkpt>
      <trkpt lat="42.83748" lon="-0.47965">
        <ele>1821.3549804688</ele>
        <time>2015-09-06T08:41:59Z</time>
      </trkpt>
      <trkpt lat="42.8375" lon="-0.47949">
        <ele>1817.5095214844</ele>
        <time>2015-09-06T08:42:15Z</time>
      </trkpt>
      <trkpt lat="42.83751" lon="-0.47939">
        <ele>1814.6257324219</ele>
        <time>2015-09-06T08:42:28Z</time>
      </trkpt>
      <trkpt lat="42.83757" lon="-0.47943">
        <ele>1812.2224121094</ele>
        <time>2015-09-06T08:42:39Z</time>
      </trkpt>
      <trkpt lat="42.83766" lon="-0.47954">
        <ele>1811.2612304688</ele>
        <time>2015-09-06T08:42:51Z</time>
      </trkpt>
      <trkpt lat="42.83769" lon="-0.47963">
        <ele>1810.7805175781</ele>
        <time>2015-09-06T08:43:04Z</time>
      </trkpt>
      <trkpt lat="42.83777" lon="-0.47962">
        <ele>1809.3386230469</ele>
        <time>2015-09-06T08:43:19Z</time>
      </trkpt>
      <trkpt lat="42.83782" lon="-0.47968">
        <ele>1807.8967285156</ele>
        <time>2015-09-06T08:43:31Z</time>
      </trkpt>
      <trkpt lat="42.83788" lon="-0.47964">
        <ele>1805.0126953125</ele>
        <time>2015-09-06T08:43:45Z</time>
      </trkpt>
      <trkpt lat="42.83797" lon="-0.47967">
        <ele>1803.5705566406</ele>
        <time>2015-09-06T08:43:59Z</time>
      </trkpt>
      <trkpt lat="42.83803" lon="-0.47975">
        <ele>1802.1284179688</ele>
        <time>2015-09-06T08:44:10Z</time>
      </trkpt>
      <trkpt lat="42.83801" lon="-0.47968">
        <ele>1798.7639160156</ele>
        <time>2015-09-06T08:44:25Z</time>
      </trkpt>
      <trkpt lat="42.83804" lon="-0.47966">
        <ele>1796.8413085938</ele>
        <time>2015-09-06T08:44:39Z</time>
      </trkpt>
      <trkpt lat="42.83804" lon="-0.4796">
        <ele>1795.3994140625</ele>
        <time>2015-09-06T08:44:54Z</time>
      </trkpt>
      <trkpt lat="42.83799" lon="-0.47954">
        <ele>1793.9575195312</ele>
        <time>2015-09-06T08:45:08Z</time>
      </trkpt>
      <trkpt lat="42.83793" lon="-0.47941">
        <ele>1790.5927734375</ele>
        <time>2015-09-06T08:45:23Z</time>
      </trkpt>
      <trkpt lat="42.83789" lon="-0.47934">
        <ele>1789.1508789062</ele>
        <time>2015-09-06T08:45:35Z</time>
      </trkpt>
      <trkpt lat="42.83786" lon="-0.47927">
        <ele>1787.7087402344</ele>
        <time>2015-09-06T08:45:48Z</time>
      </trkpt>
      <trkpt lat="42.83786" lon="-0.47921">
        <ele>1785.3054199219</ele>
        <time>2015-09-06T08:46:04Z</time>
      </trkpt>
      <trkpt lat="42.83787" lon="-0.47916">
        <ele>1783.8635253906</ele>
        <time>2015-09-06T08:46:26Z</time>
      </trkpt>
      <trkpt lat="42.83797" lon="-0.47918">
        <ele>1781.9409179688</ele>
        <time>2015-09-06T08:46:40Z</time>
      </trkpt>
      <trkpt lat="42.83804" lon="-0.4792">
        <ele>1780.4990234375</ele>
        <time>2015-09-06T08:46:53Z</time>
      </trkpt>
      <trkpt lat="42.83797" lon="-0.4791">
        <ele>1777.1345214844</ele>
        <time>2015-09-06T08:47:07Z</time>
      </trkpt>
      <trkpt lat="42.83788" lon="-0.47893">
        <ele>1774.2504882812</ele>
        <time>2015-09-06T08:47:26Z</time>
      </trkpt>
      <trkpt lat="42.83783" lon="-0.47877">
        <ele>1771.3662109375</ele>
        <time>2015-09-06T08:47:43Z</time>
      </trkpt>
      <trkpt lat="42.8378" lon="-0.47867">
        <ele>1768.9631347656</ele>
        <time>2015-09-06T08:47:57Z</time>
      </trkpt>
      <trkpt lat="42.83778" lon="-0.4786">
        <ele>1768.0017089844</ele>
        <time>2015-09-06T08:48:10Z</time>
      </trkpt>
      <trkpt lat="42.83775" lon="-0.47853">
        <ele>1765.5986328125</ele>
        <time>2015-09-06T08:48:30Z</time>
      </trkpt>
      <trkpt lat="42.83769" lon="-0.47835">
        <ele>1764.6372070312</ele>
        <time>2015-09-06T08:48:44Z</time>
      </trkpt>
      <trkpt lat="42.83768" lon="-0.47827">
        <ele>1764.6372070312</ele>
        <time>2015-09-06T08:48:49Z</time>
      </trkpt>
      <trkpt lat="42.83765" lon="-0.47803">
        <ele>1763.67578125</ele>
        <time>2015-09-06T08:49:03Z</time>
      </trkpt>
      <trkpt lat="42.83765" lon="-0.47793">
        <ele>1763.1953125</ele>
        <time>2015-09-06T08:49:11Z</time>
      </trkpt>
      <trkpt lat="42.83767" lon="-0.47781">
        <ele>1761.7534179688</ele>
        <time>2015-09-06T08:49:20Z</time>
      </trkpt>
      <trkpt lat="42.83775" lon="-0.4777">
        <ele>1757.908203125</ele>
        <time>2015-09-06T08:49:36Z</time>
      </trkpt>
      <trkpt lat="42.83776" lon="-0.47765">
        <ele>1756.9467773438</ele>
        <time>2015-09-06T08:49:41Z</time>
      </trkpt>
      <trkpt lat="42.83782" lon="-0.4775">
        <ele>1754.0627441406</ele>
        <time>2015-09-06T08:49:57Z</time>
      </trkpt>
      <trkpt lat="42.83783" lon="-0.47727">
        <ele>1751.6594238281</ele>
        <time>2015-09-06T08:50:14Z</time>
      </trkpt>
      <trkpt lat="42.83789" lon="-0.47707">
        <ele>1749.2561035156</ele>
        <time>2015-09-06T08:50:33Z</time>
      </trkpt>
      <trkpt lat="42.83795" lon="-0.47693">
        <ele>1746.3723144531</ele>
        <time>2015-09-06T08:50:50Z</time>
      </trkpt>
      <trkpt lat="42.83797" lon="-0.47682">
        <ele>1743.0075683594</ele>
        <time>2015-09-06T08:51:01Z</time>
      </trkpt>
      <trkpt lat="42.83797" lon="-0.47681">
        <ele>1742.5270996094</ele>
        <time>2015-09-06T08:51:02Z</time>
      </trkpt>
      <trkpt lat="42.83797" lon="-0.47676">
        <ele>1740.6042480469</ele>
        <time>2015-09-06T08:51:08Z</time>
      </trkpt>
      <trkpt lat="42.83792" lon="-0.4767">
        <ele>1737.7202148438</ele>
        <time>2015-09-06T08:51:21Z</time>
      </trkpt>
      <trkpt lat="42.8379" lon="-0.47668">
        <ele>1734.8364257812</ele>
        <time>2015-09-06T08:51:29Z</time>
      </trkpt>
      <trkpt lat="42.83787" lon="-0.47666">
        <ele>1732.9135742188</ele>
        <time>2015-09-06T08:51:34Z</time>
      </trkpt>
      <trkpt lat="42.83775" lon="-0.47667">
        <ele>1731.9523925781</ele>
        <time>2015-09-06T08:51:49Z</time>
      </trkpt>
      <trkpt lat="42.83773" lon="-0.47667">
        <ele>1730.5104980469</ele>
        <time>2015-09-06T08:51:52Z</time>
      </trkpt>
      <trkpt lat="42.83771" lon="-0.47666">
        <ele>1730.0297851562</ele>
        <time>2015-09-06T08:51:55Z</time>
      </trkpt>
      <trkpt lat="42.83765" lon="-0.47655">
        <ele>1727.1459960938</ele>
        <time>2015-09-06T08:52:11Z</time>
      </trkpt>
      <trkpt lat="42.83766" lon="-0.47654">
        <ele>1727.6264648438</ele>
        <time>2015-09-06T08:52:12Z</time>
      </trkpt>
      <trkpt lat="42.83773" lon="-0.47638">
        <ele>1723.7810058594</ele>
        <time>2015-09-06T08:52:28Z</time>
      </trkpt>
      <trkpt lat="42.83785" lon="-0.47626">
        <ele>1720.4165039062</ele>
        <time>2015-09-06T08:52:43Z</time>
      </trkpt>
      <trkpt lat="42.83791" lon="-0.47625">
        <ele>1721.3776855469</ele>
        <time>2015-09-06T08:52:57Z</time>
      </trkpt>
      <trkpt lat="42.83794" lon="-0.47624">
        <ele>1721.8583984375</ele>
        <time>2015-09-06T08:53:24Z</time>
      </trkpt>
      <trkpt lat="42.83796" lon="-0.47621">
        <ele>1720.8972167969</ele>
        <time>2015-09-06T08:53:30Z</time>
      </trkpt>
      <trkpt lat="42.83807" lon="-0.47615">
        <ele>1717.0520019531</ele>
        <time>2015-09-06T08:53:48Z</time>
      </trkpt>
      <trkpt lat="42.83807" lon="-0.47614">
        <ele>1717.0520019531</ele>
        <time>2015-09-06T08:53:49Z</time>
      </trkpt>
      <trkpt lat="42.83812" lon="-0.47609">
        <ele>1716.0905761719</ele>
        <time>2015-09-06T08:54:06Z</time>
      </trkpt>
      <trkpt lat="42.83812" lon="-0.47602">
        <ele>1715.6101074219</ele>
        <time>2015-09-06T08:54:20Z</time>
      </trkpt>
      <trkpt lat="42.83804" lon="-0.47598">
        <ele>1713.2067871094</ele>
        <time>2015-09-06T08:54:34Z</time>
      </trkpt>
      <trkpt lat="42.8381" lon="-0.47595">
        <ele>1710.3227539062</ele>
        <time>2015-09-06T08:54:48Z</time>
      </trkpt>
      <trkpt lat="42.83817" lon="-0.47588">
        <ele>1708.4001464844</ele>
        <time>2015-09-06T08:55:04Z</time>
      </trkpt>
      <trkpt lat="42.83822" lon="-0.4758">
        <ele>1707.4387207031</ele>
        <time>2015-09-06T08:55:14Z</time>
      </trkpt>
      <trkpt lat="42.8383" lon="-0.47567">
        <ele>1704.5546875</ele>
        <time>2015-09-06T08:55:31Z</time>
      </trkpt>
      <trkpt lat="42.83829" lon="-0.47563">
        <ele>1701.1901855469</ele>
        <time>2015-09-06T08:55:43Z</time>
      </trkpt>
      <trkpt lat="42.83832" lon="-0.47551">
        <ele>1699.267578125</ele>
        <time>2015-09-06T08:55:56Z</time>
      </trkpt>
      <trkpt lat="42.83835" lon="-0.47544">
        <ele>1695.9030761719</ele>
        <time>2015-09-06T08:56:04Z</time>
      </trkpt>
      <trkpt lat="42.83836" lon="-0.47542">
        <ele>1695.9030761719</ele>
        <time>2015-09-06T08:56:06Z</time>
      </trkpt>
      <trkpt lat="42.83839" lon="-0.47526">
        <ele>1691.5769042969</ele>
        <time>2015-09-06T08:56:21Z</time>
      </trkpt>
      <trkpt lat="42.8384" lon="-0.4752">
        <ele>1691.0961914062</ele>
        <time>2015-09-06T08:56:26Z</time>
      </trkpt>
      <trkpt lat="42.8384" lon="-0.47507">
        <ele>1685.3283691406</ele>
        <time>2015-09-06T08:56:38Z</time>
      </trkpt>
      <trkpt lat="42.83839" lon="-0.47506">
        <ele>1685.8090820312</ele>
        <time>2015-09-06T08:56:39Z</time>
      </trkpt>
      <trkpt lat="42.83843" lon="-0.47494">
        <ele>1684.8479003906</ele>
        <time>2015-09-06T08:56:53Z</time>
      </trkpt>
      <trkpt lat="42.83848" lon="-0.47487">
        <ele>1681.9638671875</ele>
        <time>2015-09-06T08:57:06Z</time>
      </trkpt>
      <trkpt lat="42.83851" lon="-0.47482">
        <ele>1680.5219726562</ele>
        <time>2015-09-06T08:57:12Z</time>
      </trkpt>
      <trkpt lat="42.83856" lon="-0.47469">
        <ele>1677.6379394531</ele>
        <time>2015-09-06T08:57:22Z</time>
      </trkpt>
      <trkpt lat="42.83863" lon="-0.47461">
        <ele>1676.1960449219</ele>
        <time>2015-09-06T08:57:30Z</time>
      </trkpt>
      <trkpt lat="42.83868" lon="-0.47445">
        <ele>1673.3120117188</ele>
        <time>2015-09-06T08:57:45Z</time>
      </trkpt>
      <trkpt lat="42.83879" lon="-0.47444">
        <ele>1670.9086914062</ele>
        <time>2015-09-06T08:57:57Z</time>
      </trkpt>
      <trkpt lat="42.83885" lon="-0.47442">
        <ele>1668.9860839844</ele>
        <time>2015-09-06T08:58:05Z</time>
      </trkpt>
      <trkpt lat="42.83886" lon="-0.47435">
        <ele>1667.0634765625</ele>
        <time>2015-09-06T08:58:16Z</time>
      </trkpt>
      <trkpt lat="42.83889" lon="-0.47425">
        <ele>1663.6987304688</ele>
        <time>2015-09-06T08:58:26Z</time>
      </trkpt>
      <trkpt lat="42.83898" lon="-0.47414">
        <ele>1660.3342285156</ele>
        <time>2015-09-06T08:58:42Z</time>
      </trkpt>
      <trkpt lat="42.83898" lon="-0.47413">
        <ele>1659.8532714844</ele>
        <time>2015-09-06T08:58:43Z</time>
      </trkpt>
      <trkpt lat="42.83898" lon="-0.47396">
        <ele>1657.4501953125</ele>
        <time>2015-09-06T08:58:57Z</time>
      </trkpt>
      <trkpt lat="42.83898" lon="-0.4739">
        <ele>1656.0080566406</ele>
        <time>2015-09-06T08:59:02Z</time>
      </trkpt>
      <trkpt lat="42.83902" lon="-0.4738">
        <ele>1655.046875</ele>
        <time>2015-09-06T08:59:14Z</time>
      </trkpt>
      <trkpt lat="42.83903" lon="-0.4737">
        <ele>1653.1242675781</ele>
        <time>2015-09-06T08:59:24Z</time>
      </trkpt>
      <trkpt lat="42.83904" lon="-0.47369">
        <ele>1652.6435546875</ele>
        <time>2015-09-06T08:59:25Z</time>
      </trkpt>
      <trkpt lat="42.83904" lon="-0.47359">
        <ele>1650.7209472656</ele>
        <time>2015-09-06T08:59:31Z</time>
      </trkpt>
      <trkpt lat="42.83908" lon="-0.47355">
        <ele>1650.2404785156</ele>
        <time>2015-09-06T08:59:36Z</time>
      </trkpt>
      <trkpt lat="42.83915" lon="-0.47351">
        <ele>1649.759765625</ele>
        <time>2015-09-06T08:59:44Z</time>
      </trkpt>
      <trkpt lat="42.83919" lon="-0.47347">
        <ele>1648.3176269531</ele>
        <time>2015-09-06T08:59:48Z</time>
      </trkpt>
      <trkpt lat="42.83929" lon="-0.47327">
        <ele>1648.3176269531</ele>
        <time>2015-09-06T09:00:04Z</time>
      </trkpt>
      <trkpt lat="42.83929" lon="-0.47322">
        <ele>1649.2790527344</ele>
        <time>2015-09-06T09:00:08Z</time>
      </trkpt>
      <trkpt lat="42.83929" lon="-0.47311">
        <ele>1648.7983398438</ele>
        <time>2015-09-06T09:00:21Z</time>
      </trkpt>
      <trkpt lat="42.83946" lon="-0.47297">
        <ele>1647.3564453125</ele>
        <time>2015-09-06T09:00:38Z</time>
      </trkpt>
      <trkpt lat="42.83958" lon="-0.47282">
        <ele>1646.3952636719</ele>
        <time>2015-09-06T09:00:51Z</time>
      </trkpt>
      <trkpt lat="42.83969" lon="-0.47263">
        <ele>1645.9145507812</ele>
        <time>2015-09-06T09:01:07Z</time>
      </trkpt>
      <trkpt lat="42.83977" lon="-0.47241">
        <ele>1645.9145507812</ele>
        <time>2015-09-06T09:01:23Z</time>
      </trkpt>
      <trkpt lat="42.83986" lon="-0.4722">
        <ele>1645.4338378906</ele>
        <time>2015-09-06T09:01:40Z</time>
      </trkpt>
      <trkpt lat="42.83991" lon="-0.47205">
        <ele>1644.953125</ele>
        <time>2015-09-06T09:01:54Z</time>
      </trkpt>
      <trkpt lat="42.83996" lon="-0.47189">
        <ele>1645.9145507812</ele>
        <time>2015-09-06T09:02:06Z</time>
      </trkpt>
      <trkpt lat="42.83998" lon="-0.47178">
        <ele>1646.3952636719</ele>
        <time>2015-09-06T09:02:17Z</time>
      </trkpt>
      <trkpt lat="42.84001" lon="-0.47163">
        <ele>1646.3952636719</ele>
        <time>2015-09-06T09:02:29Z</time>
      </trkpt>
      <trkpt lat="42.84006" lon="-0.47151">
        <ele>1645.4338378906</ele>
        <time>2015-09-06T09:02:45Z</time>
      </trkpt>
      <trkpt lat="42.84009" lon="-0.47143">
        <ele>1644.953125</ele>
        <time>2015-09-06T09:02:52Z</time>
      </trkpt>
      <trkpt lat="42.84012" lon="-0.47139">
        <ele>1644.953125</ele>
        <time>2015-09-06T09:02:56Z</time>
      </trkpt>
      <trkpt lat="42.84017" lon="-0.47126">
        <ele>1643.9916992188</ele>
        <time>2015-09-06T09:03:08Z</time>
      </trkpt>
      <trkpt lat="42.84019" lon="-0.47112">
        <ele>1644.4724121094</ele>
        <time>2015-09-06T09:03:21Z</time>
      </trkpt>
      <trkpt lat="42.84025" lon="-0.47095">
        <ele>1643.5109863281</ele>
        <time>2015-09-06T09:03:35Z</time>
      </trkpt>
      <trkpt lat="42.84032" lon="-0.47079">
        <ele>1643.0302734375</ele>
        <time>2015-09-06T09:03:48Z</time>
      </trkpt>
      <trkpt lat="42.84046" lon="-0.4706">
        <ele>1643.0302734375</ele>
        <time>2015-09-06T09:04:05Z</time>
      </trkpt>
      <trkpt lat="42.84051" lon="-0.47048">
        <ele>1643.0302734375</ele>
        <time>2015-09-06T09:04:13Z</time>
      </trkpt>
      <trkpt lat="42.84056" lon="-0.47038">
        <ele>1643.0302734375</ele>
        <time>2015-09-06T09:04:21Z</time>
      </trkpt>
      <trkpt lat="42.84064" lon="-0.47015">
        <ele>1643.9916992188</ele>
        <time>2015-09-06T09:04:37Z</time>
      </trkpt>
      <trkpt lat="42.8407" lon="-0.46996">
        <ele>1646.3952636719</ele>
        <time>2015-09-06T09:04:52Z</time>
      </trkpt>
      <trkpt lat="42.84075" lon="-0.46972">
        <ele>1648.3176269531</ele>
        <time>2015-09-06T09:05:08Z</time>
      </trkpt>
      <trkpt lat="42.84074" lon="-0.46966">
        <ele>1647.8371582031</ele>
        <time>2015-09-06T09:05:13Z</time>
      </trkpt>
      <trkpt lat="42.84072" lon="-0.4696">
        <ele>1648.7983398438</ele>
        <time>2015-09-06T09:05:19Z</time>
      </trkpt>
      <trkpt lat="42.84061" lon="-0.46959">
        <ele>1649.759765625</ele>
        <time>2015-09-06T09:05:33Z</time>
      </trkpt>
      <trkpt lat="42.8405" lon="-0.46966">
        <ele>1650.2404785156</ele>
        <time>2015-09-06T09:05:48Z</time>
      </trkpt>
      <trkpt lat="42.84049" lon="-0.46964">
        <ele>1650.2404785156</ele>
        <time>2015-09-06T09:05:58Z</time>
      </trkpt>
      <trkpt lat="42.8404" lon="-0.46954">
        <ele>1649.759765625</ele>
        <time>2015-09-06T09:06:11Z</time>
      </trkpt>
      <trkpt lat="42.84043" lon="-0.46949">
        <ele>1649.759765625</ele>
        <time>2015-09-06T09:06:19Z</time>
      </trkpt>
      <trkpt lat="42.84056" lon="-0.46943">
        <ele>1650.2404785156</ele>
        <time>2015-09-06T09:06:32Z</time>
      </trkpt>
      <trkpt lat="42.84069" lon="-0.46934">
        <ele>1650.2404785156</ele>
        <time>2015-09-06T09:06:46Z</time>
      </trkpt>
      <trkpt lat="42.8407" lon="-0.46923">
        <ele>1653.6049804688</ele>
        <time>2015-09-06T09:06:56Z</time>
      </trkpt>
      <trkpt lat="42.8407" lon="-0.46922">
        <ele>1654.0856933594</ele>
        <time>2015-09-06T09:07:14Z</time>
      </trkpt>
      <trkpt lat="42.84077" lon="-0.46916">
        <ele>1655.5275878906</ele>
        <time>2015-09-06T09:07:25Z</time>
      </trkpt>
      <trkpt lat="42.84085" lon="-0.4691">
        <ele>1657.9309082031</ele>
        <time>2015-09-06T09:07:36Z</time>
      </trkpt>
      <trkpt lat="42.8409" lon="-0.46904">
        <ele>1659.8532714844</ele>
        <time>2015-09-06T09:07:48Z</time>
      </trkpt>
      <trkpt lat="42.84094" lon="-0.46899">
        <ele>1661.2956542969</ele>
        <time>2015-09-06T09:08:02Z</time>
      </trkpt>
      <trkpt lat="42.84092" lon="-0.46893">
        <ele>1663.2182617188</ele>
        <time>2015-09-06T09:08:10Z</time>
      </trkpt>
      <trkpt lat="42.84092" lon="-0.46891">
        <ele>1664.1794433594</ele>
        <time>2015-09-06T09:08:14Z</time>
      </trkpt>
      <trkpt lat="42.84097" lon="-0.46882">
        <ele>1667.5439453125</ele>
        <time>2015-09-06T09:08:26Z</time>
      </trkpt>
      <trkpt lat="42.84104" lon="-0.46879">
        <ele>1668.9860839844</ele>
        <time>2015-09-06T09:08:36Z</time>
      </trkpt>
      <trkpt lat="42.84114" lon="-0.4688">
        <ele>1672.8312988281</ele>
        <time>2015-09-06T09:08:48Z</time>
      </trkpt>
      <trkpt lat="42.84114" lon="-0.4688">
        <ele>1672.8312988281</ele>
        <time>2015-09-06T09:08:49Z</time>
      </trkpt>
      <trkpt lat="42.84118" lon="-0.46872">
        <ele>1674.75390625</ele>
        <time>2015-09-06T09:09:02Z</time>
      </trkpt>
      <trkpt lat="42.84124" lon="-0.46866">
        <ele>1677.6379394531</ele>
        <time>2015-09-06T09:09:16Z</time>
      </trkpt>
      <trkpt lat="42.84128" lon="-0.46862">
        <ele>1679.0798339844</ele>
        <time>2015-09-06T09:09:28Z</time>
      </trkpt>
      <trkpt lat="42.84126" lon="-0.46857">
        <ele>1681.9638671875</ele>
        <time>2015-09-06T09:09:44Z</time>
      </trkpt>
      <trkpt lat="42.84131" lon="-0.46846">
        <ele>1684.8479003906</ele>
        <time>2015-09-06T09:09:58Z</time>
      </trkpt>
      <trkpt lat="42.84139" lon="-0.46839">
        <ele>1688.2124023438</ele>
        <time>2015-09-06T09:10:17Z</time>
      </trkpt>
      <trkpt lat="42.84146" lon="-0.46833">
        <ele>1689.654296875</ele>
        <time>2015-09-06T09:10:34Z</time>
      </trkpt>
      <trkpt lat="42.84151" lon="-0.46831">
        <ele>1692.5385742188</ele>
        <time>2015-09-06T09:10:45Z</time>
      </trkpt>
      <trkpt lat="42.84154" lon="-0.46828">
        <ele>1693.98046875</ele>
        <time>2015-09-06T09:10:50Z</time>
      </trkpt>
      <trkpt lat="42.8416" lon="-0.46823">
        <ele>1697.3449707031</ele>
        <time>2015-09-06T09:11:04Z</time>
      </trkpt>
      <trkpt lat="42.84161" lon="-0.46813">
        <ele>1700.2290039062</ele>
        <time>2015-09-06T09:11:17Z</time>
      </trkpt>
      <trkpt lat="42.84166" lon="-0.46819">
        <ele>1703.5935058594</ele>
        <time>2015-09-06T09:12:00Z</time>
      </trkpt>
      <trkpt lat="42.84174" lon="-0.46815">
        <ele>1704.07421875</ele>
        <time>2015-09-06T09:12:09Z</time>
      </trkpt>
      <trkpt lat="42.84181" lon="-0.46805">
        <ele>1706.4772949219</ele>
        <time>2015-09-06T09:12:20Z</time>
      </trkpt>
      <trkpt lat="42.84185" lon="-0.46805">
        <ele>1707.9194335938</ele>
        <time>2015-09-06T09:12:34Z</time>
      </trkpt>
      <trkpt lat="42.84189" lon="-0.46796">
        <ele>1711.2841796875</ele>
        <time>2015-09-06T09:12:49Z</time>
      </trkpt>
      <trkpt lat="42.84193" lon="-0.46796">
        <ele>1713.2067871094</ele>
        <time>2015-09-06T09:12:55Z</time>
      </trkpt>
      <trkpt lat="42.84197" lon="-0.46792">
        <ele>1714.6486816406</ele>
        <time>2015-09-06T09:13:06Z</time>
      </trkpt>
      <trkpt lat="42.84202" lon="-0.46785">
        <ele>1716.0905761719</ele>
        <time>2015-09-06T09:13:41Z</time>
      </trkpt>
      <trkpt lat="42.84202" lon="-0.46784">
        <ele>1718.4938964844</ele>
        <time>2015-09-06T09:13:51Z</time>
      </trkpt>
      <trkpt lat="42.84194" lon="-0.46783">
        <ele>1721.8583984375</ele>
        <time>2015-09-06T09:14:07Z</time>
      </trkpt>
      <trkpt lat="42.84201" lon="-0.46779">
        <ele>1725.2231445312</ele>
        <time>2015-09-06T09:14:28Z</time>
      </trkpt>
      <trkpt lat="42.842" lon="-0.46769">
        <ele>1728.587890625</ele>
        <time>2015-09-06T09:14:53Z</time>
      </trkpt>
      <trkpt lat="42.842" lon="-0.46769">
        <ele>1729.068359375</ele>
        <time>2015-09-06T09:14:54Z</time>
      </trkpt>
      <trkpt lat="42.84204" lon="-0.46763">
        <ele>1731.9523925781</ele>
        <time>2015-09-06T09:15:08Z</time>
      </trkpt>
      <trkpt lat="42.84206" lon="-0.46766">
        <ele>1734.3557128906</ele>
        <time>2015-09-06T09:15:20Z</time>
      </trkpt>
      <trkpt lat="42.84201" lon="-0.46767">
        <ele>1736.7587890625</ele>
        <time>2015-09-06T09:15:39Z</time>
      </trkpt>
      <trkpt lat="42.84197" lon="-0.46759">
        <ele>1740.1237792969</ele>
        <time>2015-09-06T09:15:55Z</time>
      </trkpt>
      <trkpt lat="42.84201" lon="-0.46742">
        <ele>1743.9689941406</ele>
        <time>2015-09-06T09:16:13Z</time>
      </trkpt>
      <trkpt lat="42.84205" lon="-0.46731">
        <ele>1745.8916015625</ele>
        <time>2015-09-06T09:16:33Z</time>
      </trkpt>
      <trkpt lat="42.84199" lon="-0.46725">
        <ele>1748.775390625</ele>
        <time>2015-09-06T09:16:51Z</time>
      </trkpt>
      <trkpt lat="42.84199" lon="-0.46724">
        <ele>1749.7368164062</ele>
        <time>2015-09-06T09:16:53Z</time>
      </trkpt>
      <trkpt lat="42.84199" lon="-0.46717">
        <ele>1752.1398925781</ele>
        <time>2015-09-06T09:17:04Z</time>
      </trkpt>
      <trkpt lat="42.84195" lon="-0.46714">
        <ele>1754.0627441406</ele>
        <time>2015-09-06T09:17:18Z</time>
      </trkpt>
      <trkpt lat="42.84191" lon="-0.46708">
        <ele>1756.9467773438</ele>
        <time>2015-09-06T09:17:34Z</time>
      </trkpt>
      <trkpt lat="42.84185" lon="-0.46705">
        <ele>1759.3500976562</ele>
        <time>2015-09-06T09:17:50Z</time>
      </trkpt>
      <trkpt lat="42.84188" lon="-0.46694">
        <ele>1761.7534179688</ele>
        <time>2015-09-06T09:18:11Z</time>
      </trkpt>
      <trkpt lat="42.84192" lon="-0.46689">
        <ele>1762.7145996094</ele>
        <time>2015-09-06T09:18:36Z</time>
      </trkpt>
      <trkpt lat="42.84188" lon="-0.46681">
        <ele>1765.1179199219</ele>
        <time>2015-09-06T09:18:53Z</time>
      </trkpt>
      <trkpt lat="42.84189" lon="-0.46672">
        <ele>1766.5598144531</ele>
        <time>2015-09-06T09:19:03Z</time>
      </trkpt>
      <trkpt lat="42.84187" lon="-0.46666">
        <ele>1767.5209960938</ele>
        <time>2015-09-06T09:19:19Z</time>
      </trkpt>
      <trkpt lat="42.84184" lon="-0.46666">
        <ele>1767.5209960938</ele>
        <time>2015-09-06T09:19:45Z</time>
      </trkpt>
      <trkpt lat="42.84184" lon="-0.46674">
        <ele>1768.9631347656</ele>
        <time>2015-09-06T09:21:01Z</time>
      </trkpt>
      <trkpt lat="42.84183" lon="-0.4667">
        <ele>1768.482421875</ele>
        <time>2015-09-06T09:21:27Z</time>
      </trkpt>
      <trkpt lat="42.84181" lon="-0.46653">
        <ele>1768.9631347656</ele>
        <time>2015-09-06T09:21:42Z</time>
      </trkpt>
      <trkpt lat="42.84179" lon="-0.46637">
        <ele>1770.8857421875</ele>
        <time>2015-09-06T09:22:01Z</time>
      </trkpt>
      <trkpt lat="42.84179" lon="-0.46633">
        <ele>1771.8469238281</ele>
        <time>2015-09-06T09:22:03Z</time>
      </trkpt>
      <trkpt lat="42.84176" lon="-0.46619">
        <ele>1774.7312011719</ele>
        <time>2015-09-06T09:22:16Z</time>
      </trkpt>
      <trkpt lat="42.84176" lon="-0.46614">
        <ele>1775.2116699219</ele>
        <time>2015-09-06T09:22:21Z</time>
      </trkpt>
      <trkpt lat="42.84177" lon="-0.46601">
        <ele>1776.1730957031</ele>
        <time>2015-09-06T09:22:32Z</time>
      </trkpt>
      <trkpt lat="42.84178" lon="-0.4659">
        <ele>1779.0568847656</ele>
        <time>2015-09-06T09:22:44Z</time>
      </trkpt>
      <trkpt lat="42.84178" lon="-0.4659">
        <ele>1779.0568847656</ele>
        <time>2015-09-06T09:22:45Z</time>
      </trkpt>
      <trkpt lat="42.84179" lon="-0.46586">
        <ele>1780.4990234375</ele>
        <time>2015-09-06T09:22:54Z</time>
      </trkpt>
      <trkpt lat="42.84174" lon="-0.46589">
        <ele>1780.9797363281</ele>
        <time>2015-09-06T09:23:03Z</time>
      </trkpt>
      <trkpt lat="42.84168" lon="-0.46586">
        <ele>1783.3828125</ele>
        <time>2015-09-06T09:23:19Z</time>
      </trkpt>
      <trkpt lat="42.84167" lon="-0.46579">
        <ele>1786.2668457031</ele>
        <time>2015-09-06T09:23:30Z</time>
      </trkpt>
      <trkpt lat="42.84159" lon="-0.46579">
        <ele>1788.6704101562</ele>
        <time>2015-09-06T09:23:44Z</time>
      </trkpt>
      <trkpt lat="42.84156" lon="-0.46574">
        <ele>1790.5927734375</ele>
        <time>2015-09-06T09:23:55Z</time>
      </trkpt>
      <trkpt lat="42.84159" lon="-0.46569">
        <ele>1791.0734863281</ele>
        <time>2015-09-06T09:24:05Z</time>
      </trkpt>
      <trkpt lat="42.84163" lon="-0.46561">
        <ele>1792.99609375</ele>
        <time>2015-09-06T09:24:18Z</time>
      </trkpt>
      <trkpt lat="42.84164" lon="-0.46557">
        <ele>1794.4379882812</ele>
        <time>2015-09-06T09:24:28Z</time>
      </trkpt>
      <trkpt lat="42.8416" lon="-0.46557">
        <ele>1795.3994140625</ele>
        <time>2015-09-06T09:24:37Z</time>
      </trkpt>
      <trkpt lat="42.84159" lon="-0.46556">
        <ele>1795.8801269531</ele>
        <time>2015-09-06T09:24:39Z</time>
      </trkpt>
      <trkpt lat="42.84157" lon="-0.46553">
        <ele>1797.802734375</ele>
        <time>2015-09-06T09:24:51Z</time>
      </trkpt>
      <trkpt lat="42.84156" lon="-0.46548">
        <ele>1799.7253417969</ele>
        <time>2015-09-06T09:25:03Z</time>
      </trkpt>
      <trkpt lat="42.84152" lon="-0.46541">
        <ele>1803.08984375</ele>
        <time>2015-09-06T09:25:18Z</time>
      </trkpt>
      <trkpt lat="42.84148" lon="-0.46538">
        <ele>1804.5319824219</ele>
        <time>2015-09-06T09:25:27Z</time>
      </trkpt>
      <trkpt lat="42.84147" lon="-0.46536">
        <ele>1805.9738769531</ele>
        <time>2015-09-06T09:25:30Z</time>
      </trkpt>
      <trkpt lat="42.84142" lon="-0.46532">
        <ele>1808.3771972656</ele>
        <time>2015-09-06T09:25:40Z</time>
      </trkpt>
      <trkpt lat="42.84141" lon="-0.46525">
        <ele>1810.7805175781</ele>
        <time>2015-09-06T09:25:52Z</time>
      </trkpt>
      <trkpt lat="42.84141" lon="-0.46519">
        <ele>1811.7419433594</ele>
        <time>2015-09-06T09:26:04Z</time>
      </trkpt>
      <trkpt lat="42.8414" lon="-0.46516">
        <ele>1812.2224121094</ele>
        <time>2015-09-06T09:26:09Z</time>
      </trkpt>
      <trkpt lat="42.84136" lon="-0.46508">
        <ele>1814.1450195312</ele>
        <time>2015-09-06T09:26:22Z</time>
      </trkpt>
      <trkpt lat="42.84135" lon="-0.46507">
        <ele>1815.1064453125</ele>
        <time>2015-09-06T09:26:40Z</time>
      </trkpt>
      <trkpt lat="42.84134" lon="-0.46502">
        <ele>1815.5871582031</ele>
        <time>2015-09-06T09:26:58Z</time>
      </trkpt>
      <trkpt lat="42.84131" lon="-0.465">
        <ele>1817.0290527344</ele>
        <time>2015-09-06T09:27:08Z</time>
      </trkpt>
      <trkpt lat="42.84128" lon="-0.46495">
        <ele>1818.9516601562</ele>
        <time>2015-09-06T09:27:20Z</time>
      </trkpt>
      <trkpt lat="42.84124" lon="-0.46491">
        <ele>1821.3549804688</ele>
        <time>2015-09-06T09:27:32Z</time>
      </trkpt>
      <trkpt lat="42.8412" lon="-0.46488">
        <ele>1823.2778320312</ele>
        <time>2015-09-06T09:27:42Z</time>
      </trkpt>
      <trkpt lat="42.84119" lon="-0.46486">
        <ele>1824.7197265625</ele>
        <time>2015-09-06T09:27:46Z</time>
      </trkpt>
      <trkpt lat="42.84118" lon="-0.46485">
        <ele>1825.2001953125</ele>
        <time>2015-09-06T09:28:06Z</time>
      </trkpt>
      <trkpt lat="42.84117" lon="-0.46482">
        <ele>1828.0842285156</ele>
        <time>2015-09-06T09:28:13Z</time>
      </trkpt>
      <trkpt lat="42.84114" lon="-0.4648">
        <ele>1830.0068359375</ele>
        <time>2015-09-06T09:28:22Z</time>
      </trkpt>
      <trkpt lat="42.84109" lon="-0.4648">
        <ele>1830.9682617188</ele>
        <time>2015-09-06T09:28:32Z</time>
      </trkpt>
      <trkpt lat="42.84104" lon="-0.46475">
        <ele>1831.9294433594</ele>
        <time>2015-09-06T09:28:43Z</time>
      </trkpt>
      <trkpt lat="42.841" lon="-0.46469">
        <ele>1832.890625</ele>
        <time>2015-09-06T09:28:55Z</time>
      </trkpt>
      <trkpt lat="42.84099" lon="-0.46465">
        <ele>1833.8520507812</ele>
        <time>2015-09-06T09:29:08Z</time>
      </trkpt>
      <trkpt lat="42.84096" lon="-0.4646">
        <ele>1836.2556152344</ele>
        <time>2015-09-06T09:29:28Z</time>
      </trkpt>
      <trkpt lat="42.84093" lon="-0.46455">
        <ele>1837.6975097656</ele>
        <time>2015-09-06T09:29:40Z</time>
      </trkpt>
      <trkpt lat="42.84093" lon="-0.46452">
        <ele>1839.1394042969</ele>
        <time>2015-09-06T09:29:45Z</time>
      </trkpt>
      <trkpt lat="42.84089" lon="-0.46449">
        <ele>1841.0620117188</ele>
        <time>2015-09-06T09:29:58Z</time>
      </trkpt>
      <trkpt lat="42.84084" lon="-0.46447">
        <ele>1842.5041503906</ele>
        <time>2015-09-06T09:30:08Z</time>
      </trkpt>
      <trkpt lat="42.84081" lon="-0.4644">
        <ele>1844.9072265625</ele>
        <time>2015-09-06T09:30:18Z</time>
      </trkpt>
      <trkpt lat="42.8408" lon="-0.46434">
        <ele>1847.310546875</ele>
        <time>2015-09-06T09:30:29Z</time>
      </trkpt>
      <trkpt lat="42.84075" lon="-0.46429">
        <ele>1848.7524414062</ele>
        <time>2015-09-06T09:30:40Z</time>
      </trkpt>
      <trkpt lat="42.84074" lon="-0.46421">
        <ele>1850.6750488281</ele>
        <time>2015-09-06T09:30:51Z</time>
      </trkpt>
      <trkpt lat="42.8407" lon="-0.46416">
        <ele>1852.1171875</ele>
        <time>2015-09-06T09:31:00Z</time>
      </trkpt>
      <trkpt lat="42.84071" lon="-0.46413">
        <ele>1853.0786132812</ele>
        <time>2015-09-06T09:31:15Z</time>
      </trkpt>
      <trkpt lat="42.84069" lon="-0.46409">
        <ele>1854.5205078125</ele>
        <time>2015-09-06T09:31:50Z</time>
      </trkpt>
      <trkpt lat="42.84064" lon="-0.46399">
        <ele>1856.4431152344</ele>
        <time>2015-09-06T09:32:04Z</time>
      </trkpt>
      <trkpt lat="42.84058" lon="-0.46393">
        <ele>1858.8464355469</ele>
        <time>2015-09-06T09:32:16Z</time>
      </trkpt>
      <trkpt lat="42.84056" lon="-0.4639">
        <ele>1859.8076171875</ele>
        <time>2015-09-06T09:32:21Z</time>
      </trkpt>
      <trkpt lat="42.84048" lon="-0.46383">
        <ele>1862.2109375</ele>
        <time>2015-09-06T09:32:35Z</time>
      </trkpt>
      <trkpt lat="42.84043" lon="-0.46378">
        <ele>1862.6916503906</ele>
        <time>2015-09-06T09:32:45Z</time>
      </trkpt>
      <trkpt lat="42.84042" lon="-0.46376">
        <ele>1862.6916503906</ele>
        <time>2015-09-06T09:32:47Z</time>
      </trkpt>
      <trkpt lat="42.84038" lon="-0.46365">
        <ele>1863.6528320312</ele>
        <time>2015-09-06T09:32:59Z</time>
      </trkpt>
      <trkpt lat="42.84036" lon="-0.46361">
        <ele>1864.6142578125</ele>
        <time>2015-09-06T09:33:04Z</time>
      </trkpt>
      <trkpt lat="42.84036" lon="-0.46355">
        <ele>1866.0561523438</ele>
        <time>2015-09-06T09:33:18Z</time>
      </trkpt>
      <trkpt lat="42.8404" lon="-0.46347">
        <ele>1866.0561523438</ele>
        <time>2015-09-06T09:33:36Z</time>
      </trkpt>
      <trkpt lat="42.84037" lon="-0.4634">
        <ele>1868.4597167969</ele>
        <time>2015-09-06T09:33:46Z</time>
      </trkpt>
      <trkpt lat="42.84033" lon="-0.46332">
        <ele>1871.3435058594</ele>
        <time>2015-09-06T09:33:57Z</time>
      </trkpt>
      <trkpt lat="42.84027" lon="-0.46322">
        <ele>1871.82421875</ele>
        <time>2015-09-06T09:34:10Z</time>
      </trkpt>
      <trkpt lat="42.84025" lon="-0.46315">
        <ele>1874.2275390625</ele>
        <time>2015-09-06T09:34:22Z</time>
      </trkpt>
      <trkpt lat="42.8402" lon="-0.46307">
        <ele>1875.6694335938</ele>
        <time>2015-09-06T09:34:37Z</time>
      </trkpt>
      <trkpt lat="42.84017" lon="-0.46306">
        <ele>1876.1501464844</ele>
        <time>2015-09-06T09:34:42Z</time>
      </trkpt>
      <trkpt lat="42.84009" lon="-0.46303">
        <ele>1879.5146484375</ele>
        <time>2015-09-06T09:34:53Z</time>
      </trkpt>
      <trkpt lat="42.84007" lon="-0.46294">
        <ele>1880.4760742188</ele>
        <time>2015-09-06T09:35:04Z</time>
      </trkpt>
      <trkpt lat="42.84005" lon="-0.46289">
        <ele>1883.3598632812</ele>
        <time>2015-09-06T09:35:15Z</time>
      </trkpt>
      <trkpt lat="42.84" lon="-0.46287">
        <ele>1883.8405761719</ele>
        <time>2015-09-06T09:35:39Z</time>
      </trkpt>
      <trkpt lat="42.83998" lon="-0.46282">
        <ele>1886.724609375</ele>
        <time>2015-09-06T09:35:47Z</time>
      </trkpt>
      <trkpt lat="42.83997" lon="-0.46278">
        <ele>1887.2053222656</ele>
        <time>2015-09-06T09:35:52Z</time>
      </trkpt>
      <trkpt lat="42.83997" lon="-0.46272">
        <ele>1888.1667480469</ele>
        <time>2015-09-06T09:36:03Z</time>
      </trkpt>
      <trkpt lat="42.83992" lon="-0.46269">
        <ele>1891.53125</ele>
        <time>2015-09-06T09:36:17Z</time>
      </trkpt>
      <trkpt lat="42.83992" lon="-0.4626">
        <ele>1892.9731445312</ele>
        <time>2015-09-06T09:36:29Z</time>
      </trkpt>
      <trkpt lat="42.83991" lon="-0.46256">
        <ele>1894.4150390625</ele>
        <time>2015-09-06T09:36:41Z</time>
      </trkpt>
      <trkpt lat="42.83987" lon="-0.46256">
        <ele>1895.3764648438</ele>
        <time>2015-09-06T09:36:55Z</time>
      </trkpt>
      <trkpt lat="42.83985" lon="-0.4625">
        <ele>1897.2990722656</ele>
        <time>2015-09-06T09:37:08Z</time>
      </trkpt>
      <trkpt lat="42.83982" lon="-0.46246">
        <ele>1899.2216796875</ele>
        <time>2015-09-06T09:37:18Z</time>
      </trkpt>
      <trkpt lat="42.8398" lon="-0.4624">
        <ele>1900.1833496094</ele>
        <time>2015-09-06T09:37:28Z</time>
      </trkpt>
      <trkpt lat="42.83977" lon="-0.46236">
        <ele>1902.1057128906</ele>
        <time>2015-09-06T09:37:38Z</time>
      </trkpt>
      <trkpt lat="42.83976" lon="-0.46235">
        <ele>1902.1057128906</ele>
        <time>2015-09-06T09:37:39Z</time>
      </trkpt>
      <trkpt lat="42.83968" lon="-0.46229">
        <ele>1902.5864257812</ele>
        <time>2015-09-06T09:37:52Z</time>
      </trkpt>
      <trkpt lat="42.83964" lon="-0.46218">
        <ele>1905.9509277344</ele>
        <time>2015-09-06T09:38:04Z</time>
      </trkpt>
      <trkpt lat="42.83962" lon="-0.46215">
        <ele>1906.9123535156</ele>
        <time>2015-09-06T09:38:08Z</time>
      </trkpt>
      <trkpt lat="42.83962" lon="-0.46212">
        <ele>1907.3930664062</ele>
        <time>2015-09-06T09:38:10Z</time>
      </trkpt>
      <trkpt lat="42.83959" lon="-0.46204">
        <ele>1909.7961425781</ele>
        <time>2015-09-06T09:38:21Z</time>
      </trkpt>
      <trkpt lat="42.8396" lon="-0.46201">
        <ele>1910.7575683594</ele>
        <time>2015-09-06T09:38:27Z</time>
      </trkpt>
      <trkpt lat="42.83958" lon="-0.46189">
        <ele>1911.7189941406</ele>
        <time>2015-09-06T09:38:41Z</time>
      </trkpt>
      <trkpt lat="42.83958" lon="-0.4618">
        <ele>1912.6801757812</ele>
        <time>2015-09-06T09:38:51Z</time>
      </trkpt>
      <trkpt lat="42.83953" lon="-0.4617">
        <ele>1913.1608886719</ele>
        <time>2015-09-06T09:39:04Z</time>
      </trkpt>
      <trkpt lat="42.83952" lon="-0.46164">
        <ele>1914.1220703125</ele>
        <time>2015-09-06T09:39:11Z</time>
      </trkpt>
      <trkpt lat="42.8395" lon="-0.46155">
        <ele>1914.6027832031</ele>
        <time>2015-09-06T09:39:28Z</time>
      </trkpt>
      <trkpt lat="42.8395" lon="-0.46153">
        <ele>1915.0834960938</ele>
        <time>2015-09-06T09:41:00Z</time>
      </trkpt>
      <trkpt lat="42.83949" lon="-0.46151">
        <ele>1915.0834960938</ele>
        <time>2015-09-06T09:41:26Z</time>
      </trkpt>
      <trkpt lat="42.83949" lon="-0.46144">
        <ele>1915.0834960938</ele>
        <time>2015-09-06T09:41:32Z</time>
      </trkpt>
      <trkpt lat="42.83947" lon="-0.46126">
        <ele>1916.044921875</ele>
        <time>2015-09-06T09:41:47Z</time>
      </trkpt>
      <trkpt lat="42.83945" lon="-0.46106">
        <ele>1915.5642089844</ele>
        <time>2015-09-06T09:42:02Z</time>
      </trkpt>
      <trkpt lat="42.83946" lon="-0.46097">
        <ele>1915.5642089844</ele>
        <time>2015-09-06T09:42:16Z</time>
      </trkpt>
      <trkpt lat="42.83947" lon="-0.46088">
        <ele>1916.044921875</ele>
        <time>2015-09-06T09:42:23Z</time>
      </trkpt>
      <trkpt lat="42.83945" lon="-0.46074">
        <ele>1917.0063476562</ele>
        <time>2015-09-06T09:42:35Z</time>
      </trkpt>
      <trkpt lat="42.83944" lon="-0.46071">
        <ele>1917.0063476562</ele>
        <time>2015-09-06T09:42:38Z</time>
      </trkpt>
      <trkpt lat="42.83945" lon="-0.46059">
        <ele>1918.9289550781</ele>
        <time>2015-09-06T09:42:49Z</time>
      </trkpt>
      <trkpt lat="42.83947" lon="-0.46047">
        <ele>1919.8901367188</ele>
        <time>2015-09-06T09:43:00Z</time>
      </trkpt>
      <trkpt lat="42.8395" lon="-0.46042">
        <ele>1920.3708496094</ele>
        <time>2015-09-06T09:43:05Z</time>
      </trkpt>
      <trkpt lat="42.83952" lon="-0.46038">
        <ele>1920.8515625</ele>
        <time>2015-09-06T09:43:09Z</time>
      </trkpt>
      <trkpt lat="42.83961" lon="-0.46027">
        <ele>1920.8515625</ele>
        <time>2015-09-06T09:43:19Z</time>
      </trkpt>
      <trkpt lat="42.83973" lon="-0.46015">
        <ele>1920.8515625</ele>
        <time>2015-09-06T09:43:33Z</time>
      </trkpt>
      <trkpt lat="42.83979" lon="-0.4601">
        <ele>1920.3708496094</ele>
        <time>2015-09-06T09:43:40Z</time>
      </trkpt>
      <trkpt lat="42.83986" lon="-0.46005">
        <ele>1920.3708496094</ele>
        <time>2015-09-06T09:43:48Z</time>
      </trkpt>
      <trkpt lat="42.83988" lon="-0.46002">
        <ele>1920.3708496094</ele>
        <time>2015-09-06T09:43:51Z</time>
      </trkpt>
      <trkpt lat="42.83996" lon="-0.45988">
        <ele>1920.8515625</ele>
        <time>2015-09-06T09:44:03Z</time>
      </trkpt>
      <trkpt lat="42.83999" lon="-0.45978">
        <ele>1922.2934570312</ele>
        <time>2015-09-06T09:44:11Z</time>
      </trkpt>
      <trkpt lat="42.84002" lon="-0.45975">
        <ele>1922.7741699219</ele>
        <time>2015-09-06T09:44:15Z</time>
      </trkpt>
      <trkpt lat="42.84006" lon="-0.45966">
        <ele>1923.2548828125</ele>
        <time>2015-09-06T09:44:23Z</time>
      </trkpt>
      <trkpt lat="42.84019" lon="-0.4596">
        <ele>1924.6967773438</ele>
        <time>2015-09-06T09:44:36Z</time>
      </trkpt>
      <trkpt lat="42.84026" lon="-0.45959">
        <ele>1924.2160644531</ele>
        <time>2015-09-06T09:44:45Z</time>
      </trkpt>
      <trkpt lat="42.84028" lon="-0.45956">
        <ele>1924.6967773438</ele>
        <time>2015-09-06T09:44:48Z</time>
      </trkpt>
      <trkpt lat="42.84031" lon="-0.45954">
        <ele>1924.6967773438</ele>
        <time>2015-09-06T09:44:51Z</time>
      </trkpt>
      <trkpt lat="42.84034" lon="-0.45949">
        <ele>1925.1772460938</ele>
        <time>2015-09-06T09:45:04Z</time>
      </trkpt>
      <trkpt lat="42.84036" lon="-0.4595">
        <ele>1925.6579589844</ele>
        <time>2015-09-06T09:45:30Z</time>
      </trkpt>
      <trkpt lat="42.84031" lon="-0.45947">
        <ele>1926.138671875</ele>
        <time>2015-09-06T09:45:55Z</time>
      </trkpt>
      <trkpt lat="42.84024" lon="-0.4594">
        <ele>1927.5805664062</ele>
        <time>2015-09-06T09:46:08Z</time>
      </trkpt>
      <trkpt lat="42.84023" lon="-0.45932">
        <ele>1930.9453125</ele>
        <time>2015-09-06T09:46:20Z</time>
      </trkpt>
      <trkpt lat="42.84022" lon="-0.45922">
        <ele>1932.3874511719</ele>
        <time>2015-09-06T09:46:32Z</time>
      </trkpt>
      <trkpt lat="42.84021" lon="-0.45909">
        <ele>1933.8293457031</ele>
        <time>2015-09-06T09:46:48Z</time>
      </trkpt>
      <trkpt lat="42.8402" lon="-0.45898">
        <ele>1935.751953125</ele>
        <time>2015-09-06T09:47:02Z</time>
      </trkpt>
      <trkpt lat="42.84018" lon="-0.45885">
        <ele>1937.1938476562</ele>
        <time>2015-09-06T09:47:17Z</time>
      </trkpt>
      <trkpt lat="42.84018" lon="-0.45877">
        <ele>1940.5583496094</ele>
        <time>2015-09-06T09:47:28Z</time>
      </trkpt>
      <trkpt lat="42.84015" lon="-0.45868">
        <ele>1941.5197753906</ele>
        <time>2015-09-06T09:47:39Z</time>
      </trkpt>
      <trkpt lat="42.84008" lon="-0.45859">
        <ele>1942.4812011719</ele>
        <time>2015-09-06T09:47:53Z</time>
      </trkpt>
      <trkpt lat="42.84007" lon="-0.45857">
        <ele>1942.4812011719</ele>
        <time>2015-09-06T09:47:55Z</time>
      </trkpt>
      <trkpt lat="42.83998" lon="-0.45844">
        <ele>1943.9230957031</ele>
        <time>2015-09-06T09:48:11Z</time>
      </trkpt>
      <trkpt lat="42.83992" lon="-0.45834">
        <ele>1946.8068847656</ele>
        <time>2015-09-06T09:48:25Z</time>
      </trkpt>
      <trkpt lat="42.83991" lon="-0.45828">
        <ele>1948.2490234375</ele>
        <time>2015-09-06T09:48:34Z</time>
      </trkpt>
      <trkpt lat="42.83994" lon="-0.45821">
        <ele>1950.65234375</ele>
        <time>2015-09-06T09:48:45Z</time>
      </trkpt>
      <trkpt lat="42.83995" lon="-0.45819">
        <ele>1951.1330566406</ele>
        <time>2015-09-06T09:48:48Z</time>
      </trkpt>
      <trkpt lat="42.84" lon="-0.45812">
        <ele>1953.0556640625</ele>
        <time>2015-09-06T09:48:59Z</time>
      </trkpt>
      <trkpt lat="42.84002" lon="-0.45807">
        <ele>1954.0170898438</ele>
        <time>2015-09-06T09:49:10Z</time>
      </trkpt>
      <trkpt lat="42.84012" lon="-0.45808">
        <ele>1955.939453125</ele>
        <time>2015-09-06T09:49:33Z</time>
      </trkpt>
      <trkpt lat="42.8402" lon="-0.45808">
        <ele>1957.3815917969</ele>
        <time>2015-09-06T09:49:45Z</time>
      </trkpt>
      <trkpt lat="42.84015" lon="-0.45803">
        <ele>1959.3041992188</ele>
        <time>2015-09-06T09:49:57Z</time>
      </trkpt>
      <trkpt lat="42.8401" lon="-0.45799">
        <ele>1958.8234863281</ele>
        <time>2015-09-06T09:50:13Z</time>
      </trkpt>
      <trkpt lat="42.84003" lon="-0.45793">
        <ele>1961.2268066406</ele>
        <time>2015-09-06T09:50:27Z</time>
      </trkpt>
      <trkpt lat="42.83996" lon="-0.45787">
        <ele>1963.6298828125</ele>
        <time>2015-09-06T09:50:40Z</time>
      </trkpt>
      <trkpt lat="42.83989" lon="-0.45778">
        <ele>1965.5529785156</ele>
        <time>2015-09-06T09:50:54Z</time>
      </trkpt>
      <trkpt lat="42.83984" lon="-0.45771">
        <ele>1966.5141601562</ele>
        <time>2015-09-06T09:51:05Z</time>
      </trkpt>
      <trkpt lat="42.83975" lon="-0.45762">
        <ele>1968.4367675781</ele>
        <time>2015-09-06T09:51:19Z</time>
      </trkpt>
      <trkpt lat="42.83969" lon="-0.45757">
        <ele>1969.3981933594</ele>
        <time>2015-09-06T09:51:30Z</time>
      </trkpt>
      <trkpt lat="42.83962" lon="-0.4575">
        <ele>1971.3205566406</ele>
        <time>2015-09-06T09:51:42Z</time>
      </trkpt>
      <trkpt lat="42.83955" lon="-0.4574">
        <ele>1974.2045898438</ele>
        <time>2015-09-06T09:51:56Z</time>
      </trkpt>
      <trkpt lat="42.83949" lon="-0.4573">
        <ele>1975.646484375</ele>
        <time>2015-09-06T09:52:09Z</time>
      </trkpt>
      <trkpt lat="42.83948" lon="-0.45728">
        <ele>1975.646484375</ele>
        <time>2015-09-06T09:52:26Z</time>
      </trkpt>
      <trkpt lat="42.83942" lon="-0.4572">
        <ele>1977.5690917969</ele>
        <time>2015-09-06T09:52:39Z</time>
      </trkpt>
      <trkpt lat="42.83935" lon="-0.45707">
        <ele>1979.9724121094</ele>
        <time>2015-09-06T09:52:54Z</time>
      </trkpt>
      <trkpt lat="42.83935" lon="-0.45706">
        <ele>1979.9724121094</ele>
        <time>2015-09-06T09:53:16Z</time>
      </trkpt>
      <trkpt lat="42.83929" lon="-0.45697">
        <ele>1980.9340820312</ele>
        <time>2015-09-06T09:53:32Z</time>
      </trkpt>
      <trkpt lat="42.83921" lon="-0.45685">
        <ele>1981.8952636719</ele>
        <time>2015-09-06T09:53:46Z</time>
      </trkpt>
      <trkpt lat="42.83915" lon="-0.45674">
        <ele>1983.3371582031</ele>
        <time>2015-09-06T09:53:59Z</time>
      </trkpt>
      <trkpt lat="42.83908" lon="-0.45663">
        <ele>1986.7016601562</ele>
        <time>2015-09-06T09:54:13Z</time>
      </trkpt>
      <trkpt lat="42.83902" lon="-0.4565">
        <ele>1988.6245117188</ele>
        <time>2015-09-06T09:54:29Z</time>
      </trkpt>
      <trkpt lat="42.83897" lon="-0.4564">
        <ele>1989.5856933594</ele>
        <time>2015-09-06T09:54:42Z</time>
      </trkpt>
      <trkpt lat="42.83891" lon="-0.4563">
        <ele>1991.9890136719</ele>
        <time>2015-09-06T09:54:57Z</time>
      </trkpt>
      <trkpt lat="42.83886" lon="-0.45622">
        <ele>1993.4309082031</ele>
        <time>2015-09-06T09:55:08Z</time>
      </trkpt>
      <trkpt lat="42.83881" lon="-0.45612">
        <ele>1994.8728027344</ele>
        <time>2015-09-06T09:55:21Z</time>
      </trkpt>
      <trkpt lat="42.83875" lon="-0.45602">
        <ele>1995.353515625</ele>
        <time>2015-09-06T09:55:34Z</time>
      </trkpt>
      <trkpt lat="42.83873" lon="-0.45597">
        <ele>1996.7956542969</ele>
        <time>2015-09-06T09:55:49Z</time>
      </trkpt>
      <trkpt lat="42.83868" lon="-0.45588">
        <ele>1998.7182617188</ele>
        <time>2015-09-06T09:56:01Z</time>
      </trkpt>
      <trkpt lat="42.83863" lon="-0.45576">
        <ele>2000.6408691406</ele>
        <time>2015-09-06T09:56:15Z</time>
      </trkpt>
      <trkpt lat="42.83858" lon="-0.4557">
        <ele>2001.1215820312</ele>
        <time>2015-09-06T09:56:25Z</time>
      </trkpt>
      <trkpt lat="42.83856" lon="-0.4557">
        <ele>2001.1215820312</ele>
        <time>2015-09-06T09:56:28Z</time>
      </trkpt>
      <trkpt lat="42.83853" lon="-0.45569">
        <ele>2001.6022949219</ele>
        <time>2015-09-06T09:56:32Z</time>
      </trkpt>
      <trkpt lat="42.83846" lon="-0.45566">
        <ele>2002.5634765625</ele>
        <time>2015-09-06T09:56:43Z</time>
      </trkpt>
      <trkpt lat="42.83841" lon="-0.45553">
        <ele>2004.0056152344</ele>
        <time>2015-09-06T09:56:56Z</time>
      </trkpt>
      <trkpt lat="42.83836" lon="-0.4555">
        <ele>2004.966796875</ele>
        <time>2015-09-06T09:57:07Z</time>
      </trkpt>
      <trkpt lat="42.83831" lon="-0.45543">
        <ele>2006.4086914062</ele>
        <time>2015-09-06T09:57:19Z</time>
      </trkpt>
      <trkpt lat="42.83828" lon="-0.45532">
        <ele>2008.8120117188</ele>
        <time>2015-09-06T09:57:33Z</time>
      </trkpt>
      <trkpt lat="42.83826" lon="-0.45526">
        <ele>2010.7346191406</ele>
        <time>2015-09-06T09:57:42Z</time>
      </trkpt>
      <trkpt lat="42.83824" lon="-0.45519">
        <ele>2012.6574707031</ele>
        <time>2015-09-06T09:57:54Z</time>
      </trkpt>
      <trkpt lat="42.8382" lon="-0.45508">
        <ele>2015.0607910156</ele>
        <time>2015-09-06T09:58:11Z</time>
      </trkpt>
      <trkpt lat="42.83816" lon="-0.45497">
        <ele>2017.4638671875</ele>
        <time>2015-09-06T09:58:25Z</time>
      </trkpt>
      <trkpt lat="42.83814" lon="-0.45489">
        <ele>2018.4252929688</ele>
        <time>2015-09-06T09:58:39Z</time>
      </trkpt>
      <trkpt lat="42.83812" lon="-0.45482">
        <ele>2019.38671875</ele>
        <time>2015-09-06T09:58:53Z</time>
      </trkpt>
      <trkpt lat="42.8381" lon="-0.45472">
        <ele>2022.7512207031</ele>
        <time>2015-09-06T09:59:07Z</time>
      </trkpt>
      <trkpt lat="42.83807" lon="-0.45464">
        <ele>2024.1931152344</ele>
        <time>2015-09-06T09:59:19Z</time>
      </trkpt>
      <trkpt lat="42.83806" lon="-0.45458">
        <ele>2025.154296875</ele>
        <time>2015-09-06T09:59:25Z</time>
      </trkpt>
      <trkpt lat="42.83805" lon="-0.45454">
        <ele>2025.6350097656</ele>
        <time>2015-09-06T09:59:38Z</time>
      </trkpt>
      <trkpt lat="42.83803" lon="-0.45442">
        <ele>2028.5192871094</ele>
        <time>2015-09-06T09:59:53Z</time>
      </trkpt>
      <trkpt lat="42.838" lon="-0.45433">
        <ele>2029.48046875</ele>
        <time>2015-09-06T10:00:06Z</time>
      </trkpt>
      <trkpt lat="42.83798" lon="-0.45427">
        <ele>2029.9611816406</ele>
        <time>2015-09-06T10:00:17Z</time>
      </trkpt>
      <trkpt lat="42.83797" lon="-0.45418">
        <ele>2031.4030761719</ele>
        <time>2015-09-06T10:00:28Z</time>
      </trkpt>
      <trkpt lat="42.83794" lon="-0.45407">
        <ele>2033.3256835938</ele>
        <time>2015-09-06T10:00:39Z</time>
      </trkpt>
      <trkpt lat="42.83794" lon="-0.454">
        <ele>2035.2482910156</ele>
        <time>2015-09-06T10:00:50Z</time>
      </trkpt>
      <trkpt lat="42.83793" lon="-0.45393">
        <ele>2036.6901855469</ele>
        <time>2015-09-06T10:01:08Z</time>
      </trkpt>
      <trkpt lat="42.83788" lon="-0.45381">
        <ele>2037.1708984375</ele>
        <time>2015-09-06T10:01:20Z</time>
      </trkpt>
      <trkpt lat="42.83787" lon="-0.45378">
        <ele>2038.1323242188</ele>
        <time>2015-09-06T10:01:23Z</time>
      </trkpt>
      <trkpt lat="42.83783" lon="-0.45365">
        <ele>2039.0935058594</ele>
        <time>2015-09-06T10:01:35Z</time>
      </trkpt>
      <trkpt lat="42.83778" lon="-0.45352">
        <ele>2040.5354003906</ele>
        <time>2015-09-06T10:01:49Z</time>
      </trkpt>
      <trkpt lat="42.83775" lon="-0.45339">
        <ele>2042.4582519531</ele>
        <time>2015-09-06T10:02:04Z</time>
      </trkpt>
      <trkpt lat="42.83769" lon="-0.45325">
        <ele>2044.8615722656</ele>
        <time>2015-09-06T10:02:20Z</time>
      </trkpt>
      <trkpt lat="42.83765" lon="-0.45313">
        <ele>2046.7841796875</ele>
        <time>2015-09-06T10:02:33Z</time>
      </trkpt>
      <trkpt lat="42.8376" lon="-0.45303">
        <ele>2047.7456054688</ele>
        <time>2015-09-06T10:02:45Z</time>
      </trkpt>
      <trkpt lat="42.83754" lon="-0.4529">
        <ele>2048.7067871094</ele>
        <time>2015-09-06T10:03:00Z</time>
      </trkpt>
      <trkpt lat="42.83747" lon="-0.45279">
        <ele>2051.5908203125</ele>
        <time>2015-09-06T10:03:15Z</time>
      </trkpt>
      <trkpt lat="42.83741" lon="-0.45271">
        <ele>2053.994140625</ele>
        <time>2015-09-06T10:03:26Z</time>
      </trkpt>
      <trkpt lat="42.83738" lon="-0.45263">
        <ele>2054.474609375</ele>
        <time>2015-09-06T10:03:35Z</time>
      </trkpt>
      <trkpt lat="42.83728" lon="-0.4525">
        <ele>2055.4360351562</ele>
        <time>2015-09-06T10:03:52Z</time>
      </trkpt>
      <trkpt lat="42.83712" lon="-0.45239">
        <ele>2055.9165039062</ele>
        <time>2015-09-06T10:04:10Z</time>
      </trkpt>
      <trkpt lat="42.83708" lon="-0.45236">
        <ele>2056.3972167969</ele>
        <time>2015-09-06T10:04:15Z</time>
      </trkpt>
      <trkpt lat="42.83704" lon="-0.45228">
        <ele>2055.9165039062</ele>
        <time>2015-09-06T10:04:22Z</time>
      </trkpt>
      <trkpt lat="42.83702" lon="-0.45223">
        <ele>2055.9165039062</ele>
        <time>2015-09-06T10:04:27Z</time>
      </trkpt>
      <trkpt lat="42.83693" lon="-0.45224">
        <ele>2056.3972167969</ele>
        <time>2015-09-06T10:04:36Z</time>
      </trkpt>
      <trkpt lat="42.83685" lon="-0.4522">
        <ele>2056.8779296875</ele>
        <time>2015-09-06T10:04:44Z</time>
      </trkpt>
      <trkpt lat="42.83673" lon="-0.45209">
        <ele>2057.3586425781</ele>
        <time>2015-09-06T10:04:58Z</time>
      </trkpt>
      <trkpt lat="42.83673" lon="-0.45209">
        <ele>2056.8779296875</ele>
        <time>2015-09-06T10:04:59Z</time>
      </trkpt>
      <trkpt lat="42.83666" lon="-0.45208">
        <ele>2057.3586425781</ele>
        <time>2015-09-06T10:05:06Z</time>
      </trkpt>
      <trkpt lat="42.83662" lon="-0.4521">
        <ele>2057.3586425781</ele>
        <time>2015-09-06T10:05:11Z</time>
      </trkpt>
      <trkpt lat="42.83644" lon="-0.4521">
        <ele>2058.3198242188</ele>
        <time>2015-09-06T10:05:28Z</time>
      </trkpt>
      <trkpt lat="42.8363" lon="-0.4521">
        <ele>2058.8005371094</ele>
        <time>2015-09-06T10:05:42Z</time>
      </trkpt>
      <trkpt lat="42.8362" lon="-0.45207">
        <ele>2060.2426757812</ele>
        <time>2015-09-06T10:05:54Z</time>
      </trkpt>
      <trkpt lat="42.83612" lon="-0.45198">
        <ele>2062.6459960938</ele>
        <time>2015-09-06T10:06:08Z</time>
      </trkpt>
      <trkpt lat="42.83605" lon="-0.45196">
        <ele>2064.5686035156</ele>
        <time>2015-09-06T10:06:19Z</time>
      </trkpt>
      <trkpt lat="42.83603" lon="-0.45197">
        <ele>2065.0493164062</ele>
        <time>2015-09-06T10:06:22Z</time>
      </trkpt>
      <trkpt lat="42.83598" lon="-0.45196">
        <ele>2066.4912109375</ele>
        <time>2015-09-06T10:06:29Z</time>
      </trkpt>
      <trkpt lat="42.83591" lon="-0.4519">
        <ele>2067.4523925781</ele>
        <time>2015-09-06T10:06:44Z</time>
      </trkpt>
      <trkpt lat="42.83585" lon="-0.45189">
        <ele>2065.5300292969</ele>
        <time>2015-09-06T10:06:58Z</time>
      </trkpt>
      <trkpt lat="42.83579" lon="-0.45185">
        <ele>2063.1267089844</ele>
        <time>2015-09-06T10:07:11Z</time>
      </trkpt>
      <trkpt lat="42.83571" lon="-0.45181">
        <ele>2062.1652832031</ele>
        <time>2015-09-06T10:07:23Z</time>
      </trkpt>
      <trkpt lat="42.83565" lon="-0.45178">
        <ele>2060.7233886719</ele>
        <time>2015-09-06T10:07:30Z</time>
      </trkpt>
      <trkpt lat="42.83556" lon="-0.45162">
        <ele>2061.2041015625</ele>
        <time>2015-09-06T10:07:45Z</time>
      </trkpt>
      <trkpt lat="42.83549" lon="-0.45149">
        <ele>2062.1652832031</ele>
        <time>2015-09-06T10:07:57Z</time>
      </trkpt>
      <trkpt lat="42.83549" lon="-0.45132">
        <ele>2063.6071777344</ele>
        <time>2015-09-06T10:08:11Z</time>
      </trkpt>
      <trkpt lat="42.83548" lon="-0.45125">
        <ele>2066.0104980469</ele>
        <time>2015-09-06T10:08:22Z</time>
      </trkpt>
      <trkpt lat="42.83548" lon="-0.45124">
        <ele>2066.0104980469</ele>
        <time>2015-09-06T10:08:23Z</time>
      </trkpt>
      <trkpt lat="42.83547" lon="-0.4512">
        <ele>2067.9331054688</ele>
        <time>2015-09-06T10:08:29Z</time>
      </trkpt>
      <trkpt lat="42.83547" lon="-0.45112">
        <ele>2069.8557128906</ele>
        <time>2015-09-06T10:08:43Z</time>
      </trkpt>
      <trkpt lat="42.83544" lon="-0.45101">
        <ele>2071.2976074219</ele>
        <time>2015-09-06T10:08:56Z</time>
      </trkpt>
      <trkpt lat="42.83539" lon="-0.45096">
        <ele>2071.2976074219</ele>
        <time>2015-09-06T10:09:07Z</time>
      </trkpt>
      <trkpt lat="42.83535" lon="-0.45089">
        <ele>2072.7397460938</ele>
        <time>2015-09-06T10:09:14Z</time>
      </trkpt>
      <trkpt lat="42.83528" lon="-0.4508">
        <ele>2075.1428222656</ele>
        <time>2015-09-06T10:09:29Z</time>
      </trkpt>
      <trkpt lat="42.83522" lon="-0.45073">
        <ele>2075.6235351562</ele>
        <time>2015-09-06T10:09:41Z</time>
      </trkpt>
      <trkpt lat="42.83514" lon="-0.45066">
        <ele>2076.5852050781</ele>
        <time>2015-09-06T10:09:54Z</time>
      </trkpt>
      <trkpt lat="42.83505" lon="-0.45059">
        <ele>2075.6235351562</ele>
        <time>2015-09-06T10:10:09Z</time>
      </trkpt>
      <trkpt lat="42.83495" lon="-0.45051">
        <ele>2075.6235351562</ele>
        <time>2015-09-06T10:10:22Z</time>
      </trkpt>
      <trkpt lat="42.83485" lon="-0.45038">
        <ele>2075.6235351562</ele>
        <time>2015-09-06T10:10:36Z</time>
      </trkpt>
      <trkpt lat="42.83484" lon="-0.45036">
        <ele>2076.1044921875</ele>
        <time>2015-09-06T10:10:38Z</time>
      </trkpt>
      <trkpt lat="42.83479" lon="-0.45026">
        <ele>2076.1044921875</ele>
        <time>2015-09-06T10:10:46Z</time>
      </trkpt>
      <trkpt lat="42.83469" lon="-0.4501">
        <ele>2076.5852050781</ele>
        <time>2015-09-06T10:11:01Z</time>
      </trkpt>
      <trkpt lat="42.83463" lon="-0.44993">
        <ele>2077.5463867188</ele>
        <time>2015-09-06T10:11:14Z</time>
      </trkpt>
      <trkpt lat="42.83462" lon="-0.44988">
        <ele>2077.0659179688</ele>
        <time>2015-09-06T10:11:18Z</time>
      </trkpt>
      <trkpt lat="42.83461" lon="-0.44985">
        <ele>2078.0270996094</ele>
        <time>2015-09-06T10:11:20Z</time>
      </trkpt>
      <trkpt lat="42.8346" lon="-0.44981">
        <ele>2078.0270996094</ele>
        <time>2015-09-06T10:11:23Z</time>
      </trkpt>
      <trkpt lat="42.8346" lon="-0.44961">
        <ele>2077.5463867188</ele>
        <time>2015-09-06T10:11:38Z</time>
      </trkpt>
      <trkpt lat="42.83455" lon="-0.44948">
        <ele>2077.5463867188</ele>
        <time>2015-09-06T10:11:51Z</time>
      </trkpt>
      <trkpt lat="42.83454" lon="-0.44945">
        <ele>2077.5463867188</ele>
        <time>2015-09-06T10:11:55Z</time>
      </trkpt>
      <trkpt lat="42.8345" lon="-0.44936">
        <ele>2078.0270996094</ele>
        <time>2015-09-06T10:12:10Z</time>
      </trkpt>
      <trkpt lat="42.83449" lon="-0.44934">
        <ele>2078.0270996094</ele>
        <time>2015-09-06T10:12:17Z</time>
      </trkpt>
      <trkpt lat="42.83452" lon="-0.44934">
        <ele>2077.5463867188</ele>
        <time>2015-09-06T10:12:26Z</time>
      </trkpt>
      <trkpt lat="42.83451" lon="-0.44926">
        <ele>2077.0659179688</ele>
        <time>2015-09-06T10:12:43Z</time>
      </trkpt>
      <trkpt lat="42.83446" lon="-0.44922">
        <ele>2077.5463867188</ele>
        <time>2015-09-06T10:12:54Z</time>
      </trkpt>
      <trkpt lat="42.83434" lon="-0.44913">
        <ele>2077.5463867188</ele>
        <time>2015-09-06T10:13:08Z</time>
      </trkpt>
      <trkpt lat="42.83431" lon="-0.4491">
        <ele>2077.5463867188</ele>
        <time>2015-09-06T10:13:13Z</time>
      </trkpt>
      <trkpt lat="42.83426" lon="-0.44909">
        <ele>2079.4689941406</ele>
        <time>2015-09-06T10:13:19Z</time>
      </trkpt>
      <trkpt lat="42.83415" lon="-0.44904">
        <ele>2078.5078125</ele>
        <time>2015-09-06T10:13:32Z</time>
      </trkpt>
      <trkpt lat="42.83406" lon="-0.44899">
        <ele>2078.98828125</ele>
        <time>2015-09-06T10:13:45Z</time>
      </trkpt>
      <trkpt lat="42.83403" lon="-0.44896">
        <ele>2079.4689941406</ele>
        <time>2015-09-06T10:13:50Z</time>
      </trkpt>
      <trkpt lat="42.834" lon="-0.44893">
        <ele>2079.4689941406</ele>
        <time>2015-09-06T10:13:54Z</time>
      </trkpt>
      <trkpt lat="42.83388" lon="-0.44889">
        <ele>2080.9111328125</ele>
        <time>2015-09-06T10:14:08Z</time>
      </trkpt>
      <trkpt lat="42.8338" lon="-0.44885">
        <ele>2081.3916015625</ele>
        <time>2015-09-06T10:14:19Z</time>
      </trkpt>
      <trkpt lat="42.8337" lon="-0.44871">
        <ele>2082.3530273438</ele>
        <time>2015-09-06T10:14:34Z</time>
      </trkpt>
      <trkpt lat="42.83362" lon="-0.4486">
        <ele>2084.7563476562</ele>
        <time>2015-09-06T10:14:50Z</time>
      </trkpt>
      <trkpt lat="42.83361" lon="-0.44858">
        <ele>2085.7175292969</ele>
        <time>2015-09-06T10:14:52Z</time>
      </trkpt>
      <trkpt lat="42.83353" lon="-0.44846">
        <ele>2086.1982421875</ele>
        <time>2015-09-06T10:15:06Z</time>
      </trkpt>
      <trkpt lat="42.83347" lon="-0.44841">
        <ele>2086.6787109375</ele>
        <time>2015-09-06T10:15:14Z</time>
      </trkpt>
      <trkpt lat="42.8334" lon="-0.44831">
        <ele>2089.5627441406</ele>
        <time>2015-09-06T10:15:28Z</time>
      </trkpt>
      <trkpt lat="42.83336" lon="-0.44824">
        <ele>2091.4853515625</ele>
        <time>2015-09-06T10:15:43Z</time>
      </trkpt>
      <trkpt lat="42.83336" lon="-0.44814">
        <ele>2090.5239257812</ele>
        <time>2015-09-06T10:16:05Z</time>
      </trkpt>
      <trkpt lat="42.83335" lon="-0.44812">
        <ele>2091.4853515625</ele>
        <time>2015-09-06T10:16:09Z</time>
      </trkpt>
      <trkpt lat="42.83332" lon="-0.44799">
        <ele>2093.408203125</ele>
        <time>2015-09-06T10:16:22Z</time>
      </trkpt>
      <trkpt lat="42.83331" lon="-0.44789">
        <ele>2095.3308105469</ele>
        <time>2015-09-06T10:16:35Z</time>
      </trkpt>
      <trkpt lat="42.83332" lon="-0.44782">
        <ele>2098.2145996094</ele>
        <time>2015-09-06T10:16:48Z</time>
      </trkpt>
      <trkpt lat="42.83332" lon="-0.44781">
        <ele>2099.1760253906</ele>
        <time>2015-09-06T10:16:50Z</time>
      </trkpt>
      <trkpt lat="42.83333" lon="-0.44775">
        <ele>2101.5793457031</ele>
        <time>2015-09-06T10:17:07Z</time>
      </trkpt>
      <trkpt lat="42.83334" lon="-0.44776">
        <ele>2101.5793457031</ele>
        <time>2015-09-06T10:17:39Z</time>
      </trkpt>
      <trkpt lat="42.83334" lon="-0.44775">
        <ele>2101.0986328125</ele>
        <time>2015-09-06T10:19:34Z</time>
      </trkpt>
      <trkpt lat="42.83335" lon="-0.44777">
        <ele>2102.5405273438</ele>
        <time>2015-09-06T10:35:18Z</time>
      </trkpt>
      <trkpt lat="42.83334" lon="-0.44779">
        <ele>2102.0598144531</ele>
        <time>2015-09-06T10:43:38Z</time>
      </trkpt>
      <trkpt lat="42.83332" lon="-0.44784">
        <ele>2102.5405273438</ele>
        <time>2015-09-06T10:44:23Z</time>
      </trkpt>
      <trkpt lat="42.8333" lon="-0.44789">
        <ele>2102.0598144531</ele>
        <time>2015-09-06T10:45:12Z</time>
      </trkpt>
      <trkpt lat="42.83333" lon="-0.44784">
        <ele>2102.5405273438</ele>
        <time>2015-09-06T10:45:35Z</time>
      </trkpt>
      <trkpt lat="42.83334" lon="-0.44781">
        <ele>2103.0212402344</ele>
        <time>2015-09-06T10:46:16Z</time>
      </trkpt>
      <trkpt lat="42.83332" lon="-0.44784">
        <ele>2102.5405273438</ele>
        <time>2015-09-06T10:47:03Z</time>
      </trkpt>
      <trkpt lat="42.83333" lon="-0.44782">
        <ele>2102.0598144531</ele>
        <time>2015-09-06T10:48:06Z</time>
      </trkpt>
      <trkpt lat="42.83337" lon="-0.44775">
        <ele>2102.5405273438</ele>
        <time>2015-09-06T10:48:53Z</time>
      </trkpt>
      <trkpt lat="42.83331" lon="-0.44788">
        <ele>2102.5405273438</ele>
        <time>2015-09-06T10:49:48Z</time>
      </trkpt>
      <trkpt lat="42.83327" lon="-0.44792">
        <ele>2102.5405273438</ele>
        <time>2015-09-06T10:50:26Z</time>
      </trkpt>
      <trkpt lat="42.83333" lon="-0.44785">
        <ele>2103.0212402344</ele>
        <time>2015-09-06T10:51:04Z</time>
      </trkpt>
      <trkpt lat="42.83335" lon="-0.44777">
        <ele>2103.0212402344</ele>
        <time>2015-09-06T10:52:50Z</time>
      </trkpt>
      <trkpt lat="42.83331" lon="-0.44781">
        <ele>2103.0212402344</ele>
        <time>2015-09-06T10:54:56Z</time>
      </trkpt>
      <trkpt lat="42.83333" lon="-0.4478">
        <ele>2106.8664550781</ele>
        <time>2015-09-06T10:55:13Z</time>
      </trkpt>
      <trkpt lat="42.83333" lon="-0.44781">
        <ele>2103.0212402344</ele>
        <time>2015-09-06T10:55:47Z</time>
      </trkpt>
      <trkpt lat="42.83335" lon="-0.44778">
        <ele>2103.0212402344</ele>
        <time>2015-09-06T10:57:00Z</time>
      </trkpt>
      <trkpt lat="42.83335" lon="-0.44777">
        <ele>2104.4631347656</ele>
        <time>2015-09-06T10:58:15Z</time>
      </trkpt>
      <trkpt lat="42.83334" lon="-0.44775">
        <ele>2104.9438476562</ele>
        <time>2015-09-06T11:03:53Z</time>
      </trkpt>
      <trkpt lat="42.83334" lon="-0.44775">
        <ele>2103.9826660156</ele>
        <time>2015-09-06T11:09:21Z</time>
      </trkpt>
      <trkpt lat="42.83334" lon="-0.44776">
        <ele>2104.9438476562</ele>
        <time>2015-09-06T11:10:37Z</time>
      </trkpt>
      <trkpt lat="42.8333" lon="-0.44773">
        <ele>2105.4245605469</ele>
        <time>2015-09-06T11:11:03Z</time>
      </trkpt>
      <trkpt lat="42.8333" lon="-0.44771">
        <ele>2105.4245605469</ele>
        <time>2015-09-06T11:11:28Z</time>
      </trkpt>
      <trkpt lat="42.83335" lon="-0.44768">
        <ele>2105.9050292969</ele>
        <time>2015-09-06T11:12:19Z</time>
      </trkpt>
      <trkpt lat="42.83343" lon="-0.44766">
        <ele>2106.3857421875</ele>
        <time>2015-09-06T11:12:42Z</time>
      </trkpt>
      <trkpt lat="42.83347" lon="-0.44755">
        <ele>2106.8664550781</ele>
        <time>2015-09-06T11:12:54Z</time>
      </trkpt>
      <trkpt lat="42.83349" lon="-0.44743">
        <ele>2108.30859375</ele>
        <time>2015-09-06T11:13:08Z</time>
      </trkpt>
      <trkpt lat="42.83353" lon="-0.44737">
        <ele>2110.7119140625</ele>
        <time>2015-09-06T11:13:25Z</time>
      </trkpt>
      <trkpt lat="42.83365" lon="-0.44735">
        <ele>2111.1926269531</ele>
        <time>2015-09-06T11:13:45Z</time>
      </trkpt>
      <trkpt lat="42.83371" lon="-0.44728">
        <ele>2113.595703125</ele>
        <time>2015-09-06T11:14:01Z</time>
      </trkpt>
      <trkpt lat="42.83374" lon="-0.44723">
        <ele>2113.595703125</ele>
        <time>2015-09-06T11:14:10Z</time>
      </trkpt>
      <trkpt lat="42.83382" lon="-0.4472">
        <ele>2114.0764160156</ele>
        <time>2015-09-06T11:14:21Z</time>
      </trkpt>
      <trkpt lat="42.83388" lon="-0.4471">
        <ele>2117.4409179688</ele>
        <time>2015-09-06T11:14:36Z</time>
      </trkpt>
      <trkpt lat="42.83389" lon="-0.44708">
        <ele>2116.9604492188</ele>
        <time>2015-09-06T11:14:40Z</time>
      </trkpt>
      <trkpt lat="42.834" lon="-0.44698">
        <ele>2119.8442382812</ele>
        <time>2015-09-06T11:14:58Z</time>
      </trkpt>
      <trkpt lat="42.83408" lon="-0.44696">
        <ele>2119.8442382812</ele>
        <time>2015-09-06T11:15:11Z</time>
      </trkpt>
      <trkpt lat="42.83418" lon="-0.44694">
        <ele>2120.8056640625</ele>
        <time>2015-09-06T11:15:26Z</time>
      </trkpt>
      <trkpt lat="42.83426" lon="-0.44684">
        <ele>2121.2861328125</ele>
        <time>2015-09-06T11:15:41Z</time>
      </trkpt>
      <trkpt lat="42.83433" lon="-0.44674">
        <ele>2122.2475585938</ele>
        <time>2015-09-06T11:15:56Z</time>
      </trkpt>
      <trkpt lat="42.83433" lon="-0.44672">
        <ele>2122.7282714844</ele>
        <time>2015-09-06T11:15:58Z</time>
      </trkpt>
      <trkpt lat="42.83436" lon="-0.44666">
        <ele>2124.6511230469</ele>
        <time>2015-09-06T11:16:06Z</time>
      </trkpt>
      <trkpt lat="42.83444" lon="-0.44659">
        <ele>2127.0544433594</ele>
        <time>2015-09-06T11:16:26Z</time>
      </trkpt>
      <trkpt lat="42.8345" lon="-0.44654">
        <ele>2129.4575195312</ele>
        <time>2015-09-06T11:16:38Z</time>
      </trkpt>
      <trkpt lat="42.83455" lon="-0.44649">
        <ele>2130.4189453125</ele>
        <time>2015-09-06T11:16:49Z</time>
      </trkpt>
      <trkpt lat="42.83464" lon="-0.44643">
        <ele>2132.3415527344</ele>
        <time>2015-09-06T11:17:06Z</time>
      </trkpt>
      <trkpt lat="42.8347" lon="-0.44639">
        <ele>2132.8220214844</ele>
        <time>2015-09-06T11:17:16Z</time>
      </trkpt>
      <trkpt lat="42.83474" lon="-0.44638">
        <ele>2133.302734375</ele>
        <time>2015-09-06T11:17:19Z</time>
      </trkpt>
      <trkpt lat="42.83483" lon="-0.44628">
        <ele>2134.2641601562</ele>
        <time>2015-09-06T11:17:34Z</time>
      </trkpt>
      <trkpt lat="42.83493" lon="-0.44616">
        <ele>2136.6672363281</ele>
        <time>2015-09-06T11:17:52Z</time>
      </trkpt>
      <trkpt lat="42.83495" lon="-0.44607">
        <ele>2138.5900878906</ele>
        <time>2015-09-06T11:18:02Z</time>
      </trkpt>
      <trkpt lat="42.835" lon="-0.44595">
        <ele>2140.5126953125</ele>
        <time>2015-09-06T11:18:20Z</time>
      </trkpt>
      <trkpt lat="42.83494" lon="-0.44595">
        <ele>2142.435546875</ele>
        <time>2015-09-06T11:18:33Z</time>
      </trkpt>
      <trkpt lat="42.83482" lon="-0.446">
        <ele>2144.3579101562</ele>
        <time>2015-09-06T11:18:52Z</time>
      </trkpt>
      <trkpt lat="42.83478" lon="-0.44597">
        <ele>2147.2419433594</ele>
        <time>2015-09-06T11:19:06Z</time>
      </trkpt>
      <trkpt lat="42.83467" lon="-0.44595">
        <ele>2150.6064453125</ele>
        <time>2015-09-06T11:19:22Z</time>
      </trkpt>
      <trkpt lat="42.83462" lon="-0.44586">
        <ele>2151.5678710938</ele>
        <time>2015-09-06T11:19:37Z</time>
      </trkpt>
      <trkpt lat="42.83452" lon="-0.4458">
        <ele>2153.4904785156</ele>
        <time>2015-09-06T11:19:53Z</time>
      </trkpt>
      <trkpt lat="42.8345" lon="-0.44576">
        <ele>2156.8552246094</ele>
        <time>2015-09-06T11:20:05Z</time>
      </trkpt>
      <trkpt lat="42.83445" lon="-0.4457">
        <ele>2159.7390136719</ele>
        <time>2015-09-06T11:20:20Z</time>
      </trkpt>
      <trkpt lat="42.83438" lon="-0.44568">
        <ele>2161.1811523438</ele>
        <time>2015-09-06T11:20:37Z</time>
      </trkpt>
      <trkpt lat="42.83433" lon="-0.44566">
        <ele>2164.0649414062</ele>
        <time>2015-09-06T11:20:48Z</time>
      </trkpt>
      <trkpt lat="42.83432" lon="-0.44564">
        <ele>2165.0263671875</ele>
        <time>2015-09-06T11:20:52Z</time>
      </trkpt>
      <trkpt lat="42.83429" lon="-0.44558">
        <ele>2166.9489746094</ele>
        <time>2015-09-06T11:21:07Z</time>
      </trkpt>
      <trkpt lat="42.83423" lon="-0.44548">
        <ele>2168.3908691406</ele>
        <time>2015-09-06T11:21:21Z</time>
      </trkpt>
      <trkpt lat="42.8342" lon="-0.44536">
        <ele>2168.3908691406</ele>
        <time>2015-09-06T11:21:34Z</time>
      </trkpt>
      <trkpt lat="42.83411" lon="-0.4453">
        <ele>2166.4682617188</ele>
        <time>2015-09-06T11:21:47Z</time>
      </trkpt>
      <trkpt lat="42.83409" lon="-0.44529">
        <ele>2165.9875488281</ele>
        <time>2015-09-06T11:21:50Z</time>
      </trkpt>
      <trkpt lat="42.83391" lon="-0.4453">
        <ele>2166.4682617188</ele>
        <time>2015-09-06T11:22:04Z</time>
      </trkpt>
      <trkpt lat="42.83387" lon="-0.4453">
        <ele>2166.9489746094</ele>
        <time>2015-09-06T11:22:08Z</time>
      </trkpt>
      <trkpt lat="42.83381" lon="-0.44523">
        <ele>2166.9489746094</ele>
        <time>2015-09-06T11:22:17Z</time>
      </trkpt>
      <trkpt lat="42.83379" lon="-0.44509">
        <ele>2166.4682617188</ele>
        <time>2015-09-06T11:22:29Z</time>
      </trkpt>
      <trkpt lat="42.83378" lon="-0.44508">
        <ele>2166.9489746094</ele>
        <time>2015-09-06T11:22:30Z</time>
      </trkpt>
      <trkpt lat="42.83385" lon="-0.44494">
        <ele>2168.8715820312</ele>
        <time>2015-09-06T11:22:44Z</time>
      </trkpt>
      <trkpt lat="42.8338" lon="-0.44486">
        <ele>2169.3522949219</ele>
        <time>2015-09-06T11:22:50Z</time>
      </trkpt>
      <trkpt lat="42.83376" lon="-0.44479">
        <ele>2170.7941894531</ele>
        <time>2015-09-06T11:23:02Z</time>
      </trkpt>
      <trkpt lat="42.83372" lon="-0.44475">
        <ele>2172.236328125</ele>
        <time>2015-09-06T11:23:07Z</time>
      </trkpt>
      <trkpt lat="42.83376" lon="-0.44466">
        <ele>2172.7170410156</ele>
        <time>2015-09-06T11:23:14Z</time>
      </trkpt>
      <trkpt lat="42.83375" lon="-0.4445">
        <ele>2173.1977539062</ele>
        <time>2015-09-06T11:23:26Z</time>
      </trkpt>
      <trkpt lat="42.83367" lon="-0.44439">
        <ele>2172.236328125</ele>
        <time>2015-09-06T11:23:50Z</time>
      </trkpt>
      <trkpt lat="42.83362" lon="-0.44419">
        <ele>2169.8327636719</ele>
        <time>2015-09-06T11:24:05Z</time>
      </trkpt>
      <trkpt lat="42.83362" lon="-0.44406">
        <ele>2166.9489746094</ele>
        <time>2015-09-06T11:24:21Z</time>
      </trkpt>
      <trkpt lat="42.83365" lon="-0.44404">
        <ele>2165.5070800781</ele>
        <time>2015-09-06T11:24:31Z</time>
      </trkpt>
      <trkpt lat="42.83374" lon="-0.4441">
        <ele>2164.5456542969</ele>
        <time>2015-09-06T11:25:47Z</time>
      </trkpt>
      <trkpt lat="42.83388" lon="-0.4441">
        <ele>2164.5456542969</ele>
        <time>2015-09-06T11:26:32Z</time>
      </trkpt>
      <trkpt lat="42.83376" lon="-0.44409">
        <ele>2165.0263671875</ele>
        <time>2015-09-06T11:26:45Z</time>
      </trkpt>
      <trkpt lat="42.83362" lon="-0.44397">
        <ele>2166.9489746094</ele>
        <time>2015-09-06T11:30:32Z</time>
      </trkpt>
      <trkpt lat="42.8339" lon="-0.44385">
        <ele>2166.9489746094</ele>
        <time>2015-09-06T11:31:08Z</time>
      </trkpt>
      <trkpt lat="42.83389" lon="-0.44372">
        <ele>2169.8327636719</ele>
        <time>2015-09-06T11:31:42Z</time>
      </trkpt>
      <trkpt lat="42.8338" lon="-0.44356">
        <ele>2173.1977539062</ele>
        <time>2015-09-06T11:32:07Z</time>
      </trkpt>
      <trkpt lat="42.83374" lon="-0.44349">
        <ele>2175.1201171875</ele>
        <time>2015-09-06T11:32:25Z</time>
      </trkpt>
      <trkpt lat="42.83373" lon="-0.44339">
        <ele>2178.9653320312</ele>
        <time>2015-09-06T11:32:48Z</time>
      </trkpt>
      <trkpt lat="42.83378" lon="-0.44337">
        <ele>2180.4074707031</ele>
        <time>2015-09-06T11:33:04Z</time>
      </trkpt>
      <trkpt lat="42.8338" lon="-0.4433">
        <ele>2181.8493652344</ele>
        <time>2015-09-06T11:33:25Z</time>
      </trkpt>
      <trkpt lat="42.8338" lon="-0.4432">
        <ele>2183.7719726562</ele>
        <time>2015-09-06T11:33:47Z</time>
      </trkpt>
      <trkpt lat="42.83385" lon="-0.44305">
        <ele>2186.6557617188</ele>
        <time>2015-09-06T11:34:33Z</time>
      </trkpt>
      <trkpt lat="42.834" lon="-0.44306">
        <ele>2190.0207519531</ele>
        <time>2015-09-06T11:35:17Z</time>
      </trkpt>
      <trkpt lat="42.83406" lon="-0.44295">
        <ele>2193.3852539062</ele>
        <time>2015-09-06T11:35:52Z</time>
      </trkpt>
      <trkpt lat="42.83413" lon="-0.44279">
        <ele>2196.2692871094</ele>
        <time>2015-09-06T11:36:43Z</time>
      </trkpt>
      <trkpt lat="42.83413" lon="-0.4428">
        <ele>2196.7497558594</ele>
        <time>2015-09-06T11:36:55Z</time>
      </trkpt>
      <trkpt lat="42.83413" lon="-0.44281">
        <ele>2196.7497558594</ele>
        <time>2015-09-06T11:37:05Z</time>
      </trkpt>
      <trkpt lat="42.83414" lon="-0.44265">
        <ele>2199.6337890625</ele>
        <time>2015-09-06T11:37:33Z</time>
      </trkpt>
      <trkpt lat="42.83409" lon="-0.44257">
        <ele>2202.517578125</ele>
        <time>2015-09-06T11:37:55Z</time>
      </trkpt>
      <trkpt lat="42.83414" lon="-0.44254">
        <ele>2205.8823242188</ele>
        <time>2015-09-06T11:38:11Z</time>
      </trkpt>
      <trkpt lat="42.83415" lon="-0.4424">
        <ele>2208.2856445312</ele>
        <time>2015-09-06T11:38:37Z</time>
      </trkpt>
      <trkpt lat="42.83411" lon="-0.44226">
        <ele>2211.650390625</ele>
        <time>2015-09-06T11:39:11Z</time>
      </trkpt>
      <trkpt lat="42.8341" lon="-0.44217">
        <ele>2213.5727539062</ele>
        <time>2015-09-06T11:39:39Z</time>
      </trkpt>
      <trkpt lat="42.83408" lon="-0.44202">
        <ele>2216.4567871094</ele>
        <time>2015-09-06T11:40:02Z</time>
      </trkpt>
      <trkpt lat="42.83405" lon="-0.44192">
        <ele>2219.8212890625</ele>
        <time>2015-09-06T11:40:37Z</time>
      </trkpt>
      <trkpt lat="42.83411" lon="-0.44188">
        <ele>2222.7055664062</ele>
        <time>2015-09-06T11:40:52Z</time>
      </trkpt>
      <trkpt lat="42.83419" lon="-0.44181">
        <ele>2226.0700683594</ele>
        <time>2015-09-06T11:41:29Z</time>
      </trkpt>
      <trkpt lat="42.83408" lon="-0.44169">
        <ele>2228.4733886719</ele>
        <time>2015-09-06T11:41:58Z</time>
      </trkpt>
      <trkpt lat="42.83406" lon="-0.44169">
        <ele>2231.3571777344</ele>
        <time>2015-09-06T11:42:11Z</time>
      </trkpt>
      <trkpt lat="42.83423" lon="-0.4417">
        <ele>2234.2412109375</ele>
        <time>2015-09-06T11:42:40Z</time>
      </trkpt>
      <trkpt lat="42.83416" lon="-0.44158">
        <ele>2237.6059570312</ele>
        <time>2015-09-06T11:43:03Z</time>
      </trkpt>
      <trkpt lat="42.83411" lon="-0.44147">
        <ele>2240.4897460938</ele>
        <time>2015-09-06T11:43:26Z</time>
      </trkpt>
      <trkpt lat="42.83415" lon="-0.44139">
        <ele>2243.8544921875</ele>
        <time>2015-09-06T11:43:47Z</time>
      </trkpt>
      <trkpt lat="42.83421" lon="-0.44139">
        <ele>2246.73828125</ele>
        <time>2015-09-06T11:44:08Z</time>
      </trkpt>
      <trkpt lat="42.83428" lon="-0.44134">
        <ele>2250.1030273438</ele>
        <time>2015-09-06T11:44:30Z</time>
      </trkpt>
      <trkpt lat="42.83426" lon="-0.44134">
        <ele>2250.5834960938</ele>
        <time>2015-09-06T11:44:32Z</time>
      </trkpt>
      <trkpt lat="42.83426" lon="-0.44129">
        <ele>2253.9484863281</ele>
        <time>2015-09-06T11:44:47Z</time>
      </trkpt>
      <trkpt lat="42.83432" lon="-0.44127">
        <ele>2255.3903808594</ele>
        <time>2015-09-06T11:45:00Z</time>
      </trkpt>
      <trkpt lat="42.83435" lon="-0.44121">
        <ele>2257.3129882812</ele>
        <time>2015-09-06T11:45:14Z</time>
      </trkpt>
      <trkpt lat="42.83434" lon="-0.44114">
        <ele>2259.7160644531</ele>
        <time>2015-09-06T11:45:32Z</time>
      </trkpt>
      <trkpt lat="42.83434" lon="-0.44113">
        <ele>2260.1967773438</ele>
        <time>2015-09-06T11:45:33Z</time>
      </trkpt>
      <trkpt lat="42.83429" lon="-0.44103">
        <ele>2263.5612792969</ele>
        <time>2015-09-06T11:45:55Z</time>
      </trkpt>
      <trkpt lat="42.83435" lon="-0.44098">
        <ele>2264.5227050781</ele>
        <time>2015-09-06T11:46:11Z</time>
      </trkpt>
      <trkpt lat="42.83439" lon="-0.44093">
        <ele>2265.0034179688</ele>
        <time>2015-09-06T11:46:22Z</time>
      </trkpt>
      <trkpt lat="42.8345" lon="-0.44082">
        <ele>2265.9645996094</ele>
        <time>2015-09-06T11:46:40Z</time>
      </trkpt>
      <trkpt lat="42.83451" lon="-0.4407">
        <ele>2268.3681640625</ele>
        <time>2015-09-06T11:46:54Z</time>
      </trkpt>
      <trkpt lat="42.83449" lon="-0.44063">
        <ele>2270.2907714844</ele>
        <time>2015-09-06T11:47:06Z</time>
      </trkpt>
      <trkpt lat="42.83445" lon="-0.44063">
        <ele>2272.2133789062</ele>
        <time>2015-09-06T11:47:14Z</time>
      </trkpt>
      <trkpt lat="42.83443" lon="-0.44061">
        <ele>2273.1748046875</ele>
        <time>2015-09-06T11:47:20Z</time>
      </trkpt>
      <trkpt lat="42.83439" lon="-0.44061">
        <ele>2275.0971679688</ele>
        <time>2015-09-06T11:47:35Z</time>
      </trkpt>
      <trkpt lat="42.83443" lon="-0.44059">
        <ele>2276.05859375</ele>
        <time>2015-09-06T11:47:47Z</time>
      </trkpt>
      <trkpt lat="42.83437" lon="-0.44059">
        <ele>2279.4230957031</ele>
        <time>2015-09-06T11:48:00Z</time>
      </trkpt>
      <trkpt lat="42.83437" lon="-0.44049">
        <ele>2280.865234375</ele>
        <time>2015-09-06T11:48:18Z</time>
      </trkpt>
      <trkpt lat="42.83437" lon="-0.4404">
        <ele>2281.345703125</ele>
        <time>2015-09-06T11:48:37Z</time>
      </trkpt>
      <trkpt lat="42.83436" lon="-0.44034">
        <ele>2284.2299804688</ele>
        <time>2015-09-06T11:48:57Z</time>
      </trkpt>
      <trkpt lat="42.83433" lon="-0.44033">
        <ele>2285.671875</ele>
        <time>2015-09-06T11:49:10Z</time>
      </trkpt>
      <trkpt lat="42.83436" lon="-0.44025">
        <ele>2288.5559082031</ele>
        <time>2015-09-06T11:49:24Z</time>
      </trkpt>
      <trkpt lat="42.83432" lon="-0.44015">
        <ele>2290.958984375</ele>
        <time>2015-09-06T11:49:41Z</time>
      </trkpt>
      <trkpt lat="42.83436" lon="-0.44018">
        <ele>2291.9204101562</ele>
        <time>2015-09-06T11:50:01Z</time>
      </trkpt>
      <trkpt lat="42.83434" lon="-0.44015">
        <ele>2292.8815917969</ele>
        <time>2015-09-06T11:50:11Z</time>
      </trkpt>
      <trkpt lat="42.8343" lon="-0.44002">
        <ele>2295.765625</ele>
        <time>2015-09-06T11:50:26Z</time>
      </trkpt>
      <trkpt lat="42.83429" lon="-0.43996">
        <ele>2297.2075195312</ele>
        <time>2015-09-06T11:50:32Z</time>
      </trkpt>
      <trkpt lat="42.8343" lon="-0.43981">
        <ele>2299.6108398438</ele>
        <time>2015-09-06T11:50:49Z</time>
      </trkpt>
      <trkpt lat="42.83428" lon="-0.43976">
        <ele>2300.572265625</ele>
        <time>2015-09-06T11:51:05Z</time>
      </trkpt>
      <trkpt lat="42.8342" lon="-0.43974">
        <ele>2303.9370117188</ele>
        <time>2015-09-06T11:51:22Z</time>
      </trkpt>
      <trkpt lat="42.83421" lon="-0.43967">
        <ele>2306.3400878906</ele>
        <time>2015-09-06T11:51:36Z</time>
      </trkpt>
      <trkpt lat="42.83421" lon="-0.43958">
        <ele>2309.2241210938</ele>
        <time>2015-09-06T11:51:49Z</time>
      </trkpt>
      <trkpt lat="42.83421" lon="-0.43947">
        <ele>2311.1467285156</ele>
        <time>2015-09-06T11:52:06Z</time>
      </trkpt>
      <trkpt lat="42.83421" lon="-0.43938">
        <ele>2311.6274414062</ele>
        <time>2015-09-06T11:52:23Z</time>
      </trkpt>
      <trkpt lat="42.83421" lon="-0.43941">
        <ele>2311.6274414062</ele>
        <time>2015-09-06T11:52:41Z</time>
      </trkpt>
      <trkpt lat="42.83421" lon="-0.43941">
        <ele>2311.1467285156</ele>
        <time>2015-09-06T11:53:36Z</time>
      </trkpt>
      <trkpt lat="42.83421" lon="-0.43942">
        <ele>2312.5886230469</ele>
        <time>2015-09-06T11:54:00Z</time>
      </trkpt>
      <trkpt lat="42.83421" lon="-0.43942">
        <ele>2314.0305175781</ele>
        <time>2015-09-06T11:56:29Z</time>
      </trkpt>
      <trkpt lat="42.83421" lon="-0.43943">
        <ele>2314.5112304688</ele>
        <time>2015-09-06T11:57:04Z</time>
      </trkpt>
      <trkpt lat="42.83421" lon="-0.43942">
        <ele>2314.5112304688</ele>
        <time>2015-09-06T11:57:23Z</time>
      </trkpt>
      <trkpt lat="42.83421" lon="-0.43942">
        <ele>2314.9919433594</ele>
        <time>2015-09-06T11:57:44Z</time>
      </trkpt>
      <trkpt lat="42.83421" lon="-0.43942">
        <ele>2315.47265625</ele>
        <time>2015-09-06T11:58:16Z</time>
      </trkpt>
      <trkpt lat="42.8342" lon="-0.43941">
        <ele>2315.47265625</ele>
        <time>2015-09-06T11:58:30Z</time>
      </trkpt>
      <trkpt lat="42.83419" lon="-0.43937">
        <ele>2314.0305175781</ele>
        <time>2015-09-06T11:58:46Z</time>
      </trkpt>
      <trkpt lat="42.83417" lon="-0.4393">
        <ele>2312.1079101562</ele>
        <time>2015-09-06T11:58:56Z</time>
      </trkpt>
      <trkpt lat="42.83422" lon="-0.43926">
        <ele>2310.666015625</ele>
        <time>2015-09-06T11:59:08Z</time>
      </trkpt>
      <trkpt lat="42.83426" lon="-0.43919">
        <ele>2308.2626953125</ele>
        <time>2015-09-06T11:59:21Z</time>
      </trkpt>
      <trkpt lat="42.83427" lon="-0.43912">
        <ele>2306.8208007812</ele>
        <time>2015-09-06T11:59:34Z</time>
      </trkpt>
      <trkpt lat="42.83426" lon="-0.43903">
        <ele>2303.9370117188</ele>
        <time>2015-09-06T11:59:53Z</time>
      </trkpt>
      <trkpt lat="42.83427" lon="-0.43891">
        <ele>2300.091796875</ele>
        <time>2015-09-06T12:00:09Z</time>
      </trkpt>
      <trkpt lat="42.83426" lon="-0.43878">
        <ele>2297.2075195312</ele>
        <time>2015-09-06T12:00:23Z</time>
      </trkpt>
      <trkpt lat="42.83423" lon="-0.43869">
        <ele>2294.3234863281</ele>
        <time>2015-09-06T12:00:37Z</time>
      </trkpt>
      <trkpt lat="42.83425" lon="-0.43862">
        <ele>2291.9204101562</ele>
        <time>2015-09-06T12:00:52Z</time>
      </trkpt>
      <trkpt lat="42.83428" lon="-0.43854">
        <ele>2289.5170898438</ele>
        <time>2015-09-06T12:01:07Z</time>
      </trkpt>
      <trkpt lat="42.83426" lon="-0.43848">
        <ele>2288.0751953125</ele>
        <time>2015-09-06T12:01:24Z</time>
      </trkpt>
      <trkpt lat="42.83423" lon="-0.43845">
        <ele>2285.1911621094</ele>
        <time>2015-09-06T12:01:36Z</time>
      </trkpt>
      <trkpt lat="42.83423" lon="-0.43845">
        <ele>2285.1911621094</ele>
        <time>2015-09-06T12:01:37Z</time>
      </trkpt>
      <trkpt lat="42.8342" lon="-0.43843">
        <ele>2282.7875976562</ele>
        <time>2015-09-06T12:01:49Z</time>
      </trkpt>
      <trkpt lat="42.83412" lon="-0.43846">
        <ele>2279.9038085938</ele>
        <time>2015-09-06T12:02:05Z</time>
      </trkpt>
      <trkpt lat="42.83408" lon="-0.43843">
        <ele>2277.9812011719</ele>
        <time>2015-09-06T12:02:18Z</time>
      </trkpt>
      <trkpt lat="42.83408" lon="-0.43836">
        <ele>2276.5393066406</ele>
        <time>2015-09-06T12:02:34Z</time>
      </trkpt>
      <trkpt lat="42.83409" lon="-0.43832">
        <ele>2274.6166992188</ele>
        <time>2015-09-06T12:02:49Z</time>
      </trkpt>
      <trkpt lat="42.83409" lon="-0.43825">
        <ele>2271.251953125</ele>
        <time>2015-09-06T12:03:04Z</time>
      </trkpt>
      <trkpt lat="42.83412" lon="-0.43821">
        <ele>2269.3295898438</ele>
        <time>2015-09-06T12:03:17Z</time>
      </trkpt>
      <trkpt lat="42.83412" lon="-0.4382">
        <ele>2268.3681640625</ele>
        <time>2015-09-06T12:03:19Z</time>
      </trkpt>
      <trkpt lat="42.83405" lon="-0.43817">
        <ele>2266.9260253906</ele>
        <time>2015-09-06T12:03:33Z</time>
      </trkpt>
      <trkpt lat="42.83409" lon="-0.43811">
        <ele>2266.9260253906</ele>
        <time>2015-09-06T12:03:45Z</time>
      </trkpt>
      <trkpt lat="42.83406" lon="-0.43811">
        <ele>2263.5612792969</ele>
        <time>2015-09-06T12:03:56Z</time>
      </trkpt>
      <trkpt lat="42.83407" lon="-0.43803">
        <ele>2262.6000976562</ele>
        <time>2015-09-06T12:04:11Z</time>
      </trkpt>
      <trkpt lat="42.83405" lon="-0.43794">
        <ele>2261.158203125</ele>
        <time>2015-09-06T12:04:27Z</time>
      </trkpt>
      <trkpt lat="42.83399" lon="-0.43799">
        <ele>2259.7160644531</ele>
        <time>2015-09-06T12:04:41Z</time>
      </trkpt>
      <trkpt lat="42.83395" lon="-0.43798">
        <ele>2256.8322753906</ele>
        <time>2015-09-06T12:04:51Z</time>
      </trkpt>
      <trkpt lat="42.83392" lon="-0.43791">
        <ele>2254.9096679688</ele>
        <time>2015-09-06T12:05:05Z</time>
      </trkpt>
      <trkpt lat="42.8339" lon="-0.43789">
        <ele>2253.9484863281</ele>
        <time>2015-09-06T12:05:08Z</time>
      </trkpt>
      <trkpt lat="42.83393" lon="-0.4378">
        <ele>2250.5834960938</ele>
        <time>2015-09-06T12:05:18Z</time>
      </trkpt>
      <trkpt lat="42.83392" lon="-0.43769">
        <ele>2249.1416015625</ele>
        <time>2015-09-06T12:05:28Z</time>
      </trkpt>
      <trkpt lat="42.83393" lon="-0.4376">
        <ele>2245.7770996094</ele>
        <time>2015-09-06T12:05:39Z</time>
      </trkpt>
      <trkpt lat="42.83392" lon="-0.4375">
        <ele>2243.3737792969</ele>
        <time>2015-09-06T12:05:51Z</time>
      </trkpt>
      <trkpt lat="42.8339" lon="-0.43746">
        <ele>2242.8930664062</ele>
        <time>2015-09-06T12:05:56Z</time>
      </trkpt>
      <trkpt lat="42.83391" lon="-0.43741">
        <ele>2241.9318847656</ele>
        <time>2015-09-06T12:06:00Z</time>
      </trkpt>
      <trkpt lat="42.83395" lon="-0.43734">
        <ele>2239.5285644531</ele>
        <time>2015-09-06T12:06:09Z</time>
      </trkpt>
      <trkpt lat="42.83398" lon="-0.43728">
        <ele>2236.64453125</ele>
        <time>2015-09-06T12:06:17Z</time>
      </trkpt>
      <trkpt lat="42.83398" lon="-0.43727">
        <ele>2236.64453125</ele>
        <time>2015-09-06T12:06:18Z</time>
      </trkpt>
      <trkpt lat="42.83401" lon="-0.43717">
        <ele>2234.7219238281</ele>
        <time>2015-09-06T12:06:35Z</time>
      </trkpt>
      <trkpt lat="42.83403" lon="-0.43707">
        <ele>2231.837890625</ele>
        <time>2015-09-06T12:06:49Z</time>
      </trkpt>
      <trkpt lat="42.83404" lon="-0.43699">
        <ele>2230.3959960938</ele>
        <time>2015-09-06T12:07:00Z</time>
      </trkpt>
      <trkpt lat="42.83402" lon="-0.4369">
        <ele>2227.9926757812</ele>
        <time>2015-09-06T12:07:09Z</time>
      </trkpt>
      <trkpt lat="42.83402" lon="-0.43679">
        <ele>2226.0700683594</ele>
        <time>2015-09-06T12:07:19Z</time>
      </trkpt>
      <trkpt lat="42.83401" lon="-0.43675">
        <ele>2224.6281738281</ele>
        <time>2015-09-06T12:07:22Z</time>
      </trkpt>
      <trkpt lat="42.83396" lon="-0.43667">
        <ele>2222.7055664062</ele>
        <time>2015-09-06T12:07:29Z</time>
      </trkpt>
      <trkpt lat="42.83396" lon="-0.43662">
        <ele>2221.744140625</ele>
        <time>2015-09-06T12:07:32Z</time>
      </trkpt>
      <trkpt lat="42.83396" lon="-0.43645">
        <ele>2218.8601074219</ele>
        <time>2015-09-06T12:07:47Z</time>
      </trkpt>
      <trkpt lat="42.83393" lon="-0.43637">
        <ele>2216.9375</ele>
        <time>2015-09-06T12:07:57Z</time>
      </trkpt>
      <trkpt lat="42.83388" lon="-0.4363">
        <ele>2213.5727539062</ele>
        <time>2015-09-06T12:08:11Z</time>
      </trkpt>
      <trkpt lat="42.83389" lon="-0.43618">
        <ele>2211.650390625</ele>
        <time>2015-09-06T12:08:20Z</time>
      </trkpt>
      <trkpt lat="42.8339" lon="-0.43616">
        <ele>2211.1696777344</ele>
        <time>2015-09-06T12:08:22Z</time>
      </trkpt>
      <trkpt lat="42.83394" lon="-0.43604">
        <ele>2211.1696777344</ele>
        <time>2015-09-06T12:08:30Z</time>
      </trkpt>
      <trkpt lat="42.83396" lon="-0.43601">
        <ele>2211.650390625</ele>
        <time>2015-09-06T12:08:33Z</time>
      </trkpt>
      <trkpt lat="42.83396" lon="-0.43568">
        <ele>2210.6889648438</ele>
        <time>2015-09-06T12:08:52Z</time>
      </trkpt>
      <trkpt lat="42.834" lon="-0.43559">
        <ele>2213.0922851562</ele>
        <time>2015-09-06T12:09:07Z</time>
      </trkpt>
      <trkpt lat="42.83399" lon="-0.43548">
        <ele>2215.0148925781</ele>
        <time>2015-09-06T12:09:16Z</time>
      </trkpt>
      <trkpt lat="42.83397" lon="-0.43529">
        <ele>2215.4956054688</ele>
        <time>2015-09-06T12:09:33Z</time>
      </trkpt>
      <trkpt lat="42.83394" lon="-0.43533">
        <ele>2212.6115722656</ele>
        <time>2015-09-06T12:09:50Z</time>
      </trkpt>
      <trkpt lat="42.83389" lon="-0.43519">
        <ele>2211.650390625</ele>
        <time>2015-09-06T12:10:04Z</time>
      </trkpt>
      <trkpt lat="42.83383" lon="-0.43514">
        <ele>2211.1696777344</ele>
        <time>2015-09-06T12:10:13Z</time>
      </trkpt>
      <trkpt lat="42.83377" lon="-0.43513">
        <ele>2211.1696777344</ele>
        <time>2015-09-06T12:10:25Z</time>
      </trkpt>
      <trkpt lat="42.83381" lon="-0.43516">
        <ele>2211.1696777344</ele>
        <time>2015-09-06T12:10:57Z</time>
      </trkpt>
      <trkpt lat="42.8338" lon="-0.43505">
        <ele>2208.2856445312</ele>
        <time>2015-09-06T12:11:20Z</time>
      </trkpt>
      <trkpt lat="42.8338" lon="-0.43502">
        <ele>2205.8823242188</ele>
        <time>2015-09-06T12:11:25Z</time>
      </trkpt>
      <trkpt lat="42.8338" lon="-0.43493">
        <ele>2203.9597167969</ele>
        <time>2015-09-06T12:11:39Z</time>
      </trkpt>
      <trkpt lat="42.83374" lon="-0.4348">
        <ele>2200.5949707031</ele>
        <time>2015-09-06T12:11:52Z</time>
      </trkpt>
      <trkpt lat="42.83374" lon="-0.43479">
        <ele>2200.5949707031</ele>
        <time>2015-09-06T12:11:53Z</time>
      </trkpt>
      <trkpt lat="42.83373" lon="-0.43476">
        <ele>2200.5949707031</ele>
        <time>2015-09-06T12:11:55Z</time>
      </trkpt>
      <trkpt lat="42.83373" lon="-0.4347">
        <ele>2199.1530761719</ele>
        <time>2015-09-06T12:11:59Z</time>
      </trkpt>
      <trkpt lat="42.83367" lon="-0.43458">
        <ele>2197.23046875</ele>
        <time>2015-09-06T12:12:14Z</time>
      </trkpt>
      <trkpt lat="42.8336" lon="-0.43452">
        <ele>2196.7497558594</ele>
        <time>2015-09-06T12:12:27Z</time>
      </trkpt>
      <trkpt lat="42.8336" lon="-0.4345">
        <ele>2195.3078613281</ele>
        <time>2015-09-06T12:12:30Z</time>
      </trkpt>
      <trkpt lat="42.83361" lon="-0.43442">
        <ele>2193.3852539062</ele>
        <time>2015-09-06T12:12:43Z</time>
      </trkpt>
      <trkpt lat="42.83364" lon="-0.43438">
        <ele>2190.9819335938</ele>
        <time>2015-09-06T12:12:51Z</time>
      </trkpt>
      <trkpt lat="42.83364" lon="-0.4343">
        <ele>2188.5788574219</ele>
        <time>2015-09-06T12:13:05Z</time>
      </trkpt>
      <trkpt lat="42.83365" lon="-0.43424">
        <ele>2186.1752929688</ele>
        <time>2015-09-06T12:13:18Z</time>
      </trkpt>
      <trkpt lat="42.83364" lon="-0.43419">
        <ele>2184.7333984375</ele>
        <time>2015-09-06T12:13:31Z</time>
      </trkpt>
      <trkpt lat="42.83364" lon="-0.43415">
        <ele>2181.3686523438</ele>
        <time>2015-09-06T12:13:42Z</time>
      </trkpt>
      <trkpt lat="42.83363" lon="-0.43414">
        <ele>2181.3686523438</ele>
        <time>2015-09-06T12:13:43Z</time>
      </trkpt>
      <trkpt lat="42.83362" lon="-0.43408">
        <ele>2178.9653320312</ele>
        <time>2015-09-06T12:13:57Z</time>
      </trkpt>
      <trkpt lat="42.8337" lon="-0.43399">
        <ele>2176.0815429688</ele>
        <time>2015-09-06T12:14:26Z</time>
      </trkpt>
      <trkpt lat="42.83377" lon="-0.43395">
        <ele>2173.6782226562</ele>
        <time>2015-09-06T12:14:41Z</time>
      </trkpt>
      <trkpt lat="42.83379" lon="-0.43392">
        <ele>2171.2746582031</ele>
        <time>2015-09-06T12:15:02Z</time>
      </trkpt>
      <trkpt lat="42.83383" lon="-0.43381">
        <ele>2169.8327636719</ele>
        <time>2015-09-06T12:15:17Z</time>
      </trkpt>
      <trkpt lat="42.83383" lon="-0.43374">
        <ele>2168.3908691406</ele>
        <time>2015-09-06T12:15:25Z</time>
      </trkpt>
      <trkpt lat="42.83387" lon="-0.43372">
        <ele>2166.4682617188</ele>
        <time>2015-09-06T12:15:39Z</time>
      </trkpt>
      <trkpt lat="42.83387" lon="-0.43366">
        <ele>2164.0649414062</ele>
        <time>2015-09-06T12:15:54Z</time>
      </trkpt>
      <trkpt lat="42.83384" lon="-0.43361">
        <ele>2163.5842285156</ele>
        <time>2015-09-06T12:16:12Z</time>
      </trkpt>
      <trkpt lat="42.83388" lon="-0.43358">
        <ele>2160.2197265625</ele>
        <time>2015-09-06T12:16:26Z</time>
      </trkpt>
      <trkpt lat="42.83388" lon="-0.43358">
        <ele>2160.2197265625</ele>
        <time>2015-09-06T12:16:27Z</time>
      </trkpt>
      <trkpt lat="42.83388" lon="-0.43352">
        <ele>2156.8552246094</ele>
        <time>2015-09-06T12:16:43Z</time>
      </trkpt>
      <trkpt lat="42.83388" lon="-0.43346">
        <ele>2154.9323730469</ele>
        <time>2015-09-06T12:16:59Z</time>
      </trkpt>
      <trkpt lat="42.83392" lon="-0.4334">
        <ele>2152.0483398438</ele>
        <time>2015-09-06T12:17:14Z</time>
      </trkpt>
      <trkpt lat="42.83398" lon="-0.43339">
        <ele>2150.6064453125</ele>
        <time>2015-09-06T12:17:27Z</time>
      </trkpt>
      <trkpt lat="42.83404" lon="-0.43341">
        <ele>2147.2419433594</ele>
        <time>2015-09-06T12:17:37Z</time>
      </trkpt>
      <trkpt lat="42.83413" lon="-0.43338">
        <ele>2145.8000488281</ele>
        <time>2015-09-06T12:17:53Z</time>
      </trkpt>
      <trkpt lat="42.83413" lon="-0.43337">
        <ele>2145.8000488281</ele>
        <time>2015-09-06T12:17:54Z</time>
      </trkpt>
      <trkpt lat="42.83417" lon="-0.43333">
        <ele>2143.3967285156</ele>
        <time>2015-09-06T12:18:02Z</time>
      </trkpt>
      <trkpt lat="42.83424" lon="-0.43335">
        <ele>2141.9548339844</ele>
        <time>2015-09-06T12:18:14Z</time>
      </trkpt>
      <trkpt lat="42.83435" lon="-0.4333">
        <ele>2139.0705566406</ele>
        <time>2015-09-06T12:18:31Z</time>
      </trkpt>
      <trkpt lat="42.8344" lon="-0.43328">
        <ele>2137.1479492188</ele>
        <time>2015-09-06T12:18:40Z</time>
      </trkpt>
      <trkpt lat="42.83445" lon="-0.4332">
        <ele>2135.2253417969</ele>
        <time>2015-09-06T12:18:53Z</time>
      </trkpt>
      <trkpt lat="42.83449" lon="-0.43325">
        <ele>2132.3415527344</ele>
        <time>2015-09-06T12:19:05Z</time>
      </trkpt>
      <trkpt lat="42.8345" lon="-0.43325">
        <ele>2131.3801269531</ele>
        <time>2015-09-06T12:19:07Z</time>
      </trkpt>
      <trkpt lat="42.83456" lon="-0.43329">
        <ele>2129.4575195312</ele>
        <time>2015-09-06T12:19:23Z</time>
      </trkpt>
      <trkpt lat="42.83461" lon="-0.43334">
        <ele>2127.5349121094</ele>
        <time>2015-09-06T12:19:38Z</time>
      </trkpt>
      <trkpt lat="42.83466" lon="-0.43334">
        <ele>2124.6511230469</ele>
        <time>2015-09-06T12:19:49Z</time>
      </trkpt>
      <trkpt lat="42.83472" lon="-0.43334">
        <ele>2122.7282714844</ele>
        <time>2015-09-06T12:19:58Z</time>
      </trkpt>
      <trkpt lat="42.83476" lon="-0.43335">
        <ele>2121.2861328125</ele>
        <time>2015-09-06T12:20:03Z</time>
      </trkpt>
      <trkpt lat="42.83483" lon="-0.43336">
        <ele>2119.3637695312</ele>
        <time>2015-09-06T12:20:09Z</time>
      </trkpt>
      <trkpt lat="42.83488" lon="-0.43336">
        <ele>2118.40234375</ele>
        <time>2015-09-06T12:20:13Z</time>
      </trkpt>
      <trkpt lat="42.83495" lon="-0.43334">
        <ele>2117.4409179688</ele>
        <time>2015-09-06T12:20:18Z</time>
      </trkpt>
      <trkpt lat="42.83501" lon="-0.43332">
        <ele>2116.9604492188</ele>
        <time>2015-09-06T12:20:23Z</time>
      </trkpt>
      <trkpt lat="42.83508" lon="-0.43326">
        <ele>2115.9990234375</ele>
        <time>2015-09-06T12:20:32Z</time>
      </trkpt>
      <trkpt lat="42.83515" lon="-0.43324">
        <ele>2115.5185546875</ele>
        <time>2015-09-06T12:20:39Z</time>
      </trkpt>
      <trkpt lat="42.83525" lon="-0.43318">
        <ele>2112.6345214844</ele>
        <time>2015-09-06T12:20:53Z</time>
      </trkpt>
      <trkpt lat="42.83531" lon="-0.43309">
        <ele>2109.2700195312</ele>
        <time>2015-09-06T12:21:07Z</time>
      </trkpt>
      <trkpt lat="42.83534" lon="-0.43301">
        <ele>2106.3857421875</ele>
        <time>2015-09-06T12:21:22Z</time>
      </trkpt>
      <trkpt lat="42.83538" lon="-0.43293">
        <ele>2106.8664550781</ele>
        <time>2015-09-06T12:21:47Z</time>
      </trkpt>
      <trkpt lat="42.83542" lon="-0.43282">
        <ele>2105.4245605469</ele>
        <time>2015-09-06T12:22:21Z</time>
      </trkpt>
      <trkpt lat="42.83548" lon="-0.43271">
        <ele>2103.0212402344</ele>
        <time>2015-09-06T12:22:36Z</time>
      </trkpt>
      <trkpt lat="42.8355" lon="-0.43268">
        <ele>2100.6179199219</ele>
        <time>2015-09-06T12:22:39Z</time>
      </trkpt>
      <trkpt lat="42.83552" lon="-0.43258">
        <ele>2097.2534179688</ele>
        <time>2015-09-06T12:22:48Z</time>
      </trkpt>
      <trkpt lat="42.83556" lon="-0.43243">
        <ele>2094.3693847656</ele>
        <time>2015-09-06T12:23:02Z</time>
      </trkpt>
      <trkpt lat="42.83561" lon="-0.43224">
        <ele>2091.0046386719</ele>
        <time>2015-09-06T12:23:18Z</time>
      </trkpt>
      <trkpt lat="42.83562" lon="-0.43222">
        <ele>2090.5239257812</ele>
        <time>2015-09-06T12:23:19Z</time>
      </trkpt>
      <trkpt lat="42.83574" lon="-0.43201">
        <ele>2088.6015625</ele>
        <time>2015-09-06T12:23:35Z</time>
      </trkpt>
      <trkpt lat="42.83593" lon="-0.4319">
        <ele>2087.1594238281</ele>
        <time>2015-09-06T12:23:52Z</time>
      </trkpt>
      <trkpt lat="42.83604" lon="-0.43174">
        <ele>2084.2756347656</ele>
        <time>2015-09-06T12:24:06Z</time>
      </trkpt>
      <trkpt lat="42.83614" lon="-0.43153">
        <ele>2085.2368164062</ele>
        <time>2015-09-06T12:24:21Z</time>
      </trkpt>
      <trkpt lat="42.8362" lon="-0.43147">
        <ele>2087.1594238281</ele>
        <time>2015-09-06T12:24:30Z</time>
      </trkpt>
      <trkpt lat="42.83622" lon="-0.43147">
        <ele>2087.1594238281</ele>
        <time>2015-09-06T12:24:33Z</time>
      </trkpt>
      <trkpt lat="42.83632" lon="-0.43135">
        <ele>2086.1982421875</ele>
        <time>2015-09-06T12:24:44Z</time>
      </trkpt>
      <trkpt lat="42.83636" lon="-0.43127">
        <ele>2084.7563476562</ele>
        <time>2015-09-06T12:24:54Z</time>
      </trkpt>
      <trkpt lat="42.83638" lon="-0.43118">
        <ele>2081.8723144531</ele>
        <time>2015-09-06T12:25:04Z</time>
      </trkpt>
      <trkpt lat="42.83639" lon="-0.43104">
        <ele>2080.9111328125</ele>
        <time>2015-09-06T12:25:17Z</time>
      </trkpt>
      <trkpt lat="42.83638" lon="-0.43103">
        <ele>2080.4304199219</ele>
        <time>2015-09-06T12:26:14Z</time>
      </trkpt>
      <trkpt lat="42.83644" lon="-0.43099">
        <ele>2078.5078125</ele>
        <time>2015-09-06T12:26:42Z</time>
      </trkpt>
      <trkpt lat="42.83645" lon="-0.43098">
        <ele>2077.0659179688</ele>
        <time>2015-09-06T12:26:46Z</time>
      </trkpt>
      <trkpt lat="42.83642" lon="-0.43085">
        <ele>2074.181640625</ele>
        <time>2015-09-06T12:27:01Z</time>
      </trkpt>
      <trkpt lat="42.83637" lon="-0.43073">
        <ele>2071.2976074219</ele>
        <time>2015-09-06T12:27:14Z</time>
      </trkpt>
      <trkpt lat="42.83634" lon="-0.43061">
        <ele>2068.4138183594</ele>
        <time>2015-09-06T12:27:28Z</time>
      </trkpt>
      <trkpt lat="42.83629" lon="-0.43052">
        <ele>2065.0493164062</ele>
        <time>2015-09-06T12:27:39Z</time>
      </trkpt>
      <trkpt lat="42.83626" lon="-0.43047">
        <ele>2064.087890625</ele>
        <time>2015-09-06T12:27:55Z</time>
      </trkpt>
      <trkpt lat="42.83621" lon="-0.43041">
        <ele>2061.2041015625</ele>
        <time>2015-09-06T12:28:05Z</time>
      </trkpt>
      <trkpt lat="42.83614" lon="-0.43031">
        <ele>2057.8393554688</ele>
        <time>2015-09-06T12:28:20Z</time>
      </trkpt>
      <trkpt lat="42.83614" lon="-0.4303">
        <ele>2057.8393554688</ele>
        <time>2015-09-06T12:28:21Z</time>
      </trkpt>
      <trkpt lat="42.83612" lon="-0.43027">
        <ele>2057.8393554688</ele>
        <time>2015-09-06T12:28:24Z</time>
      </trkpt>
      <trkpt lat="42.83607" lon="-0.43017">
        <ele>2055.9165039062</ele>
        <time>2015-09-06T12:28:35Z</time>
      </trkpt>
      <trkpt lat="42.83602" lon="-0.43007">
        <ele>2054.9553222656</ele>
        <time>2015-09-06T12:28:45Z</time>
      </trkpt>
      <trkpt lat="42.83598" lon="-0.42995">
        <ele>2053.0327148438</ele>
        <time>2015-09-06T12:28:54Z</time>
      </trkpt>
      <trkpt lat="42.83595" lon="-0.42987">
        <ele>2052.0712890625</ele>
        <time>2015-09-06T12:29:00Z</time>
      </trkpt>
      <trkpt lat="42.83593" lon="-0.42977">
        <ele>2051.1101074219</ele>
        <time>2015-09-06T12:29:06Z</time>
      </trkpt>
      <trkpt lat="42.83591" lon="-0.42951">
        <ele>2049.1875</ele>
        <time>2015-09-06T12:29:24Z</time>
      </trkpt>
      <trkpt lat="42.8359" lon="-0.42947">
        <ele>2048.7067871094</ele>
        <time>2015-09-06T12:29:28Z</time>
      </trkpt>
      <trkpt lat="42.83585" lon="-0.42936">
        <ele>2047.7456054688</ele>
        <time>2015-09-06T12:29:39Z</time>
      </trkpt>
      <trkpt lat="42.83578" lon="-0.42923">
        <ele>2046.7841796875</ele>
        <time>2015-09-06T12:29:52Z</time>
      </trkpt>
      <trkpt lat="42.83575" lon="-0.42916">
        <ele>2044.8615722656</ele>
        <time>2015-09-06T12:30:03Z</time>
      </trkpt>
      <trkpt lat="42.83572" lon="-0.42909">
        <ele>2042.4582519531</ele>
        <time>2015-09-06T12:30:14Z</time>
      </trkpt>
      <trkpt lat="42.83568" lon="-0.42903">
        <ele>2041.4968261719</ele>
        <time>2015-09-06T12:30:27Z</time>
      </trkpt>
      <trkpt lat="42.83564" lon="-0.42894">
        <ele>2040.0549316406</ele>
        <time>2015-09-06T12:30:41Z</time>
      </trkpt>
      <trkpt lat="42.83563" lon="-0.42892">
        <ele>2039.57421875</ele>
        <time>2015-09-06T12:30:47Z</time>
      </trkpt>
      <trkpt lat="42.83556" lon="-0.42885">
        <ele>2037.6516113281</ele>
        <time>2015-09-06T12:31:02Z</time>
      </trkpt>
      <trkpt lat="42.83558" lon="-0.42879">
        <ele>2035.7290039062</ele>
        <time>2015-09-06T12:31:15Z</time>
      </trkpt>
      <trkpt lat="42.83553" lon="-0.42872">
        <ele>2033.3256835938</ele>
        <time>2015-09-06T12:31:26Z</time>
      </trkpt>
      <trkpt lat="42.83546" lon="-0.42864">
        <ele>2034.287109375</ele>
        <time>2015-09-06T12:31:37Z</time>
      </trkpt>
      <trkpt lat="42.83541" lon="-0.42847">
        <ele>2033.3256835938</ele>
        <time>2015-09-06T12:31:52Z</time>
      </trkpt>
      <trkpt lat="42.83538" lon="-0.42839">
        <ele>2032.8449707031</ele>
        <time>2015-09-06T12:32:06Z</time>
      </trkpt>
      <trkpt lat="42.83537" lon="-0.42834">
        <ele>2032.3645019531</ele>
        <time>2015-09-06T12:32:17Z</time>
      </trkpt>
      <trkpt lat="42.83527" lon="-0.42809">
        <ele>2032.8449707031</ele>
        <time>2015-09-06T12:32:35Z</time>
      </trkpt>
      <trkpt lat="42.83521" lon="-0.42789">
        <ele>2032.3645019531</ele>
        <time>2015-09-06T12:32:50Z</time>
      </trkpt>
      <trkpt lat="42.83521" lon="-0.42788">
        <ele>2031.8837890625</ele>
        <time>2015-09-06T12:32:51Z</time>
      </trkpt>
      <trkpt lat="42.83519" lon="-0.42785">
        <ele>2032.3645019531</ele>
        <time>2015-09-06T12:32:54Z</time>
      </trkpt>
      <trkpt lat="42.83517" lon="-0.42771">
        <ele>2031.8837890625</ele>
        <time>2015-09-06T12:33:04Z</time>
      </trkpt>
      <trkpt lat="42.83518" lon="-0.42768">
        <ele>2031.8837890625</ele>
        <time>2015-09-06T12:33:06Z</time>
      </trkpt>
      <trkpt lat="42.83528" lon="-0.42745">
        <ele>2033.8063964844</ele>
        <time>2015-09-06T12:33:23Z</time>
      </trkpt>
      <trkpt lat="42.83533" lon="-0.42727">
        <ele>2035.7290039062</ele>
        <time>2015-09-06T12:33:38Z</time>
      </trkpt>
      <trkpt lat="42.83535" lon="-0.42724">
        <ele>2034.7678222656</ele>
        <time>2015-09-06T12:33:41Z</time>
      </trkpt>
      <trkpt lat="42.83539" lon="-0.42712">
        <ele>2034.7678222656</ele>
        <time>2015-09-06T12:33:59Z</time>
      </trkpt>
      <trkpt lat="42.8354" lon="-0.42696">
        <ele>2036.6901855469</ele>
        <time>2015-09-06T12:34:12Z</time>
      </trkpt>
      <trkpt lat="42.83543" lon="-0.42689">
        <ele>2036.6901855469</ele>
        <time>2015-09-06T12:34:19Z</time>
      </trkpt>
      <trkpt lat="42.83549" lon="-0.42681">
        <ele>2036.6901855469</ele>
        <time>2015-09-06T12:34:36Z</time>
      </trkpt>
      <trkpt lat="42.83555" lon="-0.42674">
        <ele>2035.2482910156</ele>
        <time>2015-09-06T12:34:47Z</time>
      </trkpt>
      <trkpt lat="42.8356" lon="-0.42671">
        <ele>2032.8449707031</ele>
        <time>2015-09-06T12:35:05Z</time>
      </trkpt>
      <trkpt lat="42.83571" lon="-0.42661">
        <ele>2030.9226074219</ele>
        <time>2015-09-06T12:35:22Z</time>
      </trkpt>
      <trkpt lat="42.83572" lon="-0.4266">
        <ele>2030.4418945312</ele>
        <time>2015-09-06T12:35:23Z</time>
      </trkpt>
      <trkpt lat="42.83583" lon="-0.42658">
        <ele>2028.0385742188</ele>
        <time>2015-09-06T12:35:37Z</time>
      </trkpt>
      <trkpt lat="42.83604" lon="-0.4265">
        <ele>2027.0771484375</ele>
        <time>2015-09-06T12:35:58Z</time>
      </trkpt>
      <trkpt lat="42.83613" lon="-0.42641">
        <ele>2027.0771484375</ele>
        <time>2015-09-06T12:36:13Z</time>
      </trkpt>
      <trkpt lat="42.83621" lon="-0.42628">
        <ele>2027.0771484375</ele>
        <time>2015-09-06T12:36:25Z</time>
      </trkpt>
      <trkpt lat="42.83624" lon="-0.42622">
        <ele>2026.5964355469</ele>
        <time>2015-09-06T12:36:30Z</time>
      </trkpt>
      <trkpt lat="42.8363" lon="-0.42614">
        <ele>2026.5964355469</ele>
        <time>2015-09-06T12:36:45Z</time>
      </trkpt>
      <trkpt lat="42.8363" lon="-0.42613">
        <ele>2026.1157226562</ele>
        <time>2015-09-06T12:36:46Z</time>
      </trkpt>
      <trkpt lat="42.83636" lon="-0.42597">
        <ele>2026.1157226562</ele>
        <time>2015-09-06T12:37:02Z</time>
      </trkpt>
      <trkpt lat="42.83643" lon="-0.42599">
        <ele>2023.2319335938</ele>
        <time>2015-09-06T12:37:19Z</time>
      </trkpt>
      <trkpt lat="42.83649" lon="-0.42614">
        <ele>2021.7897949219</ele>
        <time>2015-09-06T12:37:34Z</time>
      </trkpt>
      <trkpt lat="42.83655" lon="-0.42627">
        <ele>2021.3090820312</ele>
        <time>2015-09-06T12:37:53Z</time>
      </trkpt>
      <trkpt lat="42.83656" lon="-0.42626">
        <ele>2021.7897949219</ele>
        <time>2015-09-06T12:38:18Z</time>
      </trkpt>
    </trkseg>
  </trk>
</gpx>